<?xml version="1.0" encoding="UTF-8" standalone="no" ?>
<gpx xmlns="http://www.topografix.com/GPX/1/1" xmlns:xsi="http://www.w3.org/2001/XMLSchema-instance" xsi:schemaLocation="http://www.topografix.com/GPX/1/1 http://www.topografix.com/GPX/1/1/gpx.xsd" version="1.1" creator="VisuGPX - https://www.visugpx.com">
  <metadata>
    <name>megavalanche</name>
  </metadata>
  <trk>
    <name><![CDATA[Megaautre]]></name>
    <trkseg>
      <trkpt lat="45.12583" lon="6.12799">
        <ele>3316.528</ele>
        <time>2009-07-12T07:44:17Z</time>
      </trkpt>
      <trkpt lat="45.12583" lon="6.12799">
        <ele>3316.519</ele>
        <time>2009-07-12T07:44:43Z</time>
      </trkpt>
      <trkpt lat="45.12582" lon="6.12811">
        <ele>3316.099</ele>
        <time>2009-07-12T07:44:52Z</time>
      </trkpt>
      <trkpt lat="45.1258" lon="6.12815">
        <ele>3315.377</ele>
        <time>2009-07-12T07:45:04Z</time>
      </trkpt>
      <trkpt lat="45.12579" lon="6.12819">
        <ele>3315.292</ele>
        <time>2009-07-12T07:45:06Z</time>
      </trkpt>
      <trkpt lat="45.12573" lon="6.12828">
        <ele>3312.974</ele>
        <time>2009-07-12T07:45:15Z</time>
      </trkpt>
      <trkpt lat="45.12571" lon="6.12828">
        <ele>3310.876</ele>
        <time>2009-07-12T07:45:22Z</time>
      </trkpt>
      <trkpt lat="45.1257" lon="6.12829">
        <ele>3310.123</ele>
        <time>2009-07-12T07:45:32Z</time>
      </trkpt>
      <trkpt lat="45.1257" lon="6.12828">
        <ele>3309.891</ele>
        <time>2009-07-12T07:46:00Z</time>
      </trkpt>
      <trkpt lat="45.12568" lon="6.1283">
        <ele>3310.129</ele>
        <time>2009-07-12T07:47:22Z</time>
      </trkpt>
      <trkpt lat="45.12562" lon="6.12836">
        <ele>3308.29</ele>
        <time>2009-07-12T07:47:32Z</time>
      </trkpt>
      <trkpt lat="45.12557" lon="6.12849">
        <ele>3306.65</ele>
        <time>2009-07-12T07:47:38Z</time>
      </trkpt>
      <trkpt lat="45.12546" lon="6.1286">
        <ele>3302.425</ele>
        <time>2009-07-12T07:47:45Z</time>
      </trkpt>
      <trkpt lat="45.12531" lon="6.12864">
        <ele>3296.556</ele>
        <time>2009-07-12T07:47:52Z</time>
      </trkpt>
      <trkpt lat="45.12523" lon="6.12863">
        <ele>3294.073</ele>
        <time>2009-07-12T07:47:57Z</time>
      </trkpt>
      <trkpt lat="45.12516" lon="6.12863">
        <ele>3292.508</ele>
        <time>2009-07-12T07:48:04Z</time>
      </trkpt>
      <trkpt lat="45.12508" lon="6.12863">
        <ele>3290.184</ele>
        <time>2009-07-12T07:48:11Z</time>
      </trkpt>
      <trkpt lat="45.12502" lon="6.12864">
        <ele>3288.442</ele>
        <time>2009-07-12T07:48:18Z</time>
      </trkpt>
      <trkpt lat="45.12496" lon="6.12866">
        <ele>3285.124</ele>
        <time>2009-07-12T07:48:24Z</time>
      </trkpt>
      <trkpt lat="45.12488" lon="6.12866">
        <ele>3281.776</ele>
        <time>2009-07-12T07:48:30Z</time>
      </trkpt>
      <trkpt lat="45.12483" lon="6.12865">
        <ele>3280.936</ele>
        <time>2009-07-12T07:48:35Z</time>
      </trkpt>
      <trkpt lat="45.12475" lon="6.12865">
        <ele>3278.009</ele>
        <time>2009-07-12T07:48:43Z</time>
      </trkpt>
      <trkpt lat="45.12475" lon="6.12865">
        <ele>3277.627</ele>
        <time>2009-07-12T07:48:44Z</time>
      </trkpt>
      <trkpt lat="45.12473" lon="6.12866">
        <ele>3277.01</ele>
        <time>2009-07-12T07:48:46Z</time>
      </trkpt>
      <trkpt lat="45.12468" lon="6.12866">
        <ele>3275.442</ele>
        <time>2009-07-12T07:48:52Z</time>
      </trkpt>
      <trkpt lat="45.12466" lon="6.12865">
        <ele>3274.543</ele>
        <time>2009-07-12T07:48:54Z</time>
      </trkpt>
      <trkpt lat="45.12454" lon="6.12864">
        <ele>3270.712</ele>
        <time>2009-07-12T07:49:04Z</time>
      </trkpt>
      <trkpt lat="45.1245" lon="6.12863">
        <ele>3271.292</ele>
        <time>2009-07-12T07:49:11Z</time>
      </trkpt>
      <trkpt lat="45.1245" lon="6.12867">
        <ele>3270.004</ele>
        <time>2009-07-12T07:49:18Z</time>
      </trkpt>
      <trkpt lat="45.12449" lon="6.12872">
        <ele>3269.96</ele>
        <time>2009-07-12T07:49:28Z</time>
      </trkpt>
      <trkpt lat="45.1245" lon="6.12875">
        <ele>3269.625</ele>
        <time>2009-07-12T07:49:35Z</time>
      </trkpt>
      <trkpt lat="45.12453" lon="6.12889">
        <ele>3267.881</ele>
        <time>2009-07-12T07:49:44Z</time>
      </trkpt>
      <trkpt lat="45.12454" lon="6.12892">
        <ele>3266.391</ele>
        <time>2009-07-12T07:49:51Z</time>
      </trkpt>
      <trkpt lat="45.12448" lon="6.12894">
        <ele>3263.748</ele>
        <time>2009-07-12T07:49:58Z</time>
      </trkpt>
      <trkpt lat="45.12446" lon="6.12894">
        <ele>3262.572</ele>
        <time>2009-07-12T07:50:00Z</time>
      </trkpt>
      <trkpt lat="45.12435" lon="6.12894">
        <ele>3256.141</ele>
        <time>2009-07-12T07:50:09Z</time>
      </trkpt>
      <trkpt lat="45.12427" lon="6.12891">
        <ele>3253.012</ele>
        <time>2009-07-12T07:50:15Z</time>
      </trkpt>
      <trkpt lat="45.12421" lon="6.12889">
        <ele>3251.529</ele>
        <time>2009-07-12T07:50:21Z</time>
      </trkpt>
      <trkpt lat="45.12414" lon="6.12887">
        <ele>3248.231</ele>
        <time>2009-07-12T07:50:27Z</time>
      </trkpt>
      <trkpt lat="45.12414" lon="6.12887">
        <ele>3247.964</ele>
        <time>2009-07-12T07:50:28Z</time>
      </trkpt>
      <trkpt lat="45.12418" lon="6.12898">
        <ele>3245.055</ele>
        <time>2009-07-12T07:50:34Z</time>
      </trkpt>
      <trkpt lat="45.1242" lon="6.12903">
        <ele>3244.232</ele>
        <time>2009-07-12T07:50:37Z</time>
      </trkpt>
      <trkpt lat="45.12419" lon="6.12919">
        <ele>3243.164</ele>
        <time>2009-07-12T07:50:45Z</time>
      </trkpt>
      <trkpt lat="45.1242" lon="6.12933">
        <ele>3242.615</ele>
        <time>2009-07-12T07:50:53Z</time>
      </trkpt>
      <trkpt lat="45.12421" lon="6.12945">
        <ele>3240.669</ele>
        <time>2009-07-12T07:51:00Z</time>
      </trkpt>
      <trkpt lat="45.12423" lon="6.12955">
        <ele>3238.443</ele>
        <time>2009-07-12T07:51:07Z</time>
      </trkpt>
      <trkpt lat="45.12423" lon="6.12982">
        <ele>3231.769</ele>
        <time>2009-07-12T07:51:14Z</time>
      </trkpt>
      <trkpt lat="45.12414" lon="6.13003">
        <ele>3226.199</ele>
        <time>2009-07-12T07:51:19Z</time>
      </trkpt>
      <trkpt lat="45.12405" lon="6.13021">
        <ele>3221.112</ele>
        <time>2009-07-12T07:51:23Z</time>
      </trkpt>
      <trkpt lat="45.12393" lon="6.13041">
        <ele>3219.109</ele>
        <time>2009-07-12T07:51:29Z</time>
      </trkpt>
      <trkpt lat="45.1238" lon="6.13061">
        <ele>3214.748</ele>
        <time>2009-07-12T07:51:37Z</time>
      </trkpt>
      <trkpt lat="45.12373" lon="6.13067">
        <ele>3211.507</ele>
        <time>2009-07-12T07:51:43Z</time>
      </trkpt>
      <trkpt lat="45.12365" lon="6.13069">
        <ele>3209.051</ele>
        <time>2009-07-12T07:51:52Z</time>
      </trkpt>
      <trkpt lat="45.12356" lon="6.13068">
        <ele>3206.661</ele>
        <time>2009-07-12T07:51:59Z</time>
      </trkpt>
      <trkpt lat="45.12351" lon="6.13065">
        <ele>3205.218</ele>
        <time>2009-07-12T07:52:07Z</time>
      </trkpt>
      <trkpt lat="45.12347" lon="6.13061">
        <ele>3204.204</ele>
        <time>2009-07-12T07:52:11Z</time>
      </trkpt>
      <trkpt lat="45.12338" lon="6.13048">
        <ele>3200.581</ele>
        <time>2009-07-12T07:52:20Z</time>
      </trkpt>
      <trkpt lat="45.1233" lon="6.13035">
        <ele>3195.022</ele>
        <time>2009-07-12T07:52:26Z</time>
      </trkpt>
      <trkpt lat="45.12329" lon="6.1303">
        <ele>3192.361</ele>
        <time>2009-07-12T07:52:31Z</time>
      </trkpt>
      <trkpt lat="45.12326" lon="6.13022">
        <ele>3188.814</ele>
        <time>2009-07-12T07:52:36Z</time>
      </trkpt>
      <trkpt lat="45.12324" lon="6.13019">
        <ele>3186.466</ele>
        <time>2009-07-12T07:52:43Z</time>
      </trkpt>
      <trkpt lat="45.12322" lon="6.13018">
        <ele>3186.978</ele>
        <time>2009-07-12T07:52:51Z</time>
      </trkpt>
      <trkpt lat="45.1232" lon="6.13014">
        <ele>3186.453</ele>
        <time>2009-07-12T07:53:09Z</time>
      </trkpt>
      <trkpt lat="45.12317" lon="6.13006">
        <ele>3185.219</ele>
        <time>2009-07-12T07:53:16Z</time>
      </trkpt>
      <trkpt lat="45.12316" lon="6.13006">
        <ele>3184.793</ele>
        <time>2009-07-12T07:53:24Z</time>
      </trkpt>
      <trkpt lat="45.12315" lon="6.12999">
        <ele>3184.065</ele>
        <time>2009-07-12T07:53:34Z</time>
      </trkpt>
      <trkpt lat="45.12312" lon="6.12989">
        <ele>3181.786</ele>
        <time>2009-07-12T07:53:40Z</time>
      </trkpt>
      <trkpt lat="45.12311" lon="6.12987">
        <ele>3181.503</ele>
        <time>2009-07-12T07:53:41Z</time>
      </trkpt>
      <trkpt lat="45.12306" lon="6.1297">
        <ele>3177.56</ele>
        <time>2009-07-12T07:53:50Z</time>
      </trkpt>
      <trkpt lat="45.123" lon="6.12951">
        <ele>3173.54</ele>
        <time>2009-07-12T07:53:58Z</time>
      </trkpt>
      <trkpt lat="45.12298" lon="6.12947">
        <ele>3173.377</ele>
        <time>2009-07-12T07:54:04Z</time>
      </trkpt>
      <trkpt lat="45.12294" lon="6.12934">
        <ele>3170.931</ele>
        <time>2009-07-12T07:54:12Z</time>
      </trkpt>
      <trkpt lat="45.12282" lon="6.12909">
        <ele>3163.527</ele>
        <time>2009-07-12T07:54:22Z</time>
      </trkpt>
      <trkpt lat="45.12272" lon="6.12886">
        <ele>3157.339</ele>
        <time>2009-07-12T07:54:29Z</time>
      </trkpt>
      <trkpt lat="45.12263" lon="6.12859">
        <ele>3151.437</ele>
        <time>2009-07-12T07:54:37Z</time>
      </trkpt>
      <trkpt lat="45.12261" lon="6.12856">
        <ele>3150.258</ele>
        <time>2009-07-12T07:54:39Z</time>
      </trkpt>
      <trkpt lat="45.12261" lon="6.1285">
        <ele>3148.049</ele>
        <time>2009-07-12T07:54:45Z</time>
      </trkpt>
      <trkpt lat="45.1226" lon="6.12832">
        <ele>3146.796</ele>
        <time>2009-07-12T07:54:51Z</time>
      </trkpt>
      <trkpt lat="45.12263" lon="6.12808">
        <ele>3144.737</ele>
        <time>2009-07-12T07:54:59Z</time>
      </trkpt>
      <trkpt lat="45.12264" lon="6.12784">
        <ele>3142.88</ele>
        <time>2009-07-12T07:55:05Z</time>
      </trkpt>
      <trkpt lat="45.12264" lon="6.12773">
        <ele>3140.444</ele>
        <time>2009-07-12T07:55:11Z</time>
      </trkpt>
      <trkpt lat="45.12267" lon="6.12764">
        <ele>3140.117</ele>
        <time>2009-07-12T07:55:18Z</time>
      </trkpt>
      <trkpt lat="45.12265" lon="6.12753">
        <ele>3138.982</ele>
        <time>2009-07-12T07:55:25Z</time>
      </trkpt>
      <trkpt lat="45.12259" lon="6.1273">
        <ele>3137.586</ele>
        <time>2009-07-12T07:55:32Z</time>
      </trkpt>
      <trkpt lat="45.12256" lon="6.12722">
        <ele>3137.058</ele>
        <time>2009-07-12T07:55:38Z</time>
      </trkpt>
      <trkpt lat="45.12252" lon="6.12714">
        <ele>3137.303</ele>
        <time>2009-07-12T07:55:52Z</time>
      </trkpt>
      <trkpt lat="45.12242" lon="6.12701">
        <ele>3135.143</ele>
        <time>2009-07-12T07:55:58Z</time>
      </trkpt>
      <trkpt lat="45.1223" lon="6.12678">
        <ele>3129.486</ele>
        <time>2009-07-12T07:56:05Z</time>
      </trkpt>
      <trkpt lat="45.12232" lon="6.12678">
        <ele>3128.385</ele>
        <time>2009-07-12T07:56:09Z</time>
      </trkpt>
      <trkpt lat="45.12227" lon="6.12671">
        <ele>3127.25</ele>
        <time>2009-07-12T07:56:20Z</time>
      </trkpt>
      <trkpt lat="45.12221" lon="6.12664">
        <ele>3125.285</ele>
        <time>2009-07-12T07:56:26Z</time>
      </trkpt>
      <trkpt lat="45.12211" lon="6.12649">
        <ele>3123.423</ele>
        <time>2009-07-12T07:56:33Z</time>
      </trkpt>
      <trkpt lat="45.12207" lon="6.12646">
        <ele>3120.948</ele>
        <time>2009-07-12T07:56:39Z</time>
      </trkpt>
      <trkpt lat="45.12205" lon="6.12646">
        <ele>3120.625</ele>
        <time>2009-07-12T07:56:46Z</time>
      </trkpt>
      <trkpt lat="45.122" lon="6.12635">
        <ele>3120.418</ele>
        <time>2009-07-12T07:56:52Z</time>
      </trkpt>
      <trkpt lat="45.12199" lon="6.1263">
        <ele>3120.12</ele>
        <time>2009-07-12T07:56:57Z</time>
      </trkpt>
      <trkpt lat="45.12198" lon="6.12628">
        <ele>3120.617</ele>
        <time>2009-07-12T07:57:04Z</time>
      </trkpt>
      <trkpt lat="45.12194" lon="6.12621">
        <ele>3120.316</ele>
        <time>2009-07-12T07:57:14Z</time>
      </trkpt>
      <trkpt lat="45.12193" lon="6.12621">
        <ele>3120.089</ele>
        <time>2009-07-12T07:57:15Z</time>
      </trkpt>
      <trkpt lat="45.12188" lon="6.12615">
        <ele>3119.961</ele>
        <time>2009-07-12T07:57:25Z</time>
      </trkpt>
      <trkpt lat="45.12192" lon="6.12616">
        <ele>3119.418</ele>
        <time>2009-07-12T07:57:39Z</time>
      </trkpt>
      <trkpt lat="45.12189" lon="6.12616">
        <ele>3119.006</ele>
        <time>2009-07-12T07:57:40Z</time>
      </trkpt>
      <trkpt lat="45.12169" lon="6.12629">
        <ele>3117.373</ele>
        <time>2009-07-12T07:57:48Z</time>
      </trkpt>
      <trkpt lat="45.12153" lon="6.12642">
        <ele>3115.726</ele>
        <time>2009-07-12T07:57:53Z</time>
      </trkpt>
      <trkpt lat="45.12146" lon="6.12648">
        <ele>3111.534</ele>
        <time>2009-07-12T07:57:59Z</time>
      </trkpt>
      <trkpt lat="45.12147" lon="6.12648">
        <ele>3111.1</ele>
        <time>2009-07-12T07:58:07Z</time>
      </trkpt>
      <trkpt lat="45.12162" lon="6.12637">
        <ele>3110.419</ele>
        <time>2009-07-12T07:59:29Z</time>
      </trkpt>
      <trkpt lat="45.12164" lon="6.12636">
        <ele>3109.081</ele>
        <time>2009-07-12T07:59:38Z</time>
      </trkpt>
      <trkpt lat="45.12164" lon="6.12636">
        <ele>3108.053</ele>
        <time>2009-07-12T07:59:54Z</time>
      </trkpt>
      <trkpt lat="45.12161" lon="6.12636">
        <ele>3107.895</ele>
        <time>2009-07-12T08:00:25Z</time>
      </trkpt>
      <trkpt lat="45.12157" lon="6.12639">
        <ele>3107.622</ele>
        <time>2009-07-12T08:00:37Z</time>
      </trkpt>
      <trkpt lat="45.12153" lon="6.12644">
        <ele>3107.761</ele>
        <time>2009-07-12T08:00:52Z</time>
      </trkpt>
      <trkpt lat="45.12151" lon="6.12651">
        <ele>3107.595</ele>
        <time>2009-07-12T08:01:03Z</time>
      </trkpt>
      <trkpt lat="45.12149" lon="6.12646">
        <ele>3108.335</ele>
        <time>2009-07-12T08:01:12Z</time>
      </trkpt>
      <trkpt lat="45.12144" lon="6.1265">
        <ele>3108.744</ele>
        <time>2009-07-12T08:01:23Z</time>
      </trkpt>
      <trkpt lat="45.12139" lon="6.12657">
        <ele>3108.808</ele>
        <time>2009-07-12T08:01:35Z</time>
      </trkpt>
      <trkpt lat="45.12135" lon="6.12658">
        <ele>3108.513</ele>
        <time>2009-07-12T08:01:44Z</time>
      </trkpt>
      <trkpt lat="45.12134" lon="6.12659">
        <ele>3108.268</ele>
        <time>2009-07-12T08:01:54Z</time>
      </trkpt>
      <trkpt lat="45.1213" lon="6.12663">
        <ele>3107.977</ele>
        <time>2009-07-12T08:02:03Z</time>
      </trkpt>
      <trkpt lat="45.12127" lon="6.12665">
        <ele>3106.442</ele>
        <time>2009-07-12T08:02:10Z</time>
      </trkpt>
      <trkpt lat="45.12125" lon="6.12668">
        <ele>3105.725</ele>
        <time>2009-07-12T08:02:18Z</time>
      </trkpt>
      <trkpt lat="45.12121" lon="6.12672">
        <ele>3104.786</ele>
        <time>2009-07-12T08:02:29Z</time>
      </trkpt>
      <trkpt lat="45.12117" lon="6.12674">
        <ele>3103.311</ele>
        <time>2009-07-12T08:02:38Z</time>
      </trkpt>
      <trkpt lat="45.12113" lon="6.12678">
        <ele>3102.374</ele>
        <time>2009-07-12T08:02:46Z</time>
      </trkpt>
      <trkpt lat="45.12109" lon="6.12683">
        <ele>3101.832</ele>
        <time>2009-07-12T08:03:03Z</time>
      </trkpt>
      <trkpt lat="45.12108" lon="6.12686">
        <ele>3100.136</ele>
        <time>2009-07-12T08:03:13Z</time>
      </trkpt>
      <trkpt lat="45.12103" lon="6.12692">
        <ele>3098.725</ele>
        <time>2009-07-12T08:03:38Z</time>
      </trkpt>
      <trkpt lat="45.12101" lon="6.12694">
        <ele>3098.66</ele>
        <time>2009-07-12T08:03:41Z</time>
      </trkpt>
      <trkpt lat="45.12095" lon="6.12699">
        <ele>3098.243</ele>
        <time>2009-07-12T08:03:47Z</time>
      </trkpt>
      <trkpt lat="45.12093" lon="6.12704">
        <ele>3092.84</ele>
        <time>2009-07-12T08:03:52Z</time>
      </trkpt>
      <trkpt lat="45.12089" lon="6.12718">
        <ele>3090.745</ele>
        <time>2009-07-12T08:03:59Z</time>
      </trkpt>
      <trkpt lat="45.12089" lon="6.1272">
        <ele>3087.33</ele>
        <time>2009-07-12T08:04:06Z</time>
      </trkpt>
      <trkpt lat="45.12088" lon="6.12722">
        <ele>3086.453</ele>
        <time>2009-07-12T08:04:18Z</time>
      </trkpt>
      <trkpt lat="45.12088" lon="6.12723">
        <ele>3086.531</ele>
        <time>2009-07-12T08:04:19Z</time>
      </trkpt>
      <trkpt lat="45.12084" lon="6.12734">
        <ele>3084.22</ele>
        <time>2009-07-12T08:04:25Z</time>
      </trkpt>
      <trkpt lat="45.12083" lon="6.12739">
        <ele>3082.407</ele>
        <time>2009-07-12T08:04:28Z</time>
      </trkpt>
      <trkpt lat="45.12082" lon="6.1274">
        <ele>3074.536</ele>
        <time>2009-07-12T08:04:35Z</time>
      </trkpt>
      <trkpt lat="45.12078" lon="6.12753">
        <ele>3071.731</ele>
        <time>2009-07-12T08:04:40Z</time>
      </trkpt>
      <trkpt lat="45.12068" lon="6.12773">
        <ele>3067.64</ele>
        <time>2009-07-12T08:04:46Z</time>
      </trkpt>
      <trkpt lat="45.1205" lon="6.12795">
        <ele>3062.29</ele>
        <time>2009-07-12T08:04:55Z</time>
      </trkpt>
      <trkpt lat="45.12043" lon="6.12801">
        <ele>3058.144</ele>
        <time>2009-07-12T08:05:01Z</time>
      </trkpt>
      <trkpt lat="45.12037" lon="6.12808">
        <ele>3053.948</ele>
        <time>2009-07-12T08:05:08Z</time>
      </trkpt>
      <trkpt lat="45.12036" lon="6.12809">
        <ele>3053.138</ele>
        <time>2009-07-12T08:05:09Z</time>
      </trkpt>
      <trkpt lat="45.12029" lon="6.12814">
        <ele>3048.971</ele>
        <time>2009-07-12T08:05:16Z</time>
      </trkpt>
      <trkpt lat="45.12026" lon="6.12816">
        <ele>3047.136</ele>
        <time>2009-07-12T08:05:23Z</time>
      </trkpt>
      <trkpt lat="45.12015" lon="6.12828">
        <ele>3043.355</ele>
        <time>2009-07-12T08:05:30Z</time>
      </trkpt>
      <trkpt lat="45.12009" lon="6.12838">
        <ele>3039.827</ele>
        <time>2009-07-12T08:05:36Z</time>
      </trkpt>
      <trkpt lat="45.11991" lon="6.12859">
        <ele>3033.308</ele>
        <time>2009-07-12T08:05:45Z</time>
      </trkpt>
      <trkpt lat="45.11986" lon="6.12866">
        <ele>3021.848</ele>
        <time>2009-07-12T08:05:52Z</time>
      </trkpt>
      <trkpt lat="45.11981" lon="6.12872">
        <ele>3017.097</ele>
        <time>2009-07-12T08:06:09Z</time>
      </trkpt>
      <trkpt lat="45.11967" lon="6.12887">
        <ele>3016.082</ele>
        <time>2009-07-12T08:06:15Z</time>
      </trkpt>
      <trkpt lat="45.11956" lon="6.12897">
        <ele>3010.843</ele>
        <time>2009-07-12T08:06:21Z</time>
      </trkpt>
      <trkpt lat="45.11956" lon="6.12897">
        <ele>3009.921</ele>
        <time>2009-07-12T08:06:29Z</time>
      </trkpt>
      <trkpt lat="45.11945" lon="6.12914">
        <ele>3007.865</ele>
        <time>2009-07-12T08:06:37Z</time>
      </trkpt>
      <trkpt lat="45.11936" lon="6.12926">
        <ele>3007.708</ele>
        <time>2009-07-12T08:06:44Z</time>
      </trkpt>
      <trkpt lat="45.11935" lon="6.12927">
        <ele>3006.295</ele>
        <time>2009-07-12T08:06:54Z</time>
      </trkpt>
      <trkpt lat="45.11934" lon="6.12934">
        <ele>3003.093</ele>
        <time>2009-07-12T08:06:59Z</time>
      </trkpt>
      <trkpt lat="45.11931" lon="6.12939">
        <ele>3000.481</ele>
        <time>2009-07-12T08:07:03Z</time>
      </trkpt>
      <trkpt lat="45.11926" lon="6.12951">
        <ele>3000.237</ele>
        <time>2009-07-12T08:07:10Z</time>
      </trkpt>
      <trkpt lat="45.11911" lon="6.12966">
        <ele>2998.988</ele>
        <time>2009-07-12T08:07:17Z</time>
      </trkpt>
      <trkpt lat="45.11889" lon="6.12979">
        <ele>2996.697</ele>
        <time>2009-07-12T08:07:25Z</time>
      </trkpt>
      <trkpt lat="45.11886" lon="6.12979">
        <ele>2995.265</ele>
        <time>2009-07-12T08:07:30Z</time>
      </trkpt>
      <trkpt lat="45.11876" lon="6.12979">
        <ele>2993.076</ele>
        <time>2009-07-12T08:07:44Z</time>
      </trkpt>
      <trkpt lat="45.11865" lon="6.12981">
        <ele>2990.949</ele>
        <time>2009-07-12T08:07:49Z</time>
      </trkpt>
      <trkpt lat="45.11844" lon="6.1298">
        <ele>2978.681</ele>
        <time>2009-07-12T08:07:58Z</time>
      </trkpt>
      <trkpt lat="45.11829" lon="6.12981">
        <ele>2972.576</ele>
        <time>2009-07-12T08:08:05Z</time>
      </trkpt>
      <trkpt lat="45.11806" lon="6.12982">
        <ele>2960.966</ele>
        <time>2009-07-12T08:08:12Z</time>
      </trkpt>
      <trkpt lat="45.11784" lon="6.12986">
        <ele>2956.082</ele>
        <time>2009-07-12T08:08:18Z</time>
      </trkpt>
      <trkpt lat="45.11781" lon="6.12988">
        <ele>2954.199</ele>
        <time>2009-07-12T08:08:22Z</time>
      </trkpt>
      <trkpt lat="45.1178" lon="6.12989">
        <ele>2953.652</ele>
        <time>2009-07-12T08:08:31Z</time>
      </trkpt>
      <trkpt lat="45.11773" lon="6.12994">
        <ele>2953.295</ele>
        <time>2009-07-12T08:08:37Z</time>
      </trkpt>
      <trkpt lat="45.11756" lon="6.13004">
        <ele>2953.74</ele>
        <time>2009-07-12T08:08:45Z</time>
      </trkpt>
      <trkpt lat="45.1174" lon="6.1301">
        <ele>2949.007</ele>
        <time>2009-07-12T08:08:51Z</time>
      </trkpt>
      <trkpt lat="45.11739" lon="6.13011">
        <ele>2945.193</ele>
        <time>2009-07-12T08:08:58Z</time>
      </trkpt>
      <trkpt lat="45.11728" lon="6.13009">
        <ele>2942.84</ele>
        <time>2009-07-12T08:09:06Z</time>
      </trkpt>
      <trkpt lat="45.11716" lon="6.13003">
        <ele>2940.005</ele>
        <time>2009-07-12T08:09:12Z</time>
      </trkpt>
      <trkpt lat="45.11709" lon="6.13003">
        <ele>2938.182</ele>
        <time>2009-07-12T08:09:17Z</time>
      </trkpt>
      <trkpt lat="45.117" lon="6.13001">
        <ele>2939.349</ele>
        <time>2009-07-12T08:09:26Z</time>
      </trkpt>
      <trkpt lat="45.11689" lon="6.12993">
        <ele>2934.441</ele>
        <time>2009-07-12T08:09:33Z</time>
      </trkpt>
      <trkpt lat="45.11676" lon="6.12988">
        <ele>2930.842</ele>
        <time>2009-07-12T08:09:39Z</time>
      </trkpt>
      <trkpt lat="45.11663" lon="6.12981">
        <ele>2926.686</ele>
        <time>2009-07-12T08:09:47Z</time>
      </trkpt>
      <trkpt lat="45.11645" lon="6.12972">
        <ele>2923.572</ele>
        <time>2009-07-12T08:09:55Z</time>
      </trkpt>
      <trkpt lat="45.1163" lon="6.12964">
        <ele>2919.499</ele>
        <time>2009-07-12T08:10:01Z</time>
      </trkpt>
      <trkpt lat="45.11619" lon="6.12957">
        <ele>2914.628</ele>
        <time>2009-07-12T08:10:09Z</time>
      </trkpt>
      <trkpt lat="45.11618" lon="6.12957">
        <ele>2912.875</ele>
        <time>2009-07-12T08:10:13Z</time>
      </trkpt>
      <trkpt lat="45.11617" lon="6.1295">
        <ele>2913.621</ele>
        <time>2009-07-12T08:10:17Z</time>
      </trkpt>
      <trkpt lat="45.11612" lon="6.12939">
        <ele>2911.251</ele>
        <time>2009-07-12T08:10:22Z</time>
      </trkpt>
      <trkpt lat="45.11603" lon="6.12916">
        <ele>2910.339</ele>
        <time>2009-07-12T08:10:30Z</time>
      </trkpt>
      <trkpt lat="45.11591" lon="6.12892">
        <ele>2904.922</ele>
        <time>2009-07-12T08:10:37Z</time>
      </trkpt>
      <trkpt lat="45.11571" lon="6.12859">
        <ele>2901.033</ele>
        <time>2009-07-12T08:10:45Z</time>
      </trkpt>
      <trkpt lat="45.11559" lon="6.12836">
        <ele>2897.753</ele>
        <time>2009-07-12T08:10:50Z</time>
      </trkpt>
      <trkpt lat="45.11555" lon="6.12829">
        <ele>2896.562</ele>
        <time>2009-07-12T08:10:52Z</time>
      </trkpt>
      <trkpt lat="45.11552" lon="6.12827">
        <ele>2895.591</ele>
        <time>2009-07-12T08:10:59Z</time>
      </trkpt>
      <trkpt lat="45.11551" lon="6.12822">
        <ele>2896.221</ele>
        <time>2009-07-12T08:11:02Z</time>
      </trkpt>
      <trkpt lat="45.11541" lon="6.12809">
        <ele>2896.252</ele>
        <time>2009-07-12T08:11:08Z</time>
      </trkpt>
      <trkpt lat="45.11527" lon="6.12795">
        <ele>2894.374</ele>
        <time>2009-07-12T08:11:17Z</time>
      </trkpt>
      <trkpt lat="45.11524" lon="6.12795">
        <ele>2889.593</ele>
        <time>2009-07-12T08:11:22Z</time>
      </trkpt>
      <trkpt lat="45.11522" lon="6.12794">
        <ele>2889.622</ele>
        <time>2009-07-12T08:11:25Z</time>
      </trkpt>
      <trkpt lat="45.11519" lon="6.12793">
        <ele>2889.455</ele>
        <time>2009-07-12T08:11:30Z</time>
      </trkpt>
      <trkpt lat="45.11518" lon="6.12786">
        <ele>2888.993</ele>
        <time>2009-07-12T08:11:36Z</time>
      </trkpt>
      <trkpt lat="45.11509" lon="6.12775">
        <ele>2888.743</ele>
        <time>2009-07-12T08:11:45Z</time>
      </trkpt>
      <trkpt lat="45.11505" lon="6.12769">
        <ele>2887.211</ele>
        <time>2009-07-12T08:11:50Z</time>
      </trkpt>
      <trkpt lat="45.11495" lon="6.12759">
        <ele>2885.662</ele>
        <time>2009-07-12T08:12:00Z</time>
      </trkpt>
      <trkpt lat="45.11489" lon="6.12749">
        <ele>2886.33</ele>
        <time>2009-07-12T08:12:07Z</time>
      </trkpt>
      <trkpt lat="45.11486" lon="6.12746">
        <ele>2885.556</ele>
        <time>2009-07-12T08:12:12Z</time>
      </trkpt>
      <trkpt lat="45.11481" lon="6.12744">
        <ele>2884.402</ele>
        <time>2009-07-12T08:12:19Z</time>
      </trkpt>
      <trkpt lat="45.11478" lon="6.12742">
        <ele>2882.659</ele>
        <time>2009-07-12T08:12:23Z</time>
      </trkpt>
      <trkpt lat="45.11465" lon="6.12735">
        <ele>2881.54</ele>
        <time>2009-07-12T08:12:30Z</time>
      </trkpt>
      <trkpt lat="45.1145" lon="6.12732">
        <ele>2877.725</ele>
        <time>2009-07-12T08:12:37Z</time>
      </trkpt>
      <trkpt lat="45.11447" lon="6.12733">
        <ele>2878.348</ele>
        <time>2009-07-12T08:12:42Z</time>
      </trkpt>
      <trkpt lat="45.11443" lon="6.12733">
        <ele>2877.613</ele>
        <time>2009-07-12T08:12:47Z</time>
      </trkpt>
      <trkpt lat="45.11434" lon="6.12729">
        <ele>2876.969</ele>
        <time>2009-07-12T08:12:55Z</time>
      </trkpt>
      <trkpt lat="45.11428" lon="6.12728">
        <ele>2876.9</ele>
        <time>2009-07-12T08:13:00Z</time>
      </trkpt>
      <trkpt lat="45.11421" lon="6.12728">
        <ele>2878.052</ele>
        <time>2009-07-12T08:13:07Z</time>
      </trkpt>
      <trkpt lat="45.11411" lon="6.12726">
        <ele>2879.556</ele>
        <time>2009-07-12T08:13:17Z</time>
      </trkpt>
      <trkpt lat="45.11404" lon="6.12729">
        <ele>2880.478</ele>
        <time>2009-07-12T08:13:26Z</time>
      </trkpt>
      <trkpt lat="45.11397" lon="6.12728">
        <ele>2881.369</ele>
        <time>2009-07-12T08:13:34Z</time>
      </trkpt>
      <trkpt lat="45.1139" lon="6.1273">
        <ele>2880.214</ele>
        <time>2009-07-12T08:13:42Z</time>
      </trkpt>
      <trkpt lat="45.1139" lon="6.1273">
        <ele>2880.055</ele>
        <time>2009-07-12T08:13:45Z</time>
      </trkpt>
      <trkpt lat="45.11386" lon="6.1273">
        <ele>2877.302</ele>
        <time>2009-07-12T08:13:51Z</time>
      </trkpt>
      <trkpt lat="45.1138" lon="6.12729">
        <ele>2877.118</ele>
        <time>2009-07-12T08:13:58Z</time>
      </trkpt>
      <trkpt lat="45.11375" lon="6.12729">
        <ele>2876.473</ele>
        <time>2009-07-12T08:14:05Z</time>
      </trkpt>
      <trkpt lat="45.1137" lon="6.12726">
        <ele>2874.873</ele>
        <time>2009-07-12T08:14:13Z</time>
      </trkpt>
      <trkpt lat="45.1137" lon="6.12725">
        <ele>2874.878</ele>
        <time>2009-07-12T08:14:14Z</time>
      </trkpt>
      <trkpt lat="45.11357" lon="6.1272">
        <ele>2873.444</ele>
        <time>2009-07-12T08:14:22Z</time>
      </trkpt>
      <trkpt lat="45.1135" lon="6.12715">
        <ele>2871.269</ele>
        <time>2009-07-12T08:14:30Z</time>
      </trkpt>
      <trkpt lat="45.11347" lon="6.12714">
        <ele>2870.698</ele>
        <time>2009-07-12T08:14:36Z</time>
      </trkpt>
      <trkpt lat="45.11343" lon="6.12709">
        <ele>2869.966</ele>
        <time>2009-07-12T08:14:43Z</time>
      </trkpt>
      <trkpt lat="45.11338" lon="6.12704">
        <ele>2869.332</ele>
        <time>2009-07-12T08:14:50Z</time>
      </trkpt>
      <trkpt lat="45.11335" lon="6.12701">
        <ele>2869.297</ele>
        <time>2009-07-12T08:14:54Z</time>
      </trkpt>
      <trkpt lat="45.11327" lon="6.12699">
        <ele>2867.814</ele>
        <time>2009-07-12T08:15:01Z</time>
      </trkpt>
      <trkpt lat="45.11322" lon="6.12694">
        <ele>2867.975</ele>
        <time>2009-07-12T08:15:09Z</time>
      </trkpt>
      <trkpt lat="45.1132" lon="6.12693">
        <ele>2863.356</ele>
        <time>2009-07-12T08:15:18Z</time>
      </trkpt>
      <trkpt lat="45.11316" lon="6.12694">
        <ele>2862.635</ele>
        <time>2009-07-12T08:15:27Z</time>
      </trkpt>
      <trkpt lat="45.11309" lon="6.12689">
        <ele>2861.774</ele>
        <time>2009-07-12T08:15:32Z</time>
      </trkpt>
      <trkpt lat="45.11304" lon="6.12689">
        <ele>2861.666</ele>
        <time>2009-07-12T08:15:35Z</time>
      </trkpt>
      <trkpt lat="45.11297" lon="6.12685">
        <ele>2860.635</ele>
        <time>2009-07-12T08:15:39Z</time>
      </trkpt>
      <trkpt lat="45.11277" lon="6.12679">
        <ele>2857.271</ele>
        <time>2009-07-12T08:15:46Z</time>
      </trkpt>
      <trkpt lat="45.1127" lon="6.12675">
        <ele>2855.551</ele>
        <time>2009-07-12T08:15:48Z</time>
      </trkpt>
      <trkpt lat="45.11233" lon="6.12664">
        <ele>2849.841</ele>
        <time>2009-07-12T08:15:56Z</time>
      </trkpt>
      <trkpt lat="45.11218" lon="6.12664">
        <ele>2847.935</ele>
        <time>2009-07-12T08:15:59Z</time>
      </trkpt>
      <trkpt lat="45.11203" lon="6.12668">
        <ele>2846.258</ele>
        <time>2009-07-12T08:16:02Z</time>
      </trkpt>
      <trkpt lat="45.11171" lon="6.12666">
        <ele>2836.587</ele>
        <time>2009-07-12T08:16:09Z</time>
      </trkpt>
      <trkpt lat="45.11164" lon="6.12662">
        <ele>2835.693</ele>
        <time>2009-07-12T08:16:11Z</time>
      </trkpt>
      <trkpt lat="45.11143" lon="6.12656">
        <ele>2834.005</ele>
        <time>2009-07-12T08:16:15Z</time>
      </trkpt>
      <trkpt lat="45.11131" lon="6.12652">
        <ele>2830.981</ele>
        <time>2009-07-12T08:16:17Z</time>
      </trkpt>
      <trkpt lat="45.11108" lon="6.12652">
        <ele>2829.113</ele>
        <time>2009-07-12T08:16:22Z</time>
      </trkpt>
      <trkpt lat="45.11089" lon="6.12659">
        <ele>2827.263</ele>
        <time>2009-07-12T08:16:29Z</time>
      </trkpt>
      <trkpt lat="45.11071" lon="6.12666">
        <ele>2828.521</ele>
        <time>2009-07-12T08:16:36Z</time>
      </trkpt>
      <trkpt lat="45.11054" lon="6.12672">
        <ele>2829.045</ele>
        <time>2009-07-12T08:16:42Z</time>
      </trkpt>
      <trkpt lat="45.11038" lon="6.12678">
        <ele>2828.969</ele>
        <time>2009-07-12T08:16:49Z</time>
      </trkpt>
      <trkpt lat="45.11019" lon="6.12679">
        <ele>2825.595</ele>
        <time>2009-07-12T08:16:56Z</time>
      </trkpt>
      <trkpt lat="45.10995" lon="6.12674">
        <ele>2826.846</ele>
        <time>2009-07-12T08:17:03Z</time>
      </trkpt>
      <trkpt lat="45.10958" lon="6.12671">
        <ele>2817.891</ele>
        <time>2009-07-12T08:17:11Z</time>
      </trkpt>
      <trkpt lat="45.10951" lon="6.12668">
        <ele>2815.405</ele>
        <time>2009-07-12T08:17:13Z</time>
      </trkpt>
      <trkpt lat="45.10929" lon="6.1265">
        <ele>2808.192</ele>
        <time>2009-07-12T08:17:18Z</time>
      </trkpt>
      <trkpt lat="45.10892" lon="6.12611">
        <ele>2795.027</ele>
        <time>2009-07-12T08:17:25Z</time>
      </trkpt>
      <trkpt lat="45.1086" lon="6.1257">
        <ele>2791.735</ele>
        <time>2009-07-12T08:17:31Z</time>
      </trkpt>
      <trkpt lat="45.1084" lon="6.12543">
        <ele>2788.019</ele>
        <time>2009-07-12T08:17:36Z</time>
      </trkpt>
      <trkpt lat="45.10824" lon="6.12532">
        <ele>2788.651</ele>
        <time>2009-07-12T08:17:41Z</time>
      </trkpt>
      <trkpt lat="45.10823" lon="6.1253">
        <ele>2789.105</ele>
        <time>2009-07-12T08:17:46Z</time>
      </trkpt>
      <trkpt lat="45.1082" lon="6.12519">
        <ele>2791.218</ele>
        <time>2009-07-12T08:18:08Z</time>
      </trkpt>
      <trkpt lat="45.10819" lon="6.12517">
        <ele>2791.287</ele>
        <time>2009-07-12T08:18:14Z</time>
      </trkpt>
      <trkpt lat="45.10805" lon="6.12503">
        <ele>2791.488</ele>
        <time>2009-07-12T08:18:19Z</time>
      </trkpt>
      <trkpt lat="45.10803" lon="6.12501">
        <ele>2793.57</ele>
        <time>2009-07-12T08:18:23Z</time>
      </trkpt>
      <trkpt lat="45.108" lon="6.12497">
        <ele>2793.629</ele>
        <time>2009-07-12T08:18:32Z</time>
      </trkpt>
      <trkpt lat="45.108" lon="6.12495">
        <ele>2793.424</ele>
        <time>2009-07-12T08:18:33Z</time>
      </trkpt>
      <trkpt lat="45.10798" lon="6.12492">
        <ele>2793.643</ele>
        <time>2009-07-12T08:18:40Z</time>
      </trkpt>
      <trkpt lat="45.10797" lon="6.1249">
        <ele>2792.765</ele>
        <time>2009-07-12T08:18:46Z</time>
      </trkpt>
      <trkpt lat="45.10796" lon="6.12485">
        <ele>2792.423</ele>
        <time>2009-07-12T08:18:50Z</time>
      </trkpt>
      <trkpt lat="45.10791" lon="6.12476">
        <ele>2792.232</ele>
        <time>2009-07-12T08:18:58Z</time>
      </trkpt>
      <trkpt lat="45.10786" lon="6.1247">
        <ele>2788.842</ele>
        <time>2009-07-12T08:19:06Z</time>
      </trkpt>
      <trkpt lat="45.10778" lon="6.12463">
        <ele>2786.171</ele>
        <time>2009-07-12T08:19:14Z</time>
      </trkpt>
      <trkpt lat="45.10775" lon="6.12461">
        <ele>2785.412</ele>
        <time>2009-07-12T08:19:16Z</time>
      </trkpt>
      <trkpt lat="45.10768" lon="6.12457">
        <ele>2783.77</ele>
        <time>2009-07-12T08:19:22Z</time>
      </trkpt>
      <trkpt lat="45.1076" lon="6.12456">
        <ele>2783.004</ele>
        <time>2009-07-12T08:19:30Z</time>
      </trkpt>
      <trkpt lat="45.1076" lon="6.12456">
        <ele>2782.564</ele>
        <time>2009-07-12T08:19:36Z</time>
      </trkpt>
      <trkpt lat="45.10758" lon="6.12457">
        <ele>2781.569</ele>
        <time>2009-07-12T08:19:42Z</time>
      </trkpt>
      <trkpt lat="45.10753" lon="6.12457">
        <ele>2779.248</ele>
        <time>2009-07-12T08:19:51Z</time>
      </trkpt>
      <trkpt lat="45.10753" lon="6.12456">
        <ele>2776.547</ele>
        <time>2009-07-12T08:20:00Z</time>
      </trkpt>
      <trkpt lat="45.10746" lon="6.12452">
        <ele>2774.066</ele>
        <time>2009-07-12T08:20:04Z</time>
      </trkpt>
      <trkpt lat="45.10722" lon="6.12456">
        <ele>2769.551</ele>
        <time>2009-07-12T08:20:09Z</time>
      </trkpt>
      <trkpt lat="45.10712" lon="6.12455">
        <ele>2769.28</ele>
        <time>2009-07-12T08:20:11Z</time>
      </trkpt>
      <trkpt lat="45.10697" lon="6.12463">
        <ele>2763.373</ele>
        <time>2009-07-12T08:20:17Z</time>
      </trkpt>
      <trkpt lat="45.10679" lon="6.12463">
        <ele>2752.367</ele>
        <time>2009-07-12T08:20:23Z</time>
      </trkpt>
      <trkpt lat="45.10657" lon="6.1246">
        <ele>2749.177</ele>
        <time>2009-07-12T08:20:29Z</time>
      </trkpt>
      <trkpt lat="45.10647" lon="6.12459">
        <ele>2747.938</ele>
        <time>2009-07-12T08:20:34Z</time>
      </trkpt>
      <trkpt lat="45.10638" lon="6.1246">
        <ele>2745.488</ele>
        <time>2009-07-12T08:20:43Z</time>
      </trkpt>
      <trkpt lat="45.10637" lon="6.12461">
        <ele>2745.352</ele>
        <time>2009-07-12T08:20:44Z</time>
      </trkpt>
      <trkpt lat="45.10633" lon="6.12458">
        <ele>2744.744</ele>
        <time>2009-07-12T08:20:49Z</time>
      </trkpt>
      <trkpt lat="45.10632" lon="6.12456">
        <ele>2744.592</ele>
        <time>2009-07-12T08:20:51Z</time>
      </trkpt>
      <trkpt lat="45.1063" lon="6.12448">
        <ele>2746.149</ele>
        <time>2009-07-12T08:21:00Z</time>
      </trkpt>
      <trkpt lat="45.10624" lon="6.12439">
        <ele>2744.758</ele>
        <time>2009-07-12T08:21:05Z</time>
      </trkpt>
      <trkpt lat="45.10607" lon="6.12428">
        <ele>2741.342</ele>
        <time>2009-07-12T08:21:11Z</time>
      </trkpt>
      <trkpt lat="45.10587" lon="6.12404">
        <ele>2738.164</ele>
        <time>2009-07-12T08:21:17Z</time>
      </trkpt>
      <trkpt lat="45.10578" lon="6.12394">
        <ele>2734.874</ele>
        <time>2009-07-12T08:21:22Z</time>
      </trkpt>
      <trkpt lat="45.10566" lon="6.12367">
        <ele>2734.667</ele>
        <time>2009-07-12T08:21:28Z</time>
      </trkpt>
      <trkpt lat="45.10561" lon="6.12363">
        <ele>2736.52</ele>
        <time>2009-07-12T08:21:33Z</time>
      </trkpt>
      <trkpt lat="45.10561" lon="6.12362">
        <ele>2736.575</ele>
        <time>2009-07-12T08:21:34Z</time>
      </trkpt>
      <trkpt lat="45.10559" lon="6.1235">
        <ele>2738.893</ele>
        <time>2009-07-12T08:21:44Z</time>
      </trkpt>
      <trkpt lat="45.10558" lon="6.12347">
        <ele>2739.826</ele>
        <time>2009-07-12T08:21:47Z</time>
      </trkpt>
      <trkpt lat="45.10552" lon="6.1234">
        <ele>2740.906</ele>
        <time>2009-07-12T08:21:55Z</time>
      </trkpt>
      <trkpt lat="45.10548" lon="6.12337">
        <ele>2740.331</ele>
        <time>2009-07-12T08:22:02Z</time>
      </trkpt>
      <trkpt lat="45.10548" lon="6.12335">
        <ele>2739.058</ele>
        <time>2009-07-12T08:22:04Z</time>
      </trkpt>
      <trkpt lat="45.10543" lon="6.12321">
        <ele>2739.737</ele>
        <time>2009-07-12T08:22:09Z</time>
      </trkpt>
      <trkpt lat="45.10541" lon="6.12317">
        <ele>2739.478</ele>
        <time>2009-07-12T08:22:15Z</time>
      </trkpt>
      <trkpt lat="45.10539" lon="6.12312">
        <ele>2737.447</ele>
        <time>2009-07-12T08:22:22Z</time>
      </trkpt>
      <trkpt lat="45.1054" lon="6.1231">
        <ele>2737.042</ele>
        <time>2009-07-12T08:22:25Z</time>
      </trkpt>
      <trkpt lat="45.10535" lon="6.12303">
        <ele>2737.268</ele>
        <time>2009-07-12T08:22:29Z</time>
      </trkpt>
      <trkpt lat="45.10523" lon="6.1229">
        <ele>2734.623</ele>
        <time>2009-07-12T08:22:35Z</time>
      </trkpt>
      <trkpt lat="45.10512" lon="6.12277">
        <ele>2735.061</ele>
        <time>2009-07-12T08:22:41Z</time>
      </trkpt>
      <trkpt lat="45.105" lon="6.12271">
        <ele>2731.052</ele>
        <time>2009-07-12T08:22:46Z</time>
      </trkpt>
      <trkpt lat="45.10496" lon="6.12264">
        <ele>2730.867</ele>
        <time>2009-07-12T08:22:51Z</time>
      </trkpt>
      <trkpt lat="45.10486" lon="6.12249">
        <ele>2729.983</ele>
        <time>2009-07-12T08:23:10Z</time>
      </trkpt>
      <trkpt lat="45.10472" lon="6.12238">
        <ele>2727.558</ele>
        <time>2009-07-12T08:23:15Z</time>
      </trkpt>
      <trkpt lat="45.10463" lon="6.12224">
        <ele>2724.946</ele>
        <time>2009-07-12T08:23:20Z</time>
      </trkpt>
      <trkpt lat="45.10459" lon="6.1222">
        <ele>2722.072</ele>
        <time>2009-07-12T08:23:25Z</time>
      </trkpt>
      <trkpt lat="45.10456" lon="6.12215">
        <ele>2721.529</ele>
        <time>2009-07-12T08:23:34Z</time>
      </trkpt>
      <trkpt lat="45.10448" lon="6.12198">
        <ele>2716.654</ele>
        <time>2009-07-12T08:23:40Z</time>
      </trkpt>
      <trkpt lat="45.1044" lon="6.12182">
        <ele>2709.74</ele>
        <time>2009-07-12T08:23:46Z</time>
      </trkpt>
      <trkpt lat="45.10438" lon="6.12182">
        <ele>2708.979</ele>
        <time>2009-07-12T08:23:50Z</time>
      </trkpt>
      <trkpt lat="45.10437" lon="6.1218">
        <ele>2706.998</ele>
        <time>2009-07-12T08:23:57Z</time>
      </trkpt>
      <trkpt lat="45.10433" lon="6.12173">
        <ele>2704.333</ele>
        <time>2009-07-12T08:24:04Z</time>
      </trkpt>
      <trkpt lat="45.10431" lon="6.12174">
        <ele>2704.508</ele>
        <time>2009-07-12T08:24:07Z</time>
      </trkpt>
      <trkpt lat="45.10425" lon="6.12171">
        <ele>2702.945</ele>
        <time>2009-07-12T08:24:16Z</time>
      </trkpt>
      <trkpt lat="45.10424" lon="6.12168">
        <ele>2702.196</ele>
        <time>2009-07-12T08:24:23Z</time>
      </trkpt>
      <trkpt lat="45.10422" lon="6.12166">
        <ele>2701.812</ele>
        <time>2009-07-12T08:24:27Z</time>
      </trkpt>
      <trkpt lat="45.10422" lon="6.12159">
        <ele>2701.452</ele>
        <time>2009-07-12T08:24:31Z</time>
      </trkpt>
      <trkpt lat="45.10421" lon="6.12148">
        <ele>2701.577</ele>
        <time>2009-07-12T08:24:39Z</time>
      </trkpt>
      <trkpt lat="45.10419" lon="6.12143">
        <ele>2701.643</ele>
        <time>2009-07-12T08:24:44Z</time>
      </trkpt>
      <trkpt lat="45.10416" lon="6.1214">
        <ele>2699.985</ele>
        <time>2009-07-12T08:24:48Z</time>
      </trkpt>
      <trkpt lat="45.10405" lon="6.12123">
        <ele>2697.144</ele>
        <time>2009-07-12T08:24:54Z</time>
      </trkpt>
      <trkpt lat="45.10402" lon="6.12119">
        <ele>2695.549</ele>
        <time>2009-07-12T08:24:55Z</time>
      </trkpt>
      <trkpt lat="45.10394" lon="6.1211">
        <ele>2692.375</ele>
        <time>2009-07-12T08:24:58Z</time>
      </trkpt>
      <trkpt lat="45.10382" lon="6.12106">
        <ele>2691.49</ele>
        <time>2009-07-12T08:25:03Z</time>
      </trkpt>
      <trkpt lat="45.10378" lon="6.12106">
        <ele>2690.595</ele>
        <time>2009-07-12T08:25:16Z</time>
      </trkpt>
      <trkpt lat="45.10374" lon="6.12103">
        <ele>2690.079</ele>
        <time>2009-07-12T08:25:23Z</time>
      </trkpt>
      <trkpt lat="45.10373" lon="6.12101">
        <ele>2690.071</ele>
        <time>2009-07-12T08:25:27Z</time>
      </trkpt>
      <trkpt lat="45.10368" lon="6.121">
        <ele>2689.293</ele>
        <time>2009-07-12T08:25:33Z</time>
      </trkpt>
      <trkpt lat="45.10364" lon="6.12094">
        <ele>2689.679</ele>
        <time>2009-07-12T08:25:39Z</time>
      </trkpt>
      <trkpt lat="45.10362" lon="6.12087">
        <ele>2687.401</ele>
        <time>2009-07-12T08:25:47Z</time>
      </trkpt>
      <trkpt lat="45.1036" lon="6.12086">
        <ele>2686.843</ele>
        <time>2009-07-12T08:25:49Z</time>
      </trkpt>
      <trkpt lat="45.10359" lon="6.12086">
        <ele>2683.761</ele>
        <time>2009-07-12T08:25:57Z</time>
      </trkpt>
      <trkpt lat="45.10361" lon="6.12085">
        <ele>2681.379</ele>
        <time>2009-07-12T08:26:08Z</time>
      </trkpt>
      <trkpt lat="45.1036" lon="6.12085">
        <ele>2681.348</ele>
        <time>2009-07-12T08:26:13Z</time>
      </trkpt>
      <trkpt lat="45.10352" lon="6.12069">
        <ele>2679.646</ele>
        <time>2009-07-12T08:26:18Z</time>
      </trkpt>
      <trkpt lat="45.10336" lon="6.12036">
        <ele>2675.218</ele>
        <time>2009-07-12T08:26:25Z</time>
      </trkpt>
      <trkpt lat="45.1032" lon="6.12015">
        <ele>2667.807</ele>
        <time>2009-07-12T08:26:31Z</time>
      </trkpt>
      <trkpt lat="45.10304" lon="6.11998">
        <ele>2662.932</ele>
        <time>2009-07-12T08:26:37Z</time>
      </trkpt>
      <trkpt lat="45.10297" lon="6.11996">
        <ele>2662.384</ele>
        <time>2009-07-12T08:26:42Z</time>
      </trkpt>
      <trkpt lat="45.10292" lon="6.11992">
        <ele>2660.007</ele>
        <time>2009-07-12T08:27:01Z</time>
      </trkpt>
      <trkpt lat="45.10285" lon="6.11989">
        <ele>2656.235</ele>
        <time>2009-07-12T08:27:07Z</time>
      </trkpt>
      <trkpt lat="45.10277" lon="6.11984">
        <ele>2653.496</ele>
        <time>2009-07-12T08:27:09Z</time>
      </trkpt>
      <trkpt lat="45.10259" lon="6.11978">
        <ele>2648.853</ele>
        <time>2009-07-12T08:27:14Z</time>
      </trkpt>
      <trkpt lat="45.10257" lon="6.11978">
        <ele>2647.297</ele>
        <time>2009-07-12T08:27:19Z</time>
      </trkpt>
      <trkpt lat="45.10253" lon="6.11976">
        <ele>2646.56</ele>
        <time>2009-07-12T08:27:28Z</time>
      </trkpt>
      <trkpt lat="45.10251" lon="6.11978">
        <ele>2646.368</ele>
        <time>2009-07-12T08:27:34Z</time>
      </trkpt>
      <trkpt lat="45.10247" lon="6.11978">
        <ele>2646.256</ele>
        <time>2009-07-12T08:27:47Z</time>
      </trkpt>
      <trkpt lat="45.10243" lon="6.11973">
        <ele>2645.577</ele>
        <time>2009-07-12T08:27:55Z</time>
      </trkpt>
      <trkpt lat="45.10238" lon="6.11971">
        <ele>2644.426</ele>
        <time>2009-07-12T08:28:03Z</time>
      </trkpt>
      <trkpt lat="45.10242" lon="6.11969">
        <ele>2643.922</ele>
        <time>2009-07-12T08:28:07Z</time>
      </trkpt>
      <trkpt lat="45.1024" lon="6.11962">
        <ele>2641.345</ele>
        <time>2009-07-12T08:28:14Z</time>
      </trkpt>
      <trkpt lat="45.10237" lon="6.11957">
        <ele>2638.128</ele>
        <time>2009-07-12T08:28:22Z</time>
      </trkpt>
      <trkpt lat="45.10235" lon="6.11952">
        <ele>2637.183</ele>
        <time>2009-07-12T08:28:25Z</time>
      </trkpt>
      <trkpt lat="45.10229" lon="6.1195">
        <ele>2636.438</ele>
        <time>2009-07-12T08:28:32Z</time>
      </trkpt>
      <trkpt lat="45.10216" lon="6.11936">
        <ele>2632.252</ele>
        <time>2009-07-12T08:28:38Z</time>
      </trkpt>
      <trkpt lat="45.10203" lon="6.11919">
        <ele>2630.405</ele>
        <time>2009-07-12T08:28:43Z</time>
      </trkpt>
      <trkpt lat="45.10187" lon="6.11906">
        <ele>2626.49</ele>
        <time>2009-07-12T08:28:49Z</time>
      </trkpt>
      <trkpt lat="45.10175" lon="6.11887">
        <ele>2624.946</ele>
        <time>2009-07-12T08:28:54Z</time>
      </trkpt>
      <trkpt lat="45.10168" lon="6.11875">
        <ele>2624.277</ele>
        <time>2009-07-12T08:29:00Z</time>
      </trkpt>
      <trkpt lat="45.10153" lon="6.11862">
        <ele>2625.276</ele>
        <time>2009-07-12T08:29:08Z</time>
      </trkpt>
      <trkpt lat="45.1014" lon="6.11848">
        <ele>2625.622</ele>
        <time>2009-07-12T08:29:14Z</time>
      </trkpt>
      <trkpt lat="45.10121" lon="6.11818">
        <ele>2619.807</ele>
        <time>2009-07-12T08:29:22Z</time>
      </trkpt>
      <trkpt lat="45.10109" lon="6.118">
        <ele>2616.724</ele>
        <time>2009-07-12T08:29:28Z</time>
      </trkpt>
      <trkpt lat="45.10095" lon="6.11787">
        <ele>2611.28</ele>
        <time>2009-07-12T08:29:33Z</time>
      </trkpt>
      <trkpt lat="45.10078" lon="6.11771">
        <ele>2598.997</ele>
        <time>2009-07-12T08:29:39Z</time>
      </trkpt>
      <trkpt lat="45.10075" lon="6.1177">
        <ele>2598.33</ele>
        <time>2009-07-12T08:29:40Z</time>
      </trkpt>
      <trkpt lat="45.10063" lon="6.11778">
        <ele>2594.422</ele>
        <time>2009-07-12T08:29:48Z</time>
      </trkpt>
      <trkpt lat="45.10051" lon="6.11779">
        <ele>2591.534</ele>
        <time>2009-07-12T08:29:54Z</time>
      </trkpt>
      <trkpt lat="45.10044" lon="6.1178">
        <ele>2591.153</ele>
        <time>2009-07-12T08:29:57Z</time>
      </trkpt>
      <trkpt lat="45.10035" lon="6.11782">
        <ele>2588.065</ele>
        <time>2009-07-12T08:30:03Z</time>
      </trkpt>
      <trkpt lat="45.10027" lon="6.11785">
        <ele>2586.51</ele>
        <time>2009-07-12T08:30:10Z</time>
      </trkpt>
      <trkpt lat="45.10026" lon="6.11785">
        <ele>2585.783</ele>
        <time>2009-07-12T08:30:45Z</time>
      </trkpt>
      <trkpt lat="45.10021" lon="6.11786">
        <ele>2585.651</ele>
        <time>2009-07-12T08:30:53Z</time>
      </trkpt>
      <trkpt lat="45.10017" lon="6.11789">
        <ele>2585.516</ele>
        <time>2009-07-12T08:31:01Z</time>
      </trkpt>
      <trkpt lat="45.10014" lon="6.1179">
        <ele>2585.924</ele>
        <time>2009-07-12T08:31:08Z</time>
      </trkpt>
      <trkpt lat="45.10011" lon="6.1179">
        <ele>2584.953</ele>
        <time>2009-07-12T08:31:16Z</time>
      </trkpt>
      <trkpt lat="45.1001" lon="6.11788">
        <ele>2585.185</ele>
        <time>2009-07-12T08:31:24Z</time>
      </trkpt>
      <trkpt lat="45.10006" lon="6.1179">
        <ele>2585.467</ele>
        <time>2009-07-12T08:31:31Z</time>
      </trkpt>
      <trkpt lat="45.10001" lon="6.11791">
        <ele>2586.328</ele>
        <time>2009-07-12T08:31:40Z</time>
      </trkpt>
      <trkpt lat="45.10001" lon="6.1179">
        <ele>2586.34</ele>
        <time>2009-07-12T08:31:49Z</time>
      </trkpt>
      <trkpt lat="45.09997" lon="6.11791">
        <ele>2585.857</ele>
        <time>2009-07-12T08:32:04Z</time>
      </trkpt>
      <trkpt lat="45.09995" lon="6.11788">
        <ele>2581.962</ele>
        <time>2009-07-12T08:32:15Z</time>
      </trkpt>
      <trkpt lat="45.09989" lon="6.11786">
        <ele>2581.712</ele>
        <time>2009-07-12T08:32:22Z</time>
      </trkpt>
      <trkpt lat="45.09988" lon="6.11787">
        <ele>2581.448</ele>
        <time>2009-07-12T08:32:23Z</time>
      </trkpt>
      <trkpt lat="45.0998" lon="6.11789">
        <ele>2579.954</ele>
        <time>2009-07-12T08:32:32Z</time>
      </trkpt>
      <trkpt lat="45.09979" lon="6.11789">
        <ele>2576.261</ele>
        <time>2009-07-12T08:32:39Z</time>
      </trkpt>
      <trkpt lat="45.09981" lon="6.1179">
        <ele>2571.054</ele>
        <time>2009-07-12T08:32:41Z</time>
      </trkpt>
      <trkpt lat="45.09969" lon="6.11788">
        <ele>2566.893</ele>
        <time>2009-07-12T08:32:45Z</time>
      </trkpt>
      <trkpt lat="45.09949" lon="6.11775">
        <ele>2564.01</ele>
        <time>2009-07-12T08:32:52Z</time>
      </trkpt>
      <trkpt lat="45.09942" lon="6.11767">
        <ele>2563.289</ele>
        <time>2009-07-12T08:32:55Z</time>
      </trkpt>
      <trkpt lat="45.09938" lon="6.11767">
        <ele>2556.399</ele>
        <time>2009-07-12T08:32:58Z</time>
      </trkpt>
      <trkpt lat="45.09913" lon="6.11754">
        <ele>2549.521</ele>
        <time>2009-07-12T08:33:05Z</time>
      </trkpt>
      <trkpt lat="45.09886" lon="6.11755">
        <ele>2542.378</ele>
        <time>2009-07-12T08:33:12Z</time>
      </trkpt>
      <trkpt lat="45.09874" lon="6.11753">
        <ele>2537.439</ele>
        <time>2009-07-12T08:33:16Z</time>
      </trkpt>
      <trkpt lat="45.09867" lon="6.11758">
        <ele>2533.102</ele>
        <time>2009-07-12T08:33:21Z</time>
      </trkpt>
      <trkpt lat="45.09862" lon="6.11761">
        <ele>2530.359</ele>
        <time>2009-07-12T08:33:34Z</time>
      </trkpt>
      <trkpt lat="45.09844" lon="6.11763">
        <ele>2527.035</ele>
        <time>2009-07-12T08:33:41Z</time>
      </trkpt>
      <trkpt lat="45.09828" lon="6.11761">
        <ele>2522.06</ele>
        <time>2009-07-12T08:33:46Z</time>
      </trkpt>
      <trkpt lat="45.0982" lon="6.11761">
        <ele>2521.042</ele>
        <time>2009-07-12T08:33:51Z</time>
      </trkpt>
      <trkpt lat="45.09801" lon="6.11768">
        <ele>2517.745</ele>
        <time>2009-07-12T08:34:26Z</time>
      </trkpt>
      <trkpt lat="45.09796" lon="6.11771">
        <ele>2514.375</ele>
        <time>2009-07-12T08:34:30Z</time>
      </trkpt>
      <trkpt lat="45.09791" lon="6.11772">
        <ele>2512.966</ele>
        <time>2009-07-12T08:34:38Z</time>
      </trkpt>
      <trkpt lat="45.09781" lon="6.1177">
        <ele>2511.388</ele>
        <time>2009-07-12T08:34:43Z</time>
      </trkpt>
      <trkpt lat="45.09778" lon="6.1177">
        <ele>2510.206</ele>
        <time>2009-07-12T08:34:44Z</time>
      </trkpt>
      <trkpt lat="45.09762" lon="6.11781">
        <ele>2500.723</ele>
        <time>2009-07-12T08:34:50Z</time>
      </trkpt>
      <trkpt lat="45.09748" lon="6.11785">
        <ele>2493.781</ele>
        <time>2009-07-12T08:34:55Z</time>
      </trkpt>
      <trkpt lat="45.09739" lon="6.11785">
        <ele>2489.604</ele>
        <time>2009-07-12T08:34:58Z</time>
      </trkpt>
      <trkpt lat="45.09721" lon="6.11783">
        <ele>2484.94</ele>
        <time>2009-07-12T08:35:02Z</time>
      </trkpt>
      <trkpt lat="45.09708" lon="6.11789">
        <ele>2480.822</ele>
        <time>2009-07-12T08:35:06Z</time>
      </trkpt>
      <trkpt lat="45.09699" lon="6.11792">
        <ele>2479.417</ele>
        <time>2009-07-12T08:35:08Z</time>
      </trkpt>
      <trkpt lat="45.09675" lon="6.11795">
        <ele>2476.068</ele>
        <time>2009-07-12T08:35:13Z</time>
      </trkpt>
      <trkpt lat="45.0966" lon="6.11797">
        <ele>2474.633</ele>
        <time>2009-07-12T08:35:16Z</time>
      </trkpt>
      <trkpt lat="45.09651" lon="6.11799">
        <ele>2473.23</ele>
        <time>2009-07-12T08:35:18Z</time>
      </trkpt>
      <trkpt lat="45.09636" lon="6.11806">
        <ele>2466.812</ele>
        <time>2009-07-12T08:35:22Z</time>
      </trkpt>
      <trkpt lat="45.09614" lon="6.11803">
        <ele>2463.815</ele>
        <time>2009-07-12T08:35:27Z</time>
      </trkpt>
      <trkpt lat="45.09606" lon="6.11798">
        <ele>2461.682</ele>
        <time>2009-07-12T08:35:29Z</time>
      </trkpt>
      <trkpt lat="45.09584" lon="6.11797">
        <ele>2459.792</ele>
        <time>2009-07-12T08:35:34Z</time>
      </trkpt>
      <trkpt lat="45.09551" lon="6.11804">
        <ele>2457.771</ele>
        <time>2009-07-12T08:35:40Z</time>
      </trkpt>
      <trkpt lat="45.09536" lon="6.11806">
        <ele>2452.351</ele>
        <time>2009-07-12T08:35:44Z</time>
      </trkpt>
      <trkpt lat="45.09514" lon="6.11813">
        <ele>2448.167</ele>
        <time>2009-07-12T08:35:50Z</time>
      </trkpt>
      <trkpt lat="45.09497" lon="6.11818">
        <ele>2444.299</ele>
        <time>2009-07-12T08:35:56Z</time>
      </trkpt>
      <trkpt lat="45.09492" lon="6.11818">
        <ele>2442.829</ele>
        <time>2009-07-12T08:36:07Z</time>
      </trkpt>
      <trkpt lat="45.09489" lon="6.11818">
        <ele>2442.615</ele>
        <time>2009-07-12T08:36:15Z</time>
      </trkpt>
      <trkpt lat="45.09489" lon="6.11819">
        <ele>2442.405</ele>
        <time>2009-07-12T08:36:32Z</time>
      </trkpt>
      <trkpt lat="45.09486" lon="6.1182">
        <ele>2442.367</ele>
        <time>2009-07-12T08:36:37Z</time>
      </trkpt>
      <trkpt lat="45.09471" lon="6.1182">
        <ele>2442.192</ele>
        <time>2009-07-12T08:36:43Z</time>
      </trkpt>
      <trkpt lat="45.09451" lon="6.1182">
        <ele>2441.276</ele>
        <time>2009-07-12T08:36:49Z</time>
      </trkpt>
      <trkpt lat="45.09433" lon="6.11811">
        <ele>2439.55</ele>
        <time>2009-07-12T08:36:52Z</time>
      </trkpt>
      <trkpt lat="45.0941" lon="6.11804">
        <ele>2433.857</ele>
        <time>2009-07-12T08:36:57Z</time>
      </trkpt>
      <trkpt lat="45.09396" lon="6.11797">
        <ele>2429.928</ele>
        <time>2009-07-12T08:37:01Z</time>
      </trkpt>
      <trkpt lat="45.09376" lon="6.11788">
        <ele>2427.233</ele>
        <time>2009-07-12T08:37:06Z</time>
      </trkpt>
      <trkpt lat="45.09356" lon="6.11781">
        <ele>2428.109</ele>
        <time>2009-07-12T08:37:13Z</time>
      </trkpt>
      <trkpt lat="45.09339" lon="6.11773">
        <ele>2426.06</ele>
        <time>2009-07-12T08:37:19Z</time>
      </trkpt>
      <trkpt lat="45.09329" lon="6.11766">
        <ele>2426.072</ele>
        <time>2009-07-12T08:37:24Z</time>
      </trkpt>
      <trkpt lat="45.09311" lon="6.11748">
        <ele>2422.076</ele>
        <time>2009-07-12T08:37:28Z</time>
      </trkpt>
      <trkpt lat="45.09282" lon="6.11729">
        <ele>2417.404</ele>
        <time>2009-07-12T08:37:33Z</time>
      </trkpt>
      <trkpt lat="45.09256" lon="6.11725">
        <ele>2413.533</ele>
        <time>2009-07-12T08:37:39Z</time>
      </trkpt>
      <trkpt lat="45.09255" lon="6.11725">
        <ele>2412.053</ele>
        <time>2009-07-12T08:37:45Z</time>
      </trkpt>
      <trkpt lat="45.09244" lon="6.11723">
        <ele>2411.614</ele>
        <time>2009-07-12T08:37:51Z</time>
      </trkpt>
      <trkpt lat="45.09241" lon="6.11723">
        <ele>2411.385</ele>
        <time>2009-07-12T08:37:52Z</time>
      </trkpt>
      <trkpt lat="45.0922" lon="6.11732">
        <ele>2408.028</ele>
        <time>2009-07-12T08:37:59Z</time>
      </trkpt>
      <trkpt lat="45.09198" lon="6.11743">
        <ele>2405.87</ele>
        <time>2009-07-12T08:38:05Z</time>
      </trkpt>
      <trkpt lat="45.09191" lon="6.11744">
        <ele>2405.216</ele>
        <time>2009-07-12T08:38:07Z</time>
      </trkpt>
      <trkpt lat="45.09182" lon="6.11762">
        <ele>2401.619</ele>
        <time>2009-07-12T08:38:12Z</time>
      </trkpt>
      <trkpt lat="45.09181" lon="6.11766">
        <ele>2401.328</ele>
        <time>2009-07-12T08:38:13Z</time>
      </trkpt>
      <trkpt lat="45.09167" lon="6.11773">
        <ele>2398.026</ele>
        <time>2009-07-12T08:38:17Z</time>
      </trkpt>
      <trkpt lat="45.09157" lon="6.1178">
        <ele>2396.984</ele>
        <time>2009-07-12T08:38:22Z</time>
      </trkpt>
      <trkpt lat="45.09152" lon="6.11783">
        <ele>2395.931</ele>
        <time>2009-07-12T08:38:35Z</time>
      </trkpt>
      <trkpt lat="45.09137" lon="6.11787">
        <ele>2395.022</ele>
        <time>2009-07-12T08:38:41Z</time>
      </trkpt>
      <trkpt lat="45.09131" lon="6.11786">
        <ele>2395.345</ele>
        <time>2009-07-12T08:38:44Z</time>
      </trkpt>
      <trkpt lat="45.09117" lon="6.11787">
        <ele>2395.741</ele>
        <time>2009-07-12T08:38:50Z</time>
      </trkpt>
      <trkpt lat="45.09104" lon="6.11794">
        <ele>2396.055</ele>
        <time>2009-07-12T08:38:56Z</time>
      </trkpt>
      <trkpt lat="45.09087" lon="6.11798">
        <ele>2395.957</ele>
        <time>2009-07-12T08:39:02Z</time>
      </trkpt>
      <trkpt lat="45.09069" lon="6.118">
        <ele>2393.512</ele>
        <time>2009-07-12T08:39:09Z</time>
      </trkpt>
      <trkpt lat="45.09048" lon="6.11808">
        <ele>2388.352</ele>
        <time>2009-07-12T08:39:16Z</time>
      </trkpt>
      <trkpt lat="45.09034" lon="6.11806">
        <ele>2388.744</ele>
        <time>2009-07-12T08:39:22Z</time>
      </trkpt>
      <trkpt lat="45.09018" lon="6.11806">
        <ele>2386.81</ele>
        <time>2009-07-12T08:39:29Z</time>
      </trkpt>
      <trkpt lat="45.09" lon="6.11805">
        <ele>2380.934</ele>
        <time>2009-07-12T08:39:36Z</time>
      </trkpt>
      <trkpt lat="45.08983" lon="6.11805">
        <ele>2378.948</ele>
        <time>2009-07-12T08:39:43Z</time>
      </trkpt>
      <trkpt lat="45.08968" lon="6.11808">
        <ele>2382.508</ele>
        <time>2009-07-12T08:39:49Z</time>
      </trkpt>
      <trkpt lat="45.08961" lon="6.1181">
        <ele>2384.942</ele>
        <time>2009-07-12T08:39:56Z</time>
      </trkpt>
      <trkpt lat="45.08958" lon="6.11809">
        <ele>2386.952</ele>
        <time>2009-07-12T08:40:05Z</time>
      </trkpt>
      <trkpt lat="45.08956" lon="6.11808">
        <ele>2387.153</ele>
        <time>2009-07-12T08:40:09Z</time>
      </trkpt>
      <trkpt lat="45.08953" lon="6.11808">
        <ele>2384.235</ele>
        <time>2009-07-12T08:40:16Z</time>
      </trkpt>
      <trkpt lat="45.08936" lon="6.11803">
        <ele>2381.607</ele>
        <time>2009-07-12T08:40:21Z</time>
      </trkpt>
      <trkpt lat="45.08916" lon="6.11793">
        <ele>2380.788</ele>
        <time>2009-07-12T08:40:26Z</time>
      </trkpt>
      <trkpt lat="45.08909" lon="6.11797">
        <ele>2380.233</ele>
        <time>2009-07-12T08:40:28Z</time>
      </trkpt>
      <trkpt lat="45.08886" lon="6.11813">
        <ele>2374.798</ele>
        <time>2009-07-12T08:40:33Z</time>
      </trkpt>
      <trkpt lat="45.08874" lon="6.11819">
        <ele>2372.046</ele>
        <time>2009-07-12T08:40:35Z</time>
      </trkpt>
      <trkpt lat="45.08835" lon="6.11821">
        <ele>2364.56</ele>
        <time>2009-07-12T08:40:42Z</time>
      </trkpt>
      <trkpt lat="45.08816" lon="6.1181">
        <ele>2360.768</ele>
        <time>2009-07-12T08:40:47Z</time>
      </trkpt>
      <trkpt lat="45.0881" lon="6.11793">
        <ele>2359.532</ele>
        <time>2009-07-12T08:40:50Z</time>
      </trkpt>
      <trkpt lat="45.08794" lon="6.11772">
        <ele>2356.113</ele>
        <time>2009-07-12T08:40:54Z</time>
      </trkpt>
      <trkpt lat="45.08786" lon="6.11746">
        <ele>2354.629</ele>
        <time>2009-07-12T08:40:58Z</time>
      </trkpt>
      <trkpt lat="45.08787" lon="6.11713">
        <ele>2354.987</ele>
        <time>2009-07-12T08:41:04Z</time>
      </trkpt>
      <trkpt lat="45.08787" lon="6.11692">
        <ele>2359.64</ele>
        <time>2009-07-12T08:41:11Z</time>
      </trkpt>
      <trkpt lat="45.08794" lon="6.11672">
        <ele>2360.764</ele>
        <time>2009-07-12T08:41:17Z</time>
      </trkpt>
      <trkpt lat="45.08806" lon="6.11656">
        <ele>2359.094</ele>
        <time>2009-07-12T08:41:24Z</time>
      </trkpt>
      <trkpt lat="45.08811" lon="6.11649">
        <ele>2357.072</ele>
        <time>2009-07-12T08:41:27Z</time>
      </trkpt>
      <trkpt lat="45.08814" lon="6.11617">
        <ele>2350.575</ele>
        <time>2009-07-12T08:41:33Z</time>
      </trkpt>
      <trkpt lat="45.08817" lon="6.1158">
        <ele>2348.65</ele>
        <time>2009-07-12T08:41:38Z</time>
      </trkpt>
      <trkpt lat="45.08821" lon="6.11545">
        <ele>2340.408</ele>
        <time>2009-07-12T08:41:44Z</time>
      </trkpt>
      <trkpt lat="45.08821" lon="6.1154">
        <ele>2338.989</ele>
        <time>2009-07-12T08:41:45Z</time>
      </trkpt>
      <trkpt lat="45.08835" lon="6.11512">
        <ele>2336.542</ele>
        <time>2009-07-12T08:41:50Z</time>
      </trkpt>
      <trkpt lat="45.08855" lon="6.11479">
        <ele>2326.158</ele>
        <time>2009-07-12T08:41:57Z</time>
      </trkpt>
      <trkpt lat="45.08866" lon="6.11465">
        <ele>2322.262</ele>
        <time>2009-07-12T08:42:00Z</time>
      </trkpt>
      <trkpt lat="45.08881" lon="6.11454">
        <ele>2320.609</ele>
        <time>2009-07-12T08:42:04Z</time>
      </trkpt>
      <trkpt lat="45.08895" lon="6.11446">
        <ele>2317.439</ele>
        <time>2009-07-12T08:42:07Z</time>
      </trkpt>
      <trkpt lat="45.08918" lon="6.11422">
        <ele>2313.255</ele>
        <time>2009-07-12T08:42:13Z</time>
      </trkpt>
      <trkpt lat="45.08918" lon="6.11421">
        <ele>2314.901</ele>
        <time>2009-07-12T08:42:19Z</time>
      </trkpt>
      <trkpt lat="45.08926" lon="6.11408">
        <ele>2313.922</ele>
        <time>2009-07-12T08:42:24Z</time>
      </trkpt>
      <trkpt lat="45.0895" lon="6.11379">
        <ele>2307.828</ele>
        <time>2009-07-12T08:42:29Z</time>
      </trkpt>
      <trkpt lat="45.08965" lon="6.11359">
        <ele>2304.541</ele>
        <time>2009-07-12T08:42:33Z</time>
      </trkpt>
      <trkpt lat="45.08982" lon="6.1134">
        <ele>2302.409</ele>
        <time>2009-07-12T08:42:40Z</time>
      </trkpt>
      <trkpt lat="45.08984" lon="6.11337">
        <ele>2300.71</ele>
        <time>2009-07-12T08:42:42Z</time>
      </trkpt>
      <trkpt lat="45.08985" lon="6.11335">
        <ele>2299.028</ele>
        <time>2009-07-12T08:42:50Z</time>
      </trkpt>
      <trkpt lat="45.08981" lon="6.11334">
        <ele>2298.431</ele>
        <time>2009-07-12T08:42:54Z</time>
      </trkpt>
      <trkpt lat="45.08982" lon="6.11329">
        <ele>2297.011</ele>
        <time>2009-07-12T08:42:59Z</time>
      </trkpt>
      <trkpt lat="45.08993" lon="6.11314">
        <ele>2291.811</ele>
        <time>2009-07-12T08:43:04Z</time>
      </trkpt>
      <trkpt lat="45.09014" lon="6.11292">
        <ele>2282.751</ele>
        <time>2009-07-12T08:43:10Z</time>
      </trkpt>
      <trkpt lat="45.09036" lon="6.11271">
        <ele>2277.843</ele>
        <time>2009-07-12T08:43:17Z</time>
      </trkpt>
      <trkpt lat="45.09052" lon="6.11244">
        <ele>2272.882</ele>
        <time>2009-07-12T08:43:23Z</time>
      </trkpt>
      <trkpt lat="45.09067" lon="6.11215">
        <ele>2271.068</ele>
        <time>2009-07-12T08:43:28Z</time>
      </trkpt>
      <trkpt lat="45.09079" lon="6.11193">
        <ele>2272.475</ele>
        <time>2009-07-12T08:43:33Z</time>
      </trkpt>
      <trkpt lat="45.09082" lon="6.11189">
        <ele>2271.772</ele>
        <time>2009-07-12T08:43:34Z</time>
      </trkpt>
      <trkpt lat="45.09103" lon="6.11165">
        <ele>2265.191</ele>
        <time>2009-07-12T08:43:40Z</time>
      </trkpt>
      <trkpt lat="45.09108" lon="6.11143">
        <ele>2262.748</ele>
        <time>2009-07-12T08:43:44Z</time>
      </trkpt>
      <trkpt lat="45.0912" lon="6.11134">
        <ele>2257.589</ele>
        <time>2009-07-12T08:43:51Z</time>
      </trkpt>
      <trkpt lat="45.09136" lon="6.11116">
        <ele>2253.516</ele>
        <time>2009-07-12T08:43:57Z</time>
      </trkpt>
      <trkpt lat="45.09138" lon="6.11112">
        <ele>2252.517</ele>
        <time>2009-07-12T08:43:58Z</time>
      </trkpt>
      <trkpt lat="45.09152" lon="6.11075">
        <ele>2245.894</ele>
        <time>2009-07-12T08:44:04Z</time>
      </trkpt>
      <trkpt lat="45.09159" lon="6.11062">
        <ele>2244.753</ele>
        <time>2009-07-12T08:44:06Z</time>
      </trkpt>
      <trkpt lat="45.09172" lon="6.11028">
        <ele>2241.405</ele>
        <time>2009-07-12T08:44:12Z</time>
      </trkpt>
      <trkpt lat="45.09183" lon="6.11019">
        <ele>2239.938</ele>
        <time>2009-07-12T08:44:15Z</time>
      </trkpt>
      <trkpt lat="45.09181" lon="6.11008">
        <ele>2239.323</ele>
        <time>2009-07-12T08:44:20Z</time>
      </trkpt>
      <trkpt lat="45.0918" lon="6.11006">
        <ele>2239.462</ele>
        <time>2009-07-12T08:44:21Z</time>
      </trkpt>
      <trkpt lat="45.09175" lon="6.11">
        <ele>2240.183</ele>
        <time>2009-07-12T08:44:27Z</time>
      </trkpt>
      <trkpt lat="45.09168" lon="6.10983">
        <ele>2240.789</ele>
        <time>2009-07-12T08:44:34Z</time>
      </trkpt>
      <trkpt lat="45.09174" lon="6.10962">
        <ele>2242.839</ele>
        <time>2009-07-12T08:44:40Z</time>
      </trkpt>
      <trkpt lat="45.09187" lon="6.10938">
        <ele>2239.536</ele>
        <time>2009-07-12T08:44:45Z</time>
      </trkpt>
      <trkpt lat="45.09196" lon="6.1092">
        <ele>2235.478</ele>
        <time>2009-07-12T08:44:48Z</time>
      </trkpt>
      <trkpt lat="45.0922" lon="6.10887">
        <ele>2230.552</ele>
        <time>2009-07-12T08:44:55Z</time>
      </trkpt>
      <trkpt lat="45.09222" lon="6.10885">
        <ele>2229.301</ele>
        <time>2009-07-12T08:44:56Z</time>
      </trkpt>
      <trkpt lat="45.09226" lon="6.10864">
        <ele>2228.465</ele>
        <time>2009-07-12T08:45:01Z</time>
      </trkpt>
      <trkpt lat="45.09236" lon="6.1085">
        <ele>2222.218</ele>
        <time>2009-07-12T08:45:06Z</time>
      </trkpt>
      <trkpt lat="45.09255" lon="6.10828">
        <ele>2217.926</ele>
        <time>2009-07-12T08:45:13Z</time>
      </trkpt>
      <trkpt lat="45.0926" lon="6.1082">
        <ele>2215.032</ele>
        <time>2009-07-12T08:45:16Z</time>
      </trkpt>
      <trkpt lat="45.09265" lon="6.10811">
        <ele>2212.847</ele>
        <time>2009-07-12T08:45:18Z</time>
      </trkpt>
      <trkpt lat="45.09276" lon="6.10792">
        <ele>2211.511</ele>
        <time>2009-07-12T08:45:23Z</time>
      </trkpt>
      <trkpt lat="45.0928" lon="6.10779">
        <ele>2210.707</ele>
        <time>2009-07-12T08:45:29Z</time>
      </trkpt>
      <trkpt lat="45.09282" lon="6.10774">
        <ele>2210.207</ele>
        <time>2009-07-12T08:45:42Z</time>
      </trkpt>
      <trkpt lat="45.09285" lon="6.10763">
        <ele>2210.195</ele>
        <time>2009-07-12T08:45:47Z</time>
      </trkpt>
      <trkpt lat="45.0929" lon="6.10754">
        <ele>2210.04</ele>
        <time>2009-07-12T08:45:49Z</time>
      </trkpt>
      <trkpt lat="45.09295" lon="6.1075">
        <ele>2210.192</ele>
        <time>2009-07-12T08:45:54Z</time>
      </trkpt>
      <trkpt lat="45.093" lon="6.10744">
        <ele>2211.452</ele>
        <time>2009-07-12T08:46:02Z</time>
      </trkpt>
      <trkpt lat="45.09304" lon="6.10739">
        <ele>2211.226</ele>
        <time>2009-07-12T08:46:10Z</time>
      </trkpt>
      <trkpt lat="45.09304" lon="6.10737">
        <ele>2211.275</ele>
        <time>2009-07-12T08:46:11Z</time>
      </trkpt>
      <trkpt lat="45.09312" lon="6.10718">
        <ele>2211.226</ele>
        <time>2009-07-12T08:46:16Z</time>
      </trkpt>
      <trkpt lat="45.09324" lon="6.10702">
        <ele>2211.957</ele>
        <time>2009-07-12T08:46:22Z</time>
      </trkpt>
      <trkpt lat="45.09334" lon="6.10691">
        <ele>2212.335</ele>
        <time>2009-07-12T08:46:29Z</time>
      </trkpt>
      <trkpt lat="45.0934" lon="6.10675">
        <ele>2212.218</ele>
        <time>2009-07-12T08:46:36Z</time>
      </trkpt>
      <trkpt lat="45.09345" lon="6.10665">
        <ele>2213.002</ele>
        <time>2009-07-12T08:46:41Z</time>
      </trkpt>
      <trkpt lat="45.09348" lon="6.10659">
        <ele>2211.38</ele>
        <time>2009-07-12T08:46:49Z</time>
      </trkpt>
      <trkpt lat="45.09351" lon="6.10655">
        <ele>2211.579</ele>
        <time>2009-07-12T08:46:53Z</time>
      </trkpt>
      <trkpt lat="45.09356" lon="6.10649">
        <ele>2213.035</ele>
        <time>2009-07-12T08:47:01Z</time>
      </trkpt>
      <trkpt lat="45.09359" lon="6.10645">
        <ele>2214.773</ele>
        <time>2009-07-12T08:47:06Z</time>
      </trkpt>
      <trkpt lat="45.0936" lon="6.10637">
        <ele>2217.857</ele>
        <time>2009-07-12T08:47:14Z</time>
      </trkpt>
      <trkpt lat="45.09362" lon="6.10629">
        <ele>2220.181</ele>
        <time>2009-07-12T08:47:23Z</time>
      </trkpt>
      <trkpt lat="45.09362" lon="6.10622">
        <ele>2222.941</ele>
        <time>2009-07-12T08:47:31Z</time>
      </trkpt>
      <trkpt lat="45.09363" lon="6.1062">
        <ele>2224.945</ele>
        <time>2009-07-12T08:47:43Z</time>
      </trkpt>
      <trkpt lat="45.09362" lon="6.10614">
        <ele>2225.123</ele>
        <time>2009-07-12T08:47:53Z</time>
      </trkpt>
      <trkpt lat="45.09362" lon="6.10605">
        <ele>2224.04</ele>
        <time>2009-07-12T08:48:00Z</time>
      </trkpt>
      <trkpt lat="45.09363" lon="6.10591">
        <ele>2222.014</ele>
        <time>2009-07-12T08:48:06Z</time>
      </trkpt>
      <trkpt lat="45.09363" lon="6.10572">
        <ele>2218.995</ele>
        <time>2009-07-12T08:48:09Z</time>
      </trkpt>
      <trkpt lat="45.09371" lon="6.10542">
        <ele>2217.156</ele>
        <time>2009-07-12T08:48:14Z</time>
      </trkpt>
      <trkpt lat="45.09374" lon="6.1054">
        <ele>2215.913</ele>
        <time>2009-07-12T08:48:15Z</time>
      </trkpt>
      <trkpt lat="45.09382" lon="6.10535">
        <ele>2215.729</ele>
        <time>2009-07-12T08:48:17Z</time>
      </trkpt>
      <trkpt lat="45.09402" lon="6.10515">
        <ele>2207.985</ele>
        <time>2009-07-12T08:48:21Z</time>
      </trkpt>
      <trkpt lat="45.09402" lon="6.10492">
        <ele>2205.232</ele>
        <time>2009-07-12T08:48:25Z</time>
      </trkpt>
      <trkpt lat="45.09405" lon="6.10485">
        <ele>2203.566</ele>
        <time>2009-07-12T08:48:28Z</time>
      </trkpt>
      <trkpt lat="45.09412" lon="6.10464">
        <ele>2199.858</ele>
        <time>2009-07-12T08:48:38Z</time>
      </trkpt>
      <trkpt lat="45.09416" lon="6.10451">
        <ele>2199.146</ele>
        <time>2009-07-12T08:48:45Z</time>
      </trkpt>
      <trkpt lat="45.09417" lon="6.10444">
        <ele>2199.298</ele>
        <time>2009-07-12T08:48:49Z</time>
      </trkpt>
      <trkpt lat="45.09419" lon="6.10428">
        <ele>2200.139</ele>
        <time>2009-07-12T08:48:57Z</time>
      </trkpt>
      <trkpt lat="45.09419" lon="6.10416">
        <ele>2200.933</ele>
        <time>2009-07-12T08:49:04Z</time>
      </trkpt>
      <trkpt lat="45.09418" lon="6.10409">
        <ele>2202.096</ele>
        <time>2009-07-12T08:49:07Z</time>
      </trkpt>
      <trkpt lat="45.09417" lon="6.104">
        <ele>2202.919</ele>
        <time>2009-07-12T08:49:12Z</time>
      </trkpt>
      <trkpt lat="45.09414" lon="6.10383">
        <ele>2205.085</ele>
        <time>2009-07-12T08:49:21Z</time>
      </trkpt>
      <trkpt lat="45.0941" lon="6.10368">
        <ele>2209.008</ele>
        <time>2009-07-12T08:49:28Z</time>
      </trkpt>
      <trkpt lat="45.09406" lon="6.10352">
        <ele>2216.299</ele>
        <time>2009-07-12T08:49:36Z</time>
      </trkpt>
      <trkpt lat="45.09399" lon="6.10335">
        <ele>2219.631</ele>
        <time>2009-07-12T08:49:47Z</time>
      </trkpt>
      <trkpt lat="45.09395" lon="6.10317">
        <ele>2223.375</ele>
        <time>2009-07-12T08:49:57Z</time>
      </trkpt>
      <trkpt lat="45.09394" lon="6.10301">
        <ele>2225.065</ele>
        <time>2009-07-12T08:50:06Z</time>
      </trkpt>
      <trkpt lat="45.09396" lon="6.10294">
        <ele>2226.597</ele>
        <time>2009-07-12T08:50:10Z</time>
      </trkpt>
      <trkpt lat="45.09399" lon="6.10277">
        <ele>2229.124</ele>
        <time>2009-07-12T08:50:19Z</time>
      </trkpt>
      <trkpt lat="45.09401" lon="6.10254">
        <ele>2229.007</ele>
        <time>2009-07-12T08:50:27Z</time>
      </trkpt>
      <trkpt lat="45.09402" lon="6.10241">
        <ele>2228.195</ele>
        <time>2009-07-12T08:50:30Z</time>
      </trkpt>
      <trkpt lat="45.09416" lon="6.10191">
        <ele>2217.026</ele>
        <time>2009-07-12T08:50:38Z</time>
      </trkpt>
      <trkpt lat="45.09434" lon="6.10125">
        <ele>2204.717</ele>
        <time>2009-07-12T08:50:46Z</time>
      </trkpt>
      <trkpt lat="45.09446" lon="6.10059">
        <ele>2192.535</ele>
        <time>2009-07-12T08:50:53Z</time>
      </trkpt>
      <trkpt lat="45.09454" lon="6.10031">
        <ele>2186.83</ele>
        <time>2009-07-12T08:50:56Z</time>
      </trkpt>
      <trkpt lat="45.0947" lon="6.1">
        <ele>2179.528</ele>
        <time>2009-07-12T08:51:00Z</time>
      </trkpt>
      <trkpt lat="45.09479" lon="6.09987">
        <ele>2176.096</ele>
        <time>2009-07-12T08:51:02Z</time>
      </trkpt>
      <trkpt lat="45.095" lon="6.09969">
        <ele>2172.779</ele>
        <time>2009-07-12T08:51:06Z</time>
      </trkpt>
      <trkpt lat="45.09513" lon="6.09959">
        <ele>2170.973</ele>
        <time>2009-07-12T08:51:09Z</time>
      </trkpt>
      <trkpt lat="45.09535" lon="6.09932">
        <ele>2166.443</ele>
        <time>2009-07-12T08:51:14Z</time>
      </trkpt>
      <trkpt lat="45.09545" lon="6.09921">
        <ele>2165.741</ele>
        <time>2009-07-12T08:51:16Z</time>
      </trkpt>
      <trkpt lat="45.09575" lon="6.0988">
        <ele>2167.32</ele>
        <time>2009-07-12T08:51:25Z</time>
      </trkpt>
      <trkpt lat="45.09599" lon="6.0986">
        <ele>2167.09</ele>
        <time>2009-07-12T08:51:32Z</time>
      </trkpt>
      <trkpt lat="45.09602" lon="6.09859">
        <ele>2167.901</ele>
        <time>2009-07-12T08:51:36Z</time>
      </trkpt>
      <trkpt lat="45.09619" lon="6.09849">
        <ele>2168.12</ele>
        <time>2009-07-12T08:51:43Z</time>
      </trkpt>
      <trkpt lat="45.09639" lon="6.09841">
        <ele>2165.385</ele>
        <time>2009-07-12T08:51:50Z</time>
      </trkpt>
      <trkpt lat="45.09661" lon="6.09837">
        <ele>2160.578</ele>
        <time>2009-07-12T08:51:56Z</time>
      </trkpt>
      <trkpt lat="45.09669" lon="6.09834">
        <ele>2157.198</ele>
        <time>2009-07-12T08:51:58Z</time>
      </trkpt>
      <trkpt lat="45.09694" lon="6.09827">
        <ele>2153.048</ele>
        <time>2009-07-12T08:52:04Z</time>
      </trkpt>
      <trkpt lat="45.09703" lon="6.09826">
        <ele>2153.082</ele>
        <time>2009-07-12T08:52:08Z</time>
      </trkpt>
      <trkpt lat="45.09727" lon="6.09819">
        <ele>2149.666</ele>
        <time>2009-07-12T08:52:16Z</time>
      </trkpt>
      <trkpt lat="45.09744" lon="6.09821">
        <ele>2150.015</ele>
        <time>2009-07-12T08:52:22Z</time>
      </trkpt>
      <trkpt lat="45.09765" lon="6.09809">
        <ele>2148.581</ele>
        <time>2009-07-12T08:52:29Z</time>
      </trkpt>
      <trkpt lat="45.09783" lon="6.09795">
        <ele>2141.913</ele>
        <time>2009-07-12T08:52:35Z</time>
      </trkpt>
      <trkpt lat="45.09784" lon="6.09772">
        <ele>2139.243</ele>
        <time>2009-07-12T08:52:40Z</time>
      </trkpt>
      <trkpt lat="45.09782" lon="6.09751">
        <ele>2136.528</ele>
        <time>2009-07-12T08:52:45Z</time>
      </trkpt>
      <trkpt lat="45.09784" lon="6.09722">
        <ele>2132.72</ele>
        <time>2009-07-12T08:52:49Z</time>
      </trkpt>
      <trkpt lat="45.09784" lon="6.09705">
        <ele>2133.279</ele>
        <time>2009-07-12T08:52:54Z</time>
      </trkpt>
      <trkpt lat="45.0979" lon="6.09693">
        <ele>2136.334</ele>
        <time>2009-07-12T08:53:07Z</time>
      </trkpt>
      <trkpt lat="45.09801" lon="6.09664">
        <ele>2136.835</ele>
        <time>2009-07-12T08:53:15Z</time>
      </trkpt>
      <trkpt lat="45.0982" lon="6.09642">
        <ele>2128.394</ele>
        <time>2009-07-12T08:53:22Z</time>
      </trkpt>
      <trkpt lat="45.09833" lon="6.09618">
        <ele>2120.034</ele>
        <time>2009-07-12T08:53:28Z</time>
      </trkpt>
      <trkpt lat="45.09834" lon="6.09613">
        <ele>2118.385</ele>
        <time>2009-07-12T08:53:29Z</time>
      </trkpt>
      <trkpt lat="45.09833" lon="6.09611">
        <ele>2116.701</ele>
        <time>2009-07-12T08:53:36Z</time>
      </trkpt>
      <trkpt lat="45.09833" lon="6.0961">
        <ele>2116.53</ele>
        <time>2009-07-12T08:53:38Z</time>
      </trkpt>
      <trkpt lat="45.09836" lon="6.096">
        <ele>2114.321</ele>
        <time>2009-07-12T08:53:46Z</time>
      </trkpt>
      <trkpt lat="45.09836" lon="6.09599">
        <ele>2113.876</ele>
        <time>2009-07-12T08:53:54Z</time>
      </trkpt>
      <trkpt lat="45.09837" lon="6.09595">
        <ele>2114.948</ele>
        <time>2009-07-12T08:54:00Z</time>
      </trkpt>
      <trkpt lat="45.09837" lon="6.09591">
        <ele>2114.89</ele>
        <time>2009-07-12T08:54:16Z</time>
      </trkpt>
      <trkpt lat="45.09836" lon="6.09589">
        <ele>2114.936</ele>
        <time>2009-07-12T08:54:18Z</time>
      </trkpt>
      <trkpt lat="45.09834" lon="6.09578">
        <ele>2113.632</ele>
        <time>2009-07-12T08:54:27Z</time>
      </trkpt>
      <trkpt lat="45.09834" lon="6.09572">
        <ele>2112.285</ele>
        <time>2009-07-12T08:54:34Z</time>
      </trkpt>
      <trkpt lat="45.09832" lon="6.09566">
        <ele>2111.177</ele>
        <time>2009-07-12T08:54:41Z</time>
      </trkpt>
      <trkpt lat="45.09828" lon="6.09562">
        <ele>2109.314</ele>
        <time>2009-07-12T08:54:48Z</time>
      </trkpt>
      <trkpt lat="45.09829" lon="6.09563">
        <ele>2108.808</ele>
        <time>2009-07-12T08:55:00Z</time>
      </trkpt>
      <trkpt lat="45.09826" lon="6.09565">
        <ele>2105.234</ele>
        <time>2009-07-12T08:55:05Z</time>
      </trkpt>
      <trkpt lat="45.09806" lon="6.09554">
        <ele>2096.255</ele>
        <time>2009-07-12T08:55:12Z</time>
      </trkpt>
      <trkpt lat="45.09795" lon="6.0955">
        <ele>2092.787</ele>
        <time>2009-07-12T08:55:15Z</time>
      </trkpt>
      <trkpt lat="45.09793" lon="6.0955">
        <ele>2089.988</ele>
        <time>2009-07-12T08:55:22Z</time>
      </trkpt>
      <trkpt lat="45.09782" lon="6.09552">
        <ele>2089.075</ele>
        <time>2009-07-12T08:56:00Z</time>
      </trkpt>
      <trkpt lat="45.09767" lon="6.09548">
        <ele>2086.226</ele>
        <time>2009-07-12T08:56:06Z</time>
      </trkpt>
      <trkpt lat="45.09762" lon="6.09529">
        <ele>2082.228</ele>
        <time>2009-07-12T08:56:11Z</time>
      </trkpt>
      <trkpt lat="45.09764" lon="6.09507">
        <ele>2080.793</ele>
        <time>2009-07-12T08:56:17Z</time>
      </trkpt>
      <trkpt lat="45.09764" lon="6.09504">
        <ele>2081.199</ele>
        <time>2009-07-12T08:56:23Z</time>
      </trkpt>
      <trkpt lat="45.09765" lon="6.09493">
        <ele>2082.889</ele>
        <time>2009-07-12T08:56:32Z</time>
      </trkpt>
      <trkpt lat="45.09767" lon="6.09487">
        <ele>2085.001</ele>
        <time>2009-07-12T08:56:36Z</time>
      </trkpt>
      <trkpt lat="45.0977" lon="6.09475">
        <ele>2086.952</ele>
        <time>2009-07-12T08:56:45Z</time>
      </trkpt>
      <trkpt lat="45.09772" lon="6.09471">
        <ele>2085.584</ele>
        <time>2009-07-12T08:56:52Z</time>
      </trkpt>
      <trkpt lat="45.09774" lon="6.09469">
        <ele>2084.757</ele>
        <time>2009-07-12T08:56:56Z</time>
      </trkpt>
      <trkpt lat="45.0978" lon="6.09453">
        <ele>2084.109</ele>
        <time>2009-07-12T08:57:04Z</time>
      </trkpt>
      <trkpt lat="45.0978" lon="6.09441">
        <ele>2084.384</ele>
        <time>2009-07-12T08:57:11Z</time>
      </trkpt>
      <trkpt lat="45.09788" lon="6.09429">
        <ele>2082.986</ele>
        <time>2009-07-12T08:57:17Z</time>
      </trkpt>
      <trkpt lat="45.0979" lon="6.09428">
        <ele>2082.332</ele>
        <time>2009-07-12T08:57:22Z</time>
      </trkpt>
      <trkpt lat="45.09792" lon="6.09423">
        <ele>2082.129</ele>
        <time>2009-07-12T08:57:30Z</time>
      </trkpt>
      <trkpt lat="45.09792" lon="6.09418">
        <ele>2081.094</ele>
        <time>2009-07-12T08:57:38Z</time>
      </trkpt>
      <trkpt lat="45.09791" lon="6.0941">
        <ele>2080.752</ele>
        <time>2009-07-12T08:58:10Z</time>
      </trkpt>
      <trkpt lat="45.09791" lon="6.09397">
        <ele>2080.573</ele>
        <time>2009-07-12T08:58:17Z</time>
      </trkpt>
      <trkpt lat="45.09791" lon="6.09392">
        <ele>2081.283</ele>
        <time>2009-07-12T08:58:20Z</time>
      </trkpt>
      <trkpt lat="45.09794" lon="6.09378">
        <ele>2082.198</ele>
        <time>2009-07-12T08:58:29Z</time>
      </trkpt>
      <trkpt lat="45.09794" lon="6.09377">
        <ele>2082.405</ele>
        <time>2009-07-12T08:58:30Z</time>
      </trkpt>
      <trkpt lat="45.09795" lon="6.09366">
        <ele>2085.652</ele>
        <time>2009-07-12T08:58:38Z</time>
      </trkpt>
      <trkpt lat="45.09794" lon="6.0935">
        <ele>2086.661</ele>
        <time>2009-07-12T08:58:48Z</time>
      </trkpt>
      <trkpt lat="45.09793" lon="6.09341">
        <ele>2087.991</ele>
        <time>2009-07-12T08:58:56Z</time>
      </trkpt>
      <trkpt lat="45.09793" lon="6.09339">
        <ele>2087.881</ele>
        <time>2009-07-12T08:58:57Z</time>
      </trkpt>
      <trkpt lat="45.09792" lon="6.09333">
        <ele>2088.225</ele>
        <time>2009-07-12T08:59:04Z</time>
      </trkpt>
      <trkpt lat="45.09792" lon="6.09332">
        <ele>2089.546</ele>
        <time>2009-07-12T08:59:12Z</time>
      </trkpt>
      <trkpt lat="45.09792" lon="6.09331">
        <ele>2089.724</ele>
        <time>2009-07-12T08:59:13Z</time>
      </trkpt>
      <trkpt lat="45.09793" lon="6.09318">
        <ele>2089.941</ele>
        <time>2009-07-12T08:59:21Z</time>
      </trkpt>
      <trkpt lat="45.09791" lon="6.09309">
        <ele>2089.292</ele>
        <time>2009-07-12T08:59:29Z</time>
      </trkpt>
      <trkpt lat="45.0979" lon="6.09301">
        <ele>2089.671</ele>
        <time>2009-07-12T08:59:34Z</time>
      </trkpt>
      <trkpt lat="45.09797" lon="6.09293">
        <ele>2089.972</ele>
        <time>2009-07-12T08:59:42Z</time>
      </trkpt>
      <trkpt lat="45.09804" lon="6.09288">
        <ele>2091.701</ele>
        <time>2009-07-12T08:59:50Z</time>
      </trkpt>
      <trkpt lat="45.09807" lon="6.09282">
        <ele>2092.919</ele>
        <time>2009-07-12T08:59:57Z</time>
      </trkpt>
      <trkpt lat="45.09811" lon="6.09277">
        <ele>2092.207</ele>
        <time>2009-07-12T09:00:04Z</time>
      </trkpt>
      <trkpt lat="45.09818" lon="6.09272">
        <ele>2089.442</ele>
        <time>2009-07-12T09:00:10Z</time>
      </trkpt>
      <trkpt lat="45.09823" lon="6.09265">
        <ele>2088.369</ele>
        <time>2009-07-12T09:00:12Z</time>
      </trkpt>
      <trkpt lat="45.09828" lon="6.09255">
        <ele>2088.096</ele>
        <time>2009-07-12T09:00:14Z</time>
      </trkpt>
      <trkpt lat="45.09835" lon="6.09239">
        <ele>2088.575</ele>
        <time>2009-07-12T09:00:19Z</time>
      </trkpt>
      <trkpt lat="45.09835" lon="6.09224">
        <ele>2088.81</ele>
        <time>2009-07-12T09:00:26Z</time>
      </trkpt>
      <trkpt lat="45.09836" lon="6.092">
        <ele>2084.942</ele>
        <time>2009-07-12T09:00:32Z</time>
      </trkpt>
      <trkpt lat="45.09837" lon="6.09194">
        <ele>2083.968</ele>
        <time>2009-07-12T09:00:37Z</time>
      </trkpt>
      <trkpt lat="45.09837" lon="6.09191">
        <ele>2083.64</ele>
        <time>2009-07-12T09:00:41Z</time>
      </trkpt>
      <trkpt lat="45.09836" lon="6.0918">
        <ele>2084.194</ele>
        <time>2009-07-12T09:00:49Z</time>
      </trkpt>
      <trkpt lat="45.09841" lon="6.09172">
        <ele>2084.923</ele>
        <time>2009-07-12T09:01:00Z</time>
      </trkpt>
      <trkpt lat="45.09843" lon="6.0917">
        <ele>2086.105</ele>
        <time>2009-07-12T09:01:03Z</time>
      </trkpt>
      <trkpt lat="45.09848" lon="6.09164">
        <ele>2086.467</ele>
        <time>2009-07-12T09:01:11Z</time>
      </trkpt>
      <trkpt lat="45.09848" lon="6.09161">
        <ele>2087.149</ele>
        <time>2009-07-12T09:01:16Z</time>
      </trkpt>
      <trkpt lat="45.0985" lon="6.09149">
        <ele>2085.682</ele>
        <time>2009-07-12T09:01:25Z</time>
      </trkpt>
      <trkpt lat="45.09849" lon="6.09141">
        <ele>2084.615</ele>
        <time>2009-07-12T09:01:34Z</time>
      </trkpt>
      <trkpt lat="45.09845" lon="6.09136">
        <ele>2083.127</ele>
        <time>2009-07-12T09:01:42Z</time>
      </trkpt>
      <trkpt lat="45.09842" lon="6.09131">
        <ele>2080.177</ele>
        <time>2009-07-12T09:01:51Z</time>
      </trkpt>
      <trkpt lat="45.09838" lon="6.09128">
        <ele>2078.529</ele>
        <time>2009-07-12T09:01:58Z</time>
      </trkpt>
      <trkpt lat="45.09838" lon="6.09124">
        <ele>2076.368</ele>
        <time>2009-07-12T09:02:05Z</time>
      </trkpt>
      <trkpt lat="45.09838" lon="6.09124">
        <ele>2072.792</ele>
        <time>2009-07-12T09:02:07Z</time>
      </trkpt>
      <trkpt lat="45.09837" lon="6.09107">
        <ele>2067.23</ele>
        <time>2009-07-12T09:02:12Z</time>
      </trkpt>
      <trkpt lat="45.09834" lon="6.09086">
        <ele>2065.265</ele>
        <time>2009-07-12T09:02:17Z</time>
      </trkpt>
      <trkpt lat="45.09833" lon="6.09077">
        <ele>2062.924</ele>
        <time>2009-07-12T09:02:24Z</time>
      </trkpt>
      <trkpt lat="45.09832" lon="6.09072">
        <ele>2062.651</ele>
        <time>2009-07-12T09:02:25Z</time>
      </trkpt>
      <trkpt lat="45.09823" lon="6.09062">
        <ele>2060.173</ele>
        <time>2009-07-12T09:02:30Z</time>
      </trkpt>
      <trkpt lat="45.09823" lon="6.09061">
        <ele>2059.377</ele>
        <time>2009-07-12T09:02:32Z</time>
      </trkpt>
      <trkpt lat="45.09818" lon="6.09036">
        <ele>2057.654</ele>
        <time>2009-07-12T09:02:39Z</time>
      </trkpt>
      <trkpt lat="45.09815" lon="6.09026">
        <ele>2055.826</ele>
        <time>2009-07-12T09:02:41Z</time>
      </trkpt>
      <trkpt lat="45.09821" lon="6.08987">
        <ele>2048.127</ele>
        <time>2009-07-12T09:02:49Z</time>
      </trkpt>
      <trkpt lat="45.09822" lon="6.0898">
        <ele>2047.316</ele>
        <time>2009-07-12T09:02:50Z</time>
      </trkpt>
      <trkpt lat="45.09824" lon="6.08932">
        <ele>2042.467</ele>
        <time>2009-07-12T09:02:58Z</time>
      </trkpt>
      <trkpt lat="45.09821" lon="6.08904">
        <ele>2038.489</ele>
        <time>2009-07-12T09:03:02Z</time>
      </trkpt>
      <trkpt lat="45.09815" lon="6.08851">
        <ele>2034.241</ele>
        <time>2009-07-12T09:03:08Z</time>
      </trkpt>
      <trkpt lat="45.09819" lon="6.08815">
        <ele>2033.148</ele>
        <time>2009-07-12T09:03:12Z</time>
      </trkpt>
      <trkpt lat="45.09823" lon="6.08762">
        <ele>2028.944</ele>
        <time>2009-07-12T09:03:18Z</time>
      </trkpt>
      <trkpt lat="45.0982" lon="6.0875">
        <ele>2028.049</ele>
        <time>2009-07-12T09:03:19Z</time>
      </trkpt>
      <trkpt lat="45.09815" lon="6.08725">
        <ele>2023.972</ele>
        <time>2009-07-12T09:03:21Z</time>
      </trkpt>
      <trkpt lat="45.09814" lon="6.08674">
        <ele>2024.562</ele>
        <time>2009-07-12T09:03:25Z</time>
      </trkpt>
      <trkpt lat="45.09823" lon="6.08647">
        <ele>2027.128</ele>
        <time>2009-07-12T09:03:31Z</time>
      </trkpt>
      <trkpt lat="45.09831" lon="6.08631">
        <ele>2027.497</ele>
        <time>2009-07-12T09:03:39Z</time>
      </trkpt>
      <trkpt lat="45.09841" lon="6.08612">
        <ele>2028.032</ele>
        <time>2009-07-12T09:03:48Z</time>
      </trkpt>
      <trkpt lat="45.09849" lon="6.08587">
        <ele>2029.086</ele>
        <time>2009-07-12T09:03:57Z</time>
      </trkpt>
      <trkpt lat="45.09849" lon="6.08559">
        <ele>2028.491</ele>
        <time>2009-07-12T09:04:03Z</time>
      </trkpt>
      <trkpt lat="45.09849" lon="6.08529">
        <ele>2029.361</ele>
        <time>2009-07-12T09:04:09Z</time>
      </trkpt>
      <trkpt lat="45.0985" lon="6.08496">
        <ele>2028.391</ele>
        <time>2009-07-12T09:04:17Z</time>
      </trkpt>
      <trkpt lat="45.09851" lon="6.08469">
        <ele>2026.069</ele>
        <time>2009-07-12T09:04:23Z</time>
      </trkpt>
      <trkpt lat="45.09853" lon="6.08435">
        <ele>2020.702</ele>
        <time>2009-07-12T09:04:31Z</time>
      </trkpt>
      <trkpt lat="45.09861" lon="6.08412">
        <ele>2020.12</ele>
        <time>2009-07-12T09:04:36Z</time>
      </trkpt>
      <trkpt lat="45.09869" lon="6.084">
        <ele>2016.992</ele>
        <time>2009-07-12T09:04:39Z</time>
      </trkpt>
      <trkpt lat="45.0988" lon="6.08375">
        <ele>2015.632</ele>
        <time>2009-07-12T09:04:45Z</time>
      </trkpt>
      <trkpt lat="45.09882" lon="6.0837">
        <ele>2012.44</ele>
        <time>2009-07-12T09:04:48Z</time>
      </trkpt>
      <trkpt lat="45.09894" lon="6.0833">
        <ele>2008.767</ele>
        <time>2009-07-12T09:04:56Z</time>
      </trkpt>
      <trkpt lat="45.09906" lon="6.083">
        <ele>2009.835</ele>
        <time>2009-07-12T09:05:04Z</time>
      </trkpt>
      <trkpt lat="45.0992" lon="6.08286">
        <ele>2013.182</ele>
        <time>2009-07-12T09:05:11Z</time>
      </trkpt>
      <trkpt lat="45.0993" lon="6.08281">
        <ele>2015.263</ele>
        <time>2009-07-12T09:05:17Z</time>
      </trkpt>
      <trkpt lat="45.09941" lon="6.08271">
        <ele>2016.765</ele>
        <time>2009-07-12T09:05:24Z</time>
      </trkpt>
      <trkpt lat="45.09954" lon="6.08261">
        <ele>2016.702</ele>
        <time>2009-07-12T09:05:31Z</time>
      </trkpt>
      <trkpt lat="45.09972" lon="6.08242">
        <ele>2015.341</ele>
        <time>2009-07-12T09:05:39Z</time>
      </trkpt>
      <trkpt lat="45.09992" lon="6.08226">
        <ele>2015.439</ele>
        <time>2009-07-12T09:05:47Z</time>
      </trkpt>
      <trkpt lat="45.1001" lon="6.0821">
        <ele>2016.009</ele>
        <time>2009-07-12T09:05:55Z</time>
      </trkpt>
      <trkpt lat="45.10019" lon="6.08189">
        <ele>2011.031</ele>
        <time>2009-07-12T09:06:02Z</time>
      </trkpt>
      <trkpt lat="45.10019" lon="6.08184">
        <ele>2012.669</ele>
        <time>2009-07-12T09:06:13Z</time>
      </trkpt>
      <trkpt lat="45.10022" lon="6.0818">
        <ele>2012.426</ele>
        <time>2009-07-12T09:06:24Z</time>
      </trkpt>
      <trkpt lat="45.10022" lon="6.08179">
        <ele>2012.621</ele>
        <time>2009-07-12T09:06:25Z</time>
      </trkpt>
      <trkpt lat="45.10031" lon="6.08164">
        <ele>2010.262</ele>
        <time>2009-07-12T09:06:31Z</time>
      </trkpt>
      <trkpt lat="45.10034" lon="6.0816">
        <ele>2009.599</ele>
        <time>2009-07-12T09:06:32Z</time>
      </trkpt>
      <trkpt lat="45.10043" lon="6.08148">
        <ele>2009.085</ele>
        <time>2009-07-12T09:06:37Z</time>
      </trkpt>
      <trkpt lat="45.10052" lon="6.08135">
        <ele>2009.05</ele>
        <time>2009-07-12T09:06:42Z</time>
      </trkpt>
      <trkpt lat="45.10066" lon="6.08115">
        <ele>2008.473</ele>
        <time>2009-07-12T09:06:50Z</time>
      </trkpt>
      <trkpt lat="45.10084" lon="6.08091">
        <ele>2008.293</ele>
        <time>2009-07-12T09:06:58Z</time>
      </trkpt>
      <trkpt lat="45.10099" lon="6.08076">
        <ele>2010.096</ele>
        <time>2009-07-12T09:07:05Z</time>
      </trkpt>
      <trkpt lat="45.10114" lon="6.0806">
        <ele>2007.829</ele>
        <time>2009-07-12T09:07:13Z</time>
      </trkpt>
      <trkpt lat="45.10117" lon="6.08045">
        <ele>2005.512</ele>
        <time>2009-07-12T09:07:17Z</time>
      </trkpt>
      <trkpt lat="45.10131" lon="6.08032">
        <ele>2003.586</ele>
        <time>2009-07-12T09:07:23Z</time>
      </trkpt>
      <trkpt lat="45.10142" lon="6.08011">
        <ele>2003.521</ele>
        <time>2009-07-12T09:07:30Z</time>
      </trkpt>
      <trkpt lat="45.10152" lon="6.07997">
        <ele>2004.995</ele>
        <time>2009-07-12T09:07:37Z</time>
      </trkpt>
      <trkpt lat="45.10157" lon="6.07982">
        <ele>2006.558</ele>
        <time>2009-07-12T09:07:44Z</time>
      </trkpt>
      <trkpt lat="45.10166" lon="6.07975">
        <ele>2008.929</ele>
        <time>2009-07-12T09:07:51Z</time>
      </trkpt>
      <trkpt lat="45.10175" lon="6.07967">
        <ele>2009.399</ele>
        <time>2009-07-12T09:07:58Z</time>
      </trkpt>
      <trkpt lat="45.10185" lon="6.07965">
        <ele>2010.313</ele>
        <time>2009-07-12T09:08:06Z</time>
      </trkpt>
      <trkpt lat="45.10195" lon="6.0796">
        <ele>2011.152</ele>
        <time>2009-07-12T09:08:12Z</time>
      </trkpt>
      <trkpt lat="45.10215" lon="6.07934">
        <ele>2009.835</ele>
        <time>2009-07-12T09:08:24Z</time>
      </trkpt>
      <trkpt lat="45.10235" lon="6.07912">
        <ele>2009.533</ele>
        <time>2009-07-12T09:08:35Z</time>
      </trkpt>
      <trkpt lat="45.10249" lon="6.07889">
        <ele>2005.894</ele>
        <time>2009-07-12T09:08:42Z</time>
      </trkpt>
      <trkpt lat="45.10251" lon="6.07884">
        <ele>2004.885</ele>
        <time>2009-07-12T09:08:43Z</time>
      </trkpt>
      <trkpt lat="45.10271" lon="6.07852">
        <ele>2001.228</ele>
        <time>2009-07-12T09:08:49Z</time>
      </trkpt>
      <trkpt lat="45.10305" lon="6.07805">
        <ele>1998.716</ele>
        <time>2009-07-12T09:08:56Z</time>
      </trkpt>
      <trkpt lat="45.10337" lon="6.07757">
        <ele>1995.292</ele>
        <time>2009-07-12T09:09:03Z</time>
      </trkpt>
      <trkpt lat="45.10348" lon="6.07741">
        <ele>1994.597</ele>
        <time>2009-07-12T09:09:06Z</time>
      </trkpt>
      <trkpt lat="45.10374" lon="6.07719">
        <ele>1991.797</ele>
        <time>2009-07-12T09:09:13Z</time>
      </trkpt>
      <trkpt lat="45.10385" lon="6.07712">
        <ele>1989.545</ele>
        <time>2009-07-12T09:09:15Z</time>
      </trkpt>
      <trkpt lat="45.1041" lon="6.07691">
        <ele>1986.142</ele>
        <time>2009-07-12T09:09:19Z</time>
      </trkpt>
      <trkpt lat="45.10427" lon="6.0767">
        <ele>1984.664</ele>
        <time>2009-07-12T09:09:22Z</time>
      </trkpt>
      <trkpt lat="45.10464" lon="6.07625">
        <ele>1986.754</ele>
        <time>2009-07-12T09:09:29Z</time>
      </trkpt>
      <trkpt lat="45.10474" lon="6.07619">
        <ele>1988.694</ele>
        <time>2009-07-12T09:09:33Z</time>
      </trkpt>
      <trkpt lat="45.10491" lon="6.07614">
        <ele>1987.329</ele>
        <time>2009-07-12T09:09:40Z</time>
      </trkpt>
      <trkpt lat="45.10515" lon="6.076">
        <ele>1986.039</ele>
        <time>2009-07-12T09:09:48Z</time>
      </trkpt>
      <trkpt lat="45.10523" lon="6.07597">
        <ele>1986.148</ele>
        <time>2009-07-12T09:09:50Z</time>
      </trkpt>
      <trkpt lat="45.10551" lon="6.07591">
        <ele>1983.601</ele>
        <time>2009-07-12T09:09:56Z</time>
      </trkpt>
      <trkpt lat="45.10576" lon="6.07586">
        <ele>1982.912</ele>
        <time>2009-07-12T09:10:01Z</time>
      </trkpt>
      <trkpt lat="45.10621" lon="6.07576">
        <ele>1979.725</ele>
        <time>2009-07-12T09:10:09Z</time>
      </trkpt>
      <trkpt lat="45.1064" lon="6.07574">
        <ele>1981.591</ele>
        <time>2009-07-12T09:10:14Z</time>
      </trkpt>
      <trkpt lat="45.10664" lon="6.0757">
        <ele>1981.34</ele>
        <time>2009-07-12T09:10:24Z</time>
      </trkpt>
      <trkpt lat="45.10683" lon="6.07566">
        <ele>1983.214</ele>
        <time>2009-07-12T09:10:32Z</time>
      </trkpt>
      <trkpt lat="45.10705" lon="6.07561">
        <ele>1981.46</ele>
        <time>2009-07-12T09:10:42Z</time>
      </trkpt>
      <trkpt lat="45.10725" lon="6.07551">
        <ele>1983.855</ele>
        <time>2009-07-12T09:10:51Z</time>
      </trkpt>
      <trkpt lat="45.10743" lon="6.07538">
        <ele>1986.572</ele>
        <time>2009-07-12T09:10:59Z</time>
      </trkpt>
      <trkpt lat="45.1076" lon="6.07525">
        <ele>1984.526</ele>
        <time>2009-07-12T09:11:05Z</time>
      </trkpt>
      <trkpt lat="45.10786" lon="6.07475">
        <ele>1979.018</ele>
        <time>2009-07-12T09:11:13Z</time>
      </trkpt>
      <trkpt lat="45.1079" lon="6.07467">
        <ele>1978.254</ele>
        <time>2009-07-12T09:11:14Z</time>
      </trkpt>
      <trkpt lat="45.10791" lon="6.0742">
        <ele>1976.649</ele>
        <time>2009-07-12T09:11:19Z</time>
      </trkpt>
      <trkpt lat="45.10786" lon="6.07375">
        <ele>1979.75</ele>
        <time>2009-07-12T09:11:26Z</time>
      </trkpt>
      <trkpt lat="45.10784" lon="6.07321">
        <ele>1980.493</ele>
        <time>2009-07-12T09:11:35Z</time>
      </trkpt>
      <trkpt lat="45.10784" lon="6.073">
        <ele>1980.548</ele>
        <time>2009-07-12T09:11:38Z</time>
      </trkpt>
      <trkpt lat="45.1079" lon="6.07237">
        <ele>1977.857</ele>
        <time>2009-07-12T09:11:45Z</time>
      </trkpt>
      <trkpt lat="45.10792" lon="6.07176">
        <ele>1976.054</ele>
        <time>2009-07-12T09:11:51Z</time>
      </trkpt>
      <trkpt lat="45.10799" lon="6.07103">
        <ele>1972.849</ele>
        <time>2009-07-12T09:11:58Z</time>
      </trkpt>
      <trkpt lat="45.10797" lon="6.0706">
        <ele>1971.711</ele>
        <time>2009-07-12T09:12:04Z</time>
      </trkpt>
      <trkpt lat="45.10804" lon="6.07033">
        <ele>1972.629</ele>
        <time>2009-07-12T09:12:10Z</time>
      </trkpt>
      <trkpt lat="45.10807" lon="6.07031">
        <ele>1973.032</ele>
        <time>2009-07-12T09:12:11Z</time>
      </trkpt>
      <trkpt lat="45.10819" lon="6.07029">
        <ele>1974.875</ele>
        <time>2009-07-12T09:12:17Z</time>
      </trkpt>
      <trkpt lat="45.10823" lon="6.07031">
        <ele>1974.239</ele>
        <time>2009-07-12T09:12:20Z</time>
      </trkpt>
      <trkpt lat="45.10837" lon="6.07032">
        <ele>1974.866</ele>
        <time>2009-07-12T09:12:29Z</time>
      </trkpt>
      <trkpt lat="45.10846" lon="6.07028">
        <ele>1976.075</ele>
        <time>2009-07-12T09:12:37Z</time>
      </trkpt>
      <trkpt lat="45.10848" lon="6.07026">
        <ele>1976.518</ele>
        <time>2009-07-12T09:12:45Z</time>
      </trkpt>
      <trkpt lat="45.10849" lon="6.07026">
        <ele>1976.655</ele>
        <time>2009-07-12T09:13:00Z</time>
      </trkpt>
      <trkpt lat="45.10853" lon="6.07024">
        <ele>1976.963</ele>
        <time>2009-07-12T09:13:04Z</time>
      </trkpt>
      <trkpt lat="45.10864" lon="6.07014">
        <ele>1978.714</ele>
        <time>2009-07-12T09:13:13Z</time>
      </trkpt>
      <trkpt lat="45.10872" lon="6.07006">
        <ele>1980.821</ele>
        <time>2009-07-12T09:13:20Z</time>
      </trkpt>
      <trkpt lat="45.1088" lon="6.06992">
        <ele>1982.19</ele>
        <time>2009-07-12T09:13:29Z</time>
      </trkpt>
      <trkpt lat="45.10885" lon="6.06975">
        <ele>1984.099</ele>
        <time>2009-07-12T09:13:38Z</time>
      </trkpt>
      <trkpt lat="45.10885" lon="6.06972">
        <ele>1984.238</ele>
        <time>2009-07-12T09:13:39Z</time>
      </trkpt>
      <trkpt lat="45.10883" lon="6.06965">
        <ele>1985.536</ele>
        <time>2009-07-12T09:13:43Z</time>
      </trkpt>
      <trkpt lat="45.10881" lon="6.06962">
        <ele>1985.783</ele>
        <time>2009-07-12T09:13:45Z</time>
      </trkpt>
      <trkpt lat="45.10867" lon="6.06963">
        <ele>1984.287</ele>
        <time>2009-07-12T09:13:52Z</time>
      </trkpt>
      <trkpt lat="45.10863" lon="6.06953">
        <ele>1986.35</ele>
        <time>2009-07-12T09:13:56Z</time>
      </trkpt>
      <trkpt lat="45.10851" lon="6.0692">
        <ele>1986.133</ele>
        <time>2009-07-12T09:14:06Z</time>
      </trkpt>
      <trkpt lat="45.10844" lon="6.06893">
        <ele>1984.515</ele>
        <time>2009-07-12T09:14:13Z</time>
      </trkpt>
      <trkpt lat="45.10843" lon="6.06878">
        <ele>1985.741</ele>
        <time>2009-07-12T09:14:16Z</time>
      </trkpt>
      <trkpt lat="45.1083" lon="6.06849">
        <ele>1987.995</ele>
        <time>2009-07-12T09:14:23Z</time>
      </trkpt>
      <trkpt lat="45.10806" lon="6.06821">
        <ele>1985.988</ele>
        <time>2009-07-12T09:14:32Z</time>
      </trkpt>
      <trkpt lat="45.10785" lon="6.06795">
        <ele>1984.629</ele>
        <time>2009-07-12T09:14:39Z</time>
      </trkpt>
      <trkpt lat="45.10768" lon="6.06766">
        <ele>1985.061</ele>
        <time>2009-07-12T09:14:46Z</time>
      </trkpt>
      <trkpt lat="45.1075" lon="6.06729">
        <ele>1982.785</ele>
        <time>2009-07-12T09:14:55Z</time>
      </trkpt>
      <trkpt lat="45.10731" lon="6.06704">
        <ele>1981.666</ele>
        <time>2009-07-12T09:15:02Z</time>
      </trkpt>
      <trkpt lat="45.10714" lon="6.06675">
        <ele>1982.192</ele>
        <time>2009-07-12T09:15:09Z</time>
      </trkpt>
      <trkpt lat="45.10694" lon="6.06645">
        <ele>1984.265</ele>
        <time>2009-07-12T09:15:17Z</time>
      </trkpt>
      <trkpt lat="45.10666" lon="6.06617">
        <ele>1983.723</ele>
        <time>2009-07-12T09:15:26Z</time>
      </trkpt>
      <trkpt lat="45.10646" lon="6.06596">
        <ele>1982.22</ele>
        <time>2009-07-12T09:15:33Z</time>
      </trkpt>
      <trkpt lat="45.10623" lon="6.06575">
        <ele>1982.963</ele>
        <time>2009-07-12T09:15:40Z</time>
      </trkpt>
      <trkpt lat="45.10591" lon="6.06538">
        <ele>1981.88</ele>
        <time>2009-07-12T09:15:51Z</time>
      </trkpt>
      <trkpt lat="45.10565" lon="6.06525">
        <ele>1982.981</ele>
        <time>2009-07-12T09:15:58Z</time>
      </trkpt>
      <trkpt lat="45.10545" lon="6.06516">
        <ele>1982.703</ele>
        <time>2009-07-12T09:16:04Z</time>
      </trkpt>
      <trkpt lat="45.1051" lon="6.06511">
        <ele>1981.633</ele>
        <time>2009-07-12T09:16:13Z</time>
      </trkpt>
      <trkpt lat="45.10485" lon="6.06503">
        <ele>1981.143</ele>
        <time>2009-07-12T09:16:20Z</time>
      </trkpt>
      <trkpt lat="45.10452" lon="6.06502">
        <ele>1980.817</ele>
        <time>2009-07-12T09:16:29Z</time>
      </trkpt>
      <trkpt lat="45.10429" lon="6.065">
        <ele>1980.302</ele>
        <time>2009-07-12T09:16:36Z</time>
      </trkpt>
      <trkpt lat="45.10413" lon="6.06493">
        <ele>1981.171</ele>
        <time>2009-07-12T09:16:43Z</time>
      </trkpt>
      <trkpt lat="45.10396" lon="6.06484">
        <ele>1982.612</ele>
        <time>2009-07-12T09:16:50Z</time>
      </trkpt>
      <trkpt lat="45.10375" lon="6.06477">
        <ele>1982.737</ele>
        <time>2009-07-12T09:16:56Z</time>
      </trkpt>
      <trkpt lat="45.10358" lon="6.06468">
        <ele>1983.262</ele>
        <time>2009-07-12T09:17:04Z</time>
      </trkpt>
      <trkpt lat="45.10346" lon="6.06457">
        <ele>1985.017</ele>
        <time>2009-07-12T09:17:10Z</time>
      </trkpt>
      <trkpt lat="45.10331" lon="6.06438">
        <ele>1982.733</ele>
        <time>2009-07-12T09:17:17Z</time>
      </trkpt>
      <trkpt lat="45.10307" lon="6.06418">
        <ele>1983.299</ele>
        <time>2009-07-12T09:17:25Z</time>
      </trkpt>
      <trkpt lat="45.1029" lon="6.06418">
        <ele>1982.894</ele>
        <time>2009-07-12T09:17:31Z</time>
      </trkpt>
      <trkpt lat="45.10268" lon="6.06421">
        <ele>1984.199</ele>
        <time>2009-07-12T09:17:39Z</time>
      </trkpt>
      <trkpt lat="45.1025" lon="6.06425">
        <ele>1984.425</ele>
        <time>2009-07-12T09:17:45Z</time>
      </trkpt>
      <trkpt lat="45.10234" lon="6.06429">
        <ele>1984.384</ele>
        <time>2009-07-12T09:17:51Z</time>
      </trkpt>
      <trkpt lat="45.10214" lon="6.06422">
        <ele>1984.12</ele>
        <time>2009-07-12T09:17:57Z</time>
      </trkpt>
      <trkpt lat="45.10196" lon="6.06426">
        <ele>1984.971</ele>
        <time>2009-07-12T09:18:03Z</time>
      </trkpt>
      <trkpt lat="45.10175" lon="6.06431">
        <ele>1985.408</ele>
        <time>2009-07-12T09:18:10Z</time>
      </trkpt>
      <trkpt lat="45.10159" lon="6.06436">
        <ele>1987.011</ele>
        <time>2009-07-12T09:18:16Z</time>
      </trkpt>
      <trkpt lat="45.10148" lon="6.0644">
        <ele>1987.018</ele>
        <time>2009-07-12T09:18:22Z</time>
      </trkpt>
      <trkpt lat="45.1013" lon="6.06446">
        <ele>1986.304</ele>
        <time>2009-07-12T09:18:30Z</time>
      </trkpt>
      <trkpt lat="45.10116" lon="6.06445">
        <ele>1983.076</ele>
        <time>2009-07-12T09:18:36Z</time>
      </trkpt>
      <trkpt lat="45.10107" lon="6.06446">
        <ele>1980.937</ele>
        <time>2009-07-12T09:18:41Z</time>
      </trkpt>
      <trkpt lat="45.10105" lon="6.06447">
        <ele>1980.108</ele>
        <time>2009-07-12T09:18:54Z</time>
      </trkpt>
      <trkpt lat="45.10101" lon="6.06452">
        <ele>1981.946</ele>
        <time>2009-07-12T09:19:00Z</time>
      </trkpt>
      <trkpt lat="45.10096" lon="6.06454">
        <ele>1981.979</ele>
        <time>2009-07-12T09:19:08Z</time>
      </trkpt>
      <trkpt lat="45.10094" lon="6.06456">
        <ele>1980.707</ele>
        <time>2009-07-12T09:19:16Z</time>
      </trkpt>
      <trkpt lat="45.10077" lon="6.06453">
        <ele>1979.93</ele>
        <time>2009-07-12T09:19:24Z</time>
      </trkpt>
      <trkpt lat="45.10042" lon="6.06449">
        <ele>1979.873</ele>
        <time>2009-07-12T09:19:35Z</time>
      </trkpt>
      <trkpt lat="45.10016" lon="6.06441">
        <ele>1977.061</ele>
        <time>2009-07-12T09:19:45Z</time>
      </trkpt>
      <trkpt lat="45.09996" lon="6.06433">
        <ele>1974.718</ele>
        <time>2009-07-12T09:19:52Z</time>
      </trkpt>
      <trkpt lat="45.09975" lon="6.06423">
        <ele>1975.779</ele>
        <time>2009-07-12T09:19:59Z</time>
      </trkpt>
      <trkpt lat="45.09953" lon="6.06413">
        <ele>1974.55</ele>
        <time>2009-07-12T09:20:06Z</time>
      </trkpt>
      <trkpt lat="45.09924" lon="6.06396">
        <ele>1975.553</ele>
        <time>2009-07-12T09:20:16Z</time>
      </trkpt>
      <trkpt lat="45.09899" lon="6.06381">
        <ele>1977.81</ele>
        <time>2009-07-12T09:20:25Z</time>
      </trkpt>
      <trkpt lat="45.09883" lon="6.0637">
        <ele>1979.775</ele>
        <time>2009-07-12T09:20:31Z</time>
      </trkpt>
      <trkpt lat="45.09862" lon="6.06365">
        <ele>1979.345</ele>
        <time>2009-07-12T09:20:38Z</time>
      </trkpt>
      <trkpt lat="45.09841" lon="6.06361">
        <ele>1978.33</ele>
        <time>2009-07-12T09:20:44Z</time>
      </trkpt>
      <trkpt lat="45.09837" lon="6.0636">
        <ele>1977.736</ele>
        <time>2009-07-12T09:20:45Z</time>
      </trkpt>
      <trkpt lat="45.09829" lon="6.06356">
        <ele>1977.355</ele>
        <time>2009-07-12T09:20:47Z</time>
      </trkpt>
      <trkpt lat="45.09801" lon="6.06345">
        <ele>1975.924</ele>
        <time>2009-07-12T09:20:53Z</time>
      </trkpt>
      <trkpt lat="45.0978" lon="6.06338">
        <ele>1973.861</ele>
        <time>2009-07-12T09:21:00Z</time>
      </trkpt>
      <trkpt lat="45.09757" lon="6.06339">
        <ele>1976.161</ele>
        <time>2009-07-12T09:21:07Z</time>
      </trkpt>
      <trkpt lat="45.0973" lon="6.0634">
        <ele>1978.31</ele>
        <time>2009-07-12T09:21:15Z</time>
      </trkpt>
      <trkpt lat="45.09701" lon="6.06341">
        <ele>1978.214</ele>
        <time>2009-07-12T09:21:24Z</time>
      </trkpt>
      <trkpt lat="45.09678" lon="6.06334">
        <ele>1979.594</ele>
        <time>2009-07-12T09:21:32Z</time>
      </trkpt>
      <trkpt lat="45.09662" lon="6.06328">
        <ele>1981.438</ele>
        <time>2009-07-12T09:21:38Z</time>
      </trkpt>
      <trkpt lat="45.09644" lon="6.06312">
        <ele>1980.865</ele>
        <time>2009-07-12T09:21:46Z</time>
      </trkpt>
      <trkpt lat="45.09628" lon="6.06296">
        <ele>1982.109</ele>
        <time>2009-07-12T09:21:52Z</time>
      </trkpt>
      <trkpt lat="45.09616" lon="6.06274">
        <ele>1979.311</ele>
        <time>2009-07-12T09:21:58Z</time>
      </trkpt>
      <trkpt lat="45.09607" lon="6.0625">
        <ele>1980.16</ele>
        <time>2009-07-12T09:22:05Z</time>
      </trkpt>
      <trkpt lat="45.09599" lon="6.06226">
        <ele>1980.842</ele>
        <time>2009-07-12T09:22:12Z</time>
      </trkpt>
      <trkpt lat="45.09591" lon="6.06194">
        <ele>1981.231</ele>
        <time>2009-07-12T09:22:21Z</time>
      </trkpt>
      <trkpt lat="45.09585" lon="6.06162">
        <ele>1981.498</ele>
        <time>2009-07-12T09:22:29Z</time>
      </trkpt>
      <trkpt lat="45.09585" lon="6.06125">
        <ele>1979.793</ele>
        <time>2009-07-12T09:22:38Z</time>
      </trkpt>
      <trkpt lat="45.09591" lon="6.06095">
        <ele>1977.682</ele>
        <time>2009-07-12T09:22:46Z</time>
      </trkpt>
      <trkpt lat="45.09599" lon="6.06057">
        <ele>1977.568</ele>
        <time>2009-07-12T09:22:56Z</time>
      </trkpt>
      <trkpt lat="45.09608" lon="6.06026">
        <ele>1975.442</ele>
        <time>2009-07-12T09:23:05Z</time>
      </trkpt>
      <trkpt lat="45.09613" lon="6.05992">
        <ele>1977.368</ele>
        <time>2009-07-12T09:23:14Z</time>
      </trkpt>
      <trkpt lat="45.09616" lon="6.05966">
        <ele>1977.838</ele>
        <time>2009-07-12T09:23:21Z</time>
      </trkpt>
      <trkpt lat="45.09613" lon="6.05932">
        <ele>1980.23</ele>
        <time>2009-07-12T09:23:30Z</time>
      </trkpt>
      <trkpt lat="45.09614" lon="6.059">
        <ele>1980.181</ele>
        <time>2009-07-12T09:23:38Z</time>
      </trkpt>
      <trkpt lat="45.09622" lon="6.05873">
        <ele>1978.189</ele>
        <time>2009-07-12T09:23:45Z</time>
      </trkpt>
      <trkpt lat="45.09635" lon="6.05849">
        <ele>1976.826</ele>
        <time>2009-07-12T09:23:53Z</time>
      </trkpt>
      <trkpt lat="45.09649" lon="6.05831">
        <ele>1975.49</ele>
        <time>2009-07-12T09:24:00Z</time>
      </trkpt>
      <trkpt lat="45.09663" lon="6.05813">
        <ele>1974.685</ele>
        <time>2009-07-12T09:24:07Z</time>
      </trkpt>
      <trkpt lat="45.09679" lon="6.05791">
        <ele>1974.233</ele>
        <time>2009-07-12T09:24:15Z</time>
      </trkpt>
      <trkpt lat="45.09684" lon="6.05774">
        <ele>1973.177</ele>
        <time>2009-07-12T09:24:20Z</time>
      </trkpt>
      <trkpt lat="45.09683" lon="6.05757">
        <ele>1971.788</ele>
        <time>2009-07-12T09:24:24Z</time>
      </trkpt>
      <trkpt lat="45.09685" lon="6.05747">
        <ele>1972.078</ele>
        <time>2009-07-12T09:24:29Z</time>
      </trkpt>
      <trkpt lat="45.0968" lon="6.05729">
        <ele>1971.45</ele>
        <time>2009-07-12T09:24:48Z</time>
      </trkpt>
      <trkpt lat="45.09672" lon="6.05697">
        <ele>1973.919</ele>
        <time>2009-07-12T09:24:56Z</time>
      </trkpt>
      <trkpt lat="45.09668" lon="6.05666">
        <ele>1975.069</ele>
        <time>2009-07-12T09:25:04Z</time>
      </trkpt>
      <trkpt lat="45.09667" lon="6.05634">
        <ele>1974.501</ele>
        <time>2009-07-12T09:25:12Z</time>
      </trkpt>
      <trkpt lat="45.09664" lon="6.05605">
        <ele>1972.308</ele>
        <time>2009-07-12T09:25:18Z</time>
      </trkpt>
      <trkpt lat="45.09659" lon="6.05578">
        <ele>1973.613</ele>
        <time>2009-07-12T09:25:25Z</time>
      </trkpt>
      <trkpt lat="45.0965" lon="6.05554">
        <ele>1975.29</ele>
        <time>2009-07-12T09:25:32Z</time>
      </trkpt>
      <trkpt lat="45.09634" lon="6.05526">
        <ele>1975.111</ele>
        <time>2009-07-12T09:25:41Z</time>
      </trkpt>
      <trkpt lat="45.09622" lon="6.055">
        <ele>1975.581</ele>
        <time>2009-07-12T09:25:49Z</time>
      </trkpt>
      <trkpt lat="45.09618" lon="6.05477">
        <ele>1974.359</ele>
        <time>2009-07-12T09:25:55Z</time>
      </trkpt>
      <trkpt lat="45.09624" lon="6.05451">
        <ele>1972.098</ele>
        <time>2009-07-12T09:26:02Z</time>
      </trkpt>
      <trkpt lat="45.09614" lon="6.05427">
        <ele>1973.28</ele>
        <time>2009-07-12T09:26:09Z</time>
      </trkpt>
      <trkpt lat="45.09618" lon="6.05404">
        <ele>1974.494</ele>
        <time>2009-07-12T09:26:15Z</time>
      </trkpt>
      <trkpt lat="45.09628" lon="6.05378">
        <ele>1972.735</ele>
        <time>2009-07-12T09:26:22Z</time>
      </trkpt>
      <trkpt lat="45.09632" lon="6.05351">
        <ele>1973.768</ele>
        <time>2009-07-12T09:26:29Z</time>
      </trkpt>
      <trkpt lat="45.09633" lon="6.05317">
        <ele>1971.448</ele>
        <time>2009-07-12T09:26:37Z</time>
      </trkpt>
      <trkpt lat="45.0963" lon="6.05294">
        <ele>1972.476</ele>
        <time>2009-07-12T09:26:43Z</time>
      </trkpt>
      <trkpt lat="45.0962" lon="6.05275">
        <ele>1971.428</ele>
        <time>2009-07-12T09:26:49Z</time>
      </trkpt>
      <trkpt lat="45.09608" lon="6.05253">
        <ele>1972.776</ele>
        <time>2009-07-12T09:26:56Z</time>
      </trkpt>
      <trkpt lat="45.09598" lon="6.0523">
        <ele>1974.035</ele>
        <time>2009-07-12T09:27:03Z</time>
      </trkpt>
      <trkpt lat="45.09585" lon="6.05208">
        <ele>1973.825</ele>
        <time>2009-07-12T09:27:10Z</time>
      </trkpt>
      <trkpt lat="45.09569" lon="6.05185">
        <ele>1971.472</ele>
        <time>2009-07-12T09:27:18Z</time>
      </trkpt>
      <trkpt lat="45.09551" lon="6.05165">
        <ele>1972.389</ele>
        <time>2009-07-12T09:27:26Z</time>
      </trkpt>
      <trkpt lat="45.09535" lon="6.05147">
        <ele>1972.525</ele>
        <time>2009-07-12T09:27:33Z</time>
      </trkpt>
      <trkpt lat="45.09514" lon="6.0512">
        <ele>1971.624</ele>
        <time>2009-07-12T09:27:43Z</time>
      </trkpt>
      <trkpt lat="45.09498" lon="6.05096">
        <ele>1970.883</ele>
        <time>2009-07-12T09:27:51Z</time>
      </trkpt>
      <trkpt lat="45.09481" lon="6.05075">
        <ele>1970.013</ele>
        <time>2009-07-12T09:27:59Z</time>
      </trkpt>
      <trkpt lat="45.09466" lon="6.05057">
        <ele>1968.808</ele>
        <time>2009-07-12T09:28:04Z</time>
      </trkpt>
      <trkpt lat="45.0945" lon="6.05033">
        <ele>1966.657</ele>
        <time>2009-07-12T09:28:11Z</time>
      </trkpt>
      <trkpt lat="45.09451" lon="6.05031">
        <ele>1966.533</ele>
        <time>2009-07-12T09:31:00Z</time>
      </trkpt>
      <trkpt lat="45.09444" lon="6.05012">
        <ele>1964.284</ele>
        <time>2009-07-12T09:31:06Z</time>
      </trkpt>
      <trkpt lat="45.09431" lon="6.04987">
        <ele>1960.781</ele>
        <time>2009-07-12T09:31:12Z</time>
      </trkpt>
      <trkpt lat="45.09429" lon="6.04982">
        <ele>1960.467</ele>
        <time>2009-07-12T09:31:13Z</time>
      </trkpt>
      <trkpt lat="45.0944" lon="6.04973">
        <ele>1956.039</ele>
        <time>2009-07-12T09:31:17Z</time>
      </trkpt>
      <trkpt lat="45.0945" lon="6.04973">
        <ele>1953.866</ele>
        <time>2009-07-12T09:31:19Z</time>
      </trkpt>
      <trkpt lat="45.09474" lon="6.04978">
        <ele>1949.292</ele>
        <time>2009-07-12T09:31:25Z</time>
      </trkpt>
      <trkpt lat="45.09494" lon="6.04981">
        <ele>1943.09</ele>
        <time>2009-07-12T09:31:30Z</time>
      </trkpt>
      <trkpt lat="45.09515" lon="6.04985">
        <ele>1940.57</ele>
        <time>2009-07-12T09:31:34Z</time>
      </trkpt>
      <trkpt lat="45.09555" lon="6.04978">
        <ele>1931.757</ele>
        <time>2009-07-12T09:31:41Z</time>
      </trkpt>
      <trkpt lat="45.09559" lon="6.04976">
        <ele>1930.636</ele>
        <time>2009-07-12T09:31:44Z</time>
      </trkpt>
      <trkpt lat="45.09558" lon="6.04976">
        <ele>1930.221</ele>
        <time>2009-07-12T09:32:05Z</time>
      </trkpt>
      <trkpt lat="45.09572" lon="6.04964">
        <ele>1928.981</ele>
        <time>2009-07-12T09:32:10Z</time>
      </trkpt>
      <trkpt lat="45.09576" lon="6.04962">
        <ele>1927.769</ele>
        <time>2009-07-12T09:32:11Z</time>
      </trkpt>
      <trkpt lat="45.09588" lon="6.04956">
        <ele>1924.364</ele>
        <time>2009-07-12T09:32:14Z</time>
      </trkpt>
      <trkpt lat="45.09607" lon="6.04931">
        <ele>1919.791</ele>
        <time>2009-07-12T09:32:20Z</time>
      </trkpt>
      <trkpt lat="45.09613" lon="6.04907">
        <ele>1915.722</ele>
        <time>2009-07-12T09:32:25Z</time>
      </trkpt>
      <trkpt lat="45.09603" lon="6.04897">
        <ele>1914.282</ele>
        <time>2009-07-12T09:32:28Z</time>
      </trkpt>
      <trkpt lat="45.09602" lon="6.04886">
        <ele>1912.29</ele>
        <time>2009-07-12T09:32:30Z</time>
      </trkpt>
      <trkpt lat="45.09596" lon="6.04865">
        <ele>1907.696</ele>
        <time>2009-07-12T09:32:34Z</time>
      </trkpt>
      <trkpt lat="45.09582" lon="6.0485">
        <ele>1904.095</ele>
        <time>2009-07-12T09:32:39Z</time>
      </trkpt>
      <trkpt lat="45.09579" lon="6.04845">
        <ele>1903.575</ele>
        <time>2009-07-12T09:32:40Z</time>
      </trkpt>
      <trkpt lat="45.09568" lon="6.04814">
        <ele>1897.301</ele>
        <time>2009-07-12T09:32:46Z</time>
      </trkpt>
      <trkpt lat="45.09566" lon="6.04784">
        <ele>1892.062</ele>
        <time>2009-07-12T09:32:51Z</time>
      </trkpt>
      <trkpt lat="45.09551" lon="6.04749">
        <ele>1884.913</ele>
        <time>2009-07-12T09:32:56Z</time>
      </trkpt>
      <trkpt lat="45.09518" lon="6.04701">
        <ele>1873.046</ele>
        <time>2009-07-12T09:33:03Z</time>
      </trkpt>
      <trkpt lat="45.09508" lon="6.04687">
        <ele>1871.177</ele>
        <time>2009-07-12T09:33:05Z</time>
      </trkpt>
      <trkpt lat="45.09468" lon="6.04636">
        <ele>1861.776</ele>
        <time>2009-07-12T09:33:12Z</time>
      </trkpt>
      <trkpt lat="45.09433" lon="6.04597">
        <ele>1853.772</ele>
        <time>2009-07-12T09:33:18Z</time>
      </trkpt>
      <trkpt lat="45.0942" lon="6.04586">
        <ele>1850.272</ele>
        <time>2009-07-12T09:33:22Z</time>
      </trkpt>
      <trkpt lat="45.09418" lon="6.04586">
        <ele>1848</ele>
        <time>2009-07-12T09:33:35Z</time>
      </trkpt>
      <trkpt lat="45.09424" lon="6.04577">
        <ele>1846.281</ele>
        <time>2009-07-12T09:33:41Z</time>
      </trkpt>
      <trkpt lat="45.0946" lon="6.04574">
        <ele>1839.129</ele>
        <time>2009-07-12T09:33:48Z</time>
      </trkpt>
      <trkpt lat="45.09474" lon="6.04573">
        <ele>1836.624</ele>
        <time>2009-07-12T09:33:51Z</time>
      </trkpt>
      <trkpt lat="45.09495" lon="6.04575">
        <ele>1832.459</ele>
        <time>2009-07-12T09:33:55Z</time>
      </trkpt>
      <trkpt lat="45.09513" lon="6.04572">
        <ele>1828.534</ele>
        <time>2009-07-12T09:33:59Z</time>
      </trkpt>
      <trkpt lat="45.09531" lon="6.04571">
        <ele>1825.053</ele>
        <time>2009-07-12T09:34:03Z</time>
      </trkpt>
      <trkpt lat="45.09539" lon="6.04572">
        <ele>1821.709</ele>
        <time>2009-07-12T09:34:05Z</time>
      </trkpt>
      <trkpt lat="45.09572" lon="6.04577">
        <ele>1812.577</ele>
        <time>2009-07-12T09:34:11Z</time>
      </trkpt>
      <trkpt lat="45.09583" lon="6.04576">
        <ele>1810.561</ele>
        <time>2009-07-12T09:34:13Z</time>
      </trkpt>
      <trkpt lat="45.09595" lon="6.04578">
        <ele>1808.314</ele>
        <time>2009-07-12T09:34:15Z</time>
      </trkpt>
      <trkpt lat="45.09626" lon="6.04579">
        <ele>1804.578</ele>
        <time>2009-07-12T09:34:22Z</time>
      </trkpt>
      <trkpt lat="45.09657" lon="6.04573">
        <ele>1798.991</ele>
        <time>2009-07-12T09:34:27Z</time>
      </trkpt>
      <trkpt lat="45.09663" lon="6.04571">
        <ele>1798.005</ele>
        <time>2009-07-12T09:34:28Z</time>
      </trkpt>
      <trkpt lat="45.097" lon="6.04559">
        <ele>1789.899</ele>
        <time>2009-07-12T09:34:35Z</time>
      </trkpt>
      <trkpt lat="45.09744" lon="6.04555">
        <ele>1786.458</ele>
        <time>2009-07-12T09:34:42Z</time>
      </trkpt>
      <trkpt lat="45.09765" lon="6.04555">
        <ele>1785.891</ele>
        <time>2009-07-12T09:34:47Z</time>
      </trkpt>
      <trkpt lat="45.0976" lon="6.04545">
        <ele>1784.038</ele>
        <time>2009-07-12T09:34:51Z</time>
      </trkpt>
      <trkpt lat="45.09743" lon="6.04537">
        <ele>1779.701</ele>
        <time>2009-07-12T09:34:56Z</time>
      </trkpt>
      <trkpt lat="45.09714" lon="6.04528">
        <ele>1776.485</ele>
        <time>2009-07-12T09:35:02Z</time>
      </trkpt>
      <trkpt lat="45.09686" lon="6.04506">
        <ele>1773.604</ele>
        <time>2009-07-12T09:35:08Z</time>
      </trkpt>
      <trkpt lat="45.09671" lon="6.045">
        <ele>1771.668</ele>
        <time>2009-07-12T09:35:10Z</time>
      </trkpt>
      <trkpt lat="45.09657" lon="6.04498">
        <ele>1769.325</ele>
        <time>2009-07-12T09:35:12Z</time>
      </trkpt>
      <trkpt lat="45.09635" lon="6.04481">
        <ele>1762.194</ele>
        <time>2009-07-12T09:35:17Z</time>
      </trkpt>
      <trkpt lat="45.09637" lon="6.04464">
        <ele>1758.681</ele>
        <time>2009-07-12T09:35:21Z</time>
      </trkpt>
      <trkpt lat="45.0965" lon="6.0446">
        <ele>1757.103</ele>
        <time>2009-07-12T09:35:23Z</time>
      </trkpt>
      <trkpt lat="45.09698" lon="6.04444">
        <ele>1748.997</ele>
        <time>2009-07-12T09:35:30Z</time>
      </trkpt>
      <trkpt lat="45.0973" lon="6.04442">
        <ele>1743.213</ele>
        <time>2009-07-12T09:35:35Z</time>
      </trkpt>
      <trkpt lat="45.09739" lon="6.04442">
        <ele>1739.999</ele>
        <time>2009-07-12T09:35:37Z</time>
      </trkpt>
      <trkpt lat="45.09779" lon="6.04432">
        <ele>1728.197</ele>
        <time>2009-07-12T09:35:44Z</time>
      </trkpt>
      <trkpt lat="45.09815" lon="6.04411">
        <ele>1718.359</ele>
        <time>2009-07-12T09:35:50Z</time>
      </trkpt>
      <trkpt lat="45.09852" lon="6.04374">
        <ele>1705.135</ele>
        <time>2009-07-12T09:35:57Z</time>
      </trkpt>
      <trkpt lat="45.09863" lon="6.0435">
        <ele>1699.073</ele>
        <time>2009-07-12T09:36:01Z</time>
      </trkpt>
      <trkpt lat="45.09858" lon="6.0432">
        <ele>1690.838</ele>
        <time>2009-07-12T09:36:07Z</time>
      </trkpt>
      <trkpt lat="45.09854" lon="6.04317">
        <ele>1689.858</ele>
        <time>2009-07-12T09:36:08Z</time>
      </trkpt>
      <trkpt lat="45.09824" lon="6.04293">
        <ele>1683.636</ele>
        <time>2009-07-12T09:36:14Z</time>
      </trkpt>
      <trkpt lat="45.09815" lon="6.0428">
        <ele>1682.983</ele>
        <time>2009-07-12T09:36:16Z</time>
      </trkpt>
      <trkpt lat="45.09801" lon="6.04253">
        <ele>1681.355</ele>
        <time>2009-07-12T09:36:20Z</time>
      </trkpt>
      <trkpt lat="45.09796" lon="6.04232">
        <ele>1681.076</ele>
        <time>2009-07-12T09:36:23Z</time>
      </trkpt>
      <trkpt lat="45.09777" lon="6.04187">
        <ele>1675.387</ele>
        <time>2009-07-12T09:36:30Z</time>
      </trkpt>
      <trkpt lat="45.09765" lon="6.04144">
        <ele>1673.28</ele>
        <time>2009-07-12T09:36:36Z</time>
      </trkpt>
      <trkpt lat="45.09743" lon="6.04107">
        <ele>1665.616</ele>
        <time>2009-07-12T09:36:42Z</time>
      </trkpt>
      <trkpt lat="45.09733" lon="6.04092">
        <ele>1662.527</ele>
        <time>2009-07-12T09:36:45Z</time>
      </trkpt>
      <trkpt lat="45.0972" lon="6.0407">
        <ele>1659.065</ele>
        <time>2009-07-12T09:36:50Z</time>
      </trkpt>
      <trkpt lat="45.09719" lon="6.0407">
        <ele>1659.818</ele>
        <time>2009-07-12T09:36:55Z</time>
      </trkpt>
      <trkpt lat="45.09717" lon="6.0407">
        <ele>1660.294</ele>
        <time>2009-07-12T09:39:18Z</time>
      </trkpt>
      <trkpt lat="45.0971" lon="6.04046">
        <ele>1658.307</ele>
        <time>2009-07-12T09:39:23Z</time>
      </trkpt>
      <trkpt lat="45.09687" lon="6.04029">
        <ele>1655.234</ele>
        <time>2009-07-12T09:39:27Z</time>
      </trkpt>
      <trkpt lat="45.0967" lon="6.04015">
        <ele>1654.252</ele>
        <time>2009-07-12T09:39:30Z</time>
      </trkpt>
      <trkpt lat="45.09644" lon="6.03992">
        <ele>1650.606</ele>
        <time>2009-07-12T09:39:34Z</time>
      </trkpt>
      <trkpt lat="45.09625" lon="6.03976">
        <ele>1645.794</ele>
        <time>2009-07-12T09:39:37Z</time>
      </trkpt>
      <trkpt lat="45.09605" lon="6.03953">
        <ele>1638.511</ele>
        <time>2009-07-12T09:39:41Z</time>
      </trkpt>
      <trkpt lat="45.09576" lon="6.03918">
        <ele>1629.837</ele>
        <time>2009-07-12T09:39:48Z</time>
      </trkpt>
      <trkpt lat="45.09559" lon="6.03896">
        <ele>1625.169</ele>
        <time>2009-07-12T09:39:52Z</time>
      </trkpt>
      <trkpt lat="45.09548" lon="6.03871">
        <ele>1621.493</ele>
        <time>2009-07-12T09:39:56Z</time>
      </trkpt>
      <trkpt lat="45.09556" lon="6.03865">
        <ele>1620.113</ele>
        <time>2009-07-12T09:40:00Z</time>
      </trkpt>
      <trkpt lat="45.09593" lon="6.03868">
        <ele>1615.768</ele>
        <time>2009-07-12T09:40:07Z</time>
      </trkpt>
      <trkpt lat="45.09611" lon="6.03868">
        <ele>1612.803</ele>
        <time>2009-07-12T09:40:10Z</time>
      </trkpt>
      <trkpt lat="45.09634" lon="6.03862">
        <ele>1610.235</ele>
        <time>2009-07-12T09:40:14Z</time>
      </trkpt>
      <trkpt lat="45.09661" lon="6.03858">
        <ele>1610.619</ele>
        <time>2009-07-12T09:40:19Z</time>
      </trkpt>
      <trkpt lat="45.09671" lon="6.03859">
        <ele>1610.483</ele>
        <time>2009-07-12T09:40:21Z</time>
      </trkpt>
      <trkpt lat="45.09704" lon="6.03871">
        <ele>1608.219</ele>
        <time>2009-07-12T09:40:27Z</time>
      </trkpt>
      <trkpt lat="45.09737" lon="6.03872">
        <ele>1607.095</ele>
        <time>2009-07-12T09:40:33Z</time>
      </trkpt>
      <trkpt lat="45.09746" lon="6.03871">
        <ele>1608.15</ele>
        <time>2009-07-12T09:40:35Z</time>
      </trkpt>
      <trkpt lat="45.09775" lon="6.03877">
        <ele>1606.977</ele>
        <time>2009-07-12T09:40:43Z</time>
      </trkpt>
      <trkpt lat="45.09797" lon="6.03887">
        <ele>1606.966</ele>
        <time>2009-07-12T09:40:50Z</time>
      </trkpt>
      <trkpt lat="45.09827" lon="6.03896">
        <ele>1605.008</ele>
        <time>2009-07-12T09:40:58Z</time>
      </trkpt>
      <trkpt lat="45.0984" lon="6.03896">
        <ele>1604.714</ele>
        <time>2009-07-12T09:41:01Z</time>
      </trkpt>
      <trkpt lat="45.09874" lon="6.03912">
        <ele>1602.407</ele>
        <time>2009-07-12T09:41:09Z</time>
      </trkpt>
      <trkpt lat="45.09903" lon="6.03933">
        <ele>1600.529</ele>
        <time>2009-07-12T09:41:15Z</time>
      </trkpt>
      <trkpt lat="45.09909" lon="6.03938">
        <ele>1599.82</ele>
        <time>2009-07-12T09:41:16Z</time>
      </trkpt>
      <trkpt lat="45.09928" lon="6.03948">
        <ele>1599.067</ele>
        <time>2009-07-12T09:41:20Z</time>
      </trkpt>
      <trkpt lat="45.09949" lon="6.03961">
        <ele>1598.298</ele>
        <time>2009-07-12T09:41:25Z</time>
      </trkpt>
      <trkpt lat="45.09963" lon="6.03966">
        <ele>1598.55</ele>
        <time>2009-07-12T09:41:28Z</time>
      </trkpt>
      <trkpt lat="45.09988" lon="6.03972">
        <ele>1599.207</ele>
        <time>2009-07-12T09:41:34Z</time>
      </trkpt>
      <trkpt lat="45.10023" lon="6.03978">
        <ele>1600.601</ele>
        <time>2009-07-12T09:41:42Z</time>
      </trkpt>
      <trkpt lat="45.10036" lon="6.03984">
        <ele>1601.284</ele>
        <time>2009-07-12T09:41:46Z</time>
      </trkpt>
      <trkpt lat="45.10056" lon="6.03995">
        <ele>1601.937</ele>
        <time>2009-07-12T09:41:51Z</time>
      </trkpt>
      <trkpt lat="45.10076" lon="6.04006">
        <ele>1602.796</ele>
        <time>2009-07-12T09:41:58Z</time>
      </trkpt>
      <trkpt lat="45.10103" lon="6.04012">
        <ele>1613.258</ele>
        <time>2009-07-12T09:43:27Z</time>
      </trkpt>
      <trkpt lat="45.10118" lon="6.04018">
        <ele>1609.593</ele>
        <time>2009-07-12T09:43:32Z</time>
      </trkpt>
      <trkpt lat="45.10113" lon="6.04004">
        <ele>1606.066</ele>
        <time>2009-07-12T09:43:37Z</time>
      </trkpt>
      <trkpt lat="45.10112" lon="6.03999">
        <ele>1604.234</ele>
        <time>2009-07-12T09:43:41Z</time>
      </trkpt>
      <trkpt lat="45.10126" lon="6.04">
        <ele>1603.681</ele>
        <time>2009-07-12T09:43:45Z</time>
      </trkpt>
      <trkpt lat="45.10158" lon="6.04025">
        <ele>1597.057</ele>
        <time>2009-07-12T09:43:52Z</time>
      </trkpt>
      <trkpt lat="45.10162" lon="6.04033">
        <ele>1592.275</ele>
        <time>2009-07-12T09:43:56Z</time>
      </trkpt>
      <trkpt lat="45.10162" lon="6.04034">
        <ele>1591.755</ele>
        <time>2009-07-12T09:43:58Z</time>
      </trkpt>
      <trkpt lat="45.10155" lon="6.0402">
        <ele>1589.244</ele>
        <time>2009-07-12T09:44:03Z</time>
      </trkpt>
      <trkpt lat="45.10155" lon="6.04013">
        <ele>1587.249</ele>
        <time>2009-07-12T09:44:07Z</time>
      </trkpt>
      <trkpt lat="45.10157" lon="6.04008">
        <ele>1585.856</ele>
        <time>2009-07-12T09:44:19Z</time>
      </trkpt>
      <trkpt lat="45.10164" lon="6.04001">
        <ele>1585.688</ele>
        <time>2009-07-12T09:44:34Z</time>
      </trkpt>
      <trkpt lat="45.10168" lon="6.04001">
        <ele>1585.792</ele>
        <time>2009-07-12T09:44:44Z</time>
      </trkpt>
      <trkpt lat="45.10174" lon="6.04003">
        <ele>1585.688</ele>
        <time>2009-07-12T09:44:54Z</time>
      </trkpt>
      <trkpt lat="45.10169" lon="6.0401">
        <ele>1585.486</ele>
        <time>2009-07-12T09:45:13Z</time>
      </trkpt>
      <trkpt lat="45.10173" lon="6.04">
        <ele>1585.53</ele>
        <time>2009-07-12T09:45:22Z</time>
      </trkpt>
      <trkpt lat="45.10184" lon="6.04006">
        <ele>1585.565</ele>
        <time>2009-07-12T09:45:29Z</time>
      </trkpt>
      <trkpt lat="45.10189" lon="6.03983">
        <ele>1585.204</ele>
        <time>2009-07-12T09:45:33Z</time>
      </trkpt>
      <trkpt lat="45.10187" lon="6.0397">
        <ele>1585.068</ele>
        <time>2009-07-12T09:45:37Z</time>
      </trkpt>
      <trkpt lat="45.10175" lon="6.03954">
        <ele>1582.034</ele>
        <time>2009-07-12T09:45:43Z</time>
      </trkpt>
      <trkpt lat="45.10179" lon="6.03944">
        <ele>1580.435</ele>
        <time>2009-07-12T09:45:45Z</time>
      </trkpt>
      <trkpt lat="45.10172" lon="6.0392">
        <ele>1577.54</ele>
        <time>2009-07-12T09:45:52Z</time>
      </trkpt>
      <trkpt lat="45.10164" lon="6.03894">
        <ele>1575.477</ele>
        <time>2009-07-12T09:45:58Z</time>
      </trkpt>
      <trkpt lat="45.10153" lon="6.0387">
        <ele>1572.922</ele>
        <time>2009-07-12T09:46:03Z</time>
      </trkpt>
      <trkpt lat="45.10136" lon="6.03854">
        <ele>1571.556</ele>
        <time>2009-07-12T09:46:07Z</time>
      </trkpt>
      <trkpt lat="45.10121" lon="6.03827">
        <ele>1569.87</ele>
        <time>2009-07-12T09:46:13Z</time>
      </trkpt>
      <trkpt lat="45.1012" lon="6.03818">
        <ele>1568.69</ele>
        <time>2009-07-12T09:46:16Z</time>
      </trkpt>
      <trkpt lat="45.1011" lon="6.03812">
        <ele>1567.492</ele>
        <time>2009-07-12T09:46:20Z</time>
      </trkpt>
      <trkpt lat="45.10088" lon="6.03807">
        <ele>1566.389</ele>
        <time>2009-07-12T09:46:26Z</time>
      </trkpt>
      <trkpt lat="45.1008" lon="6.03807">
        <ele>1566.292</ele>
        <time>2009-07-12T09:46:28Z</time>
      </trkpt>
      <trkpt lat="45.10071" lon="6.03804">
        <ele>1563.794</ele>
        <time>2009-07-12T09:46:36Z</time>
      </trkpt>
      <trkpt lat="45.1007" lon="6.03804">
        <ele>1563.889</ele>
        <time>2009-07-12T09:46:37Z</time>
      </trkpt>
      <trkpt lat="45.10054" lon="6.03799">
        <ele>1561.64</ele>
        <time>2009-07-12T09:46:43Z</time>
      </trkpt>
      <trkpt lat="45.10037" lon="6.03789">
        <ele>1563.518</ele>
        <time>2009-07-12T09:46:48Z</time>
      </trkpt>
      <trkpt lat="45.10023" lon="6.03783">
        <ele>1563.594</ele>
        <time>2009-07-12T09:46:52Z</time>
      </trkpt>
      <trkpt lat="45.10019" lon="6.03778">
        <ele>1563.945</ele>
        <time>2009-07-12T09:46:55Z</time>
      </trkpt>
      <trkpt lat="45.10001" lon="6.03758">
        <ele>1569.604</ele>
        <time>2009-07-12T09:47:00Z</time>
      </trkpt>
      <trkpt lat="45.09985" lon="6.03733">
        <ele>1568.307</ele>
        <time>2009-07-12T09:47:03Z</time>
      </trkpt>
      <trkpt lat="45.09977" lon="6.03718">
        <ele>1567.5</ele>
        <time>2009-07-12T09:47:06Z</time>
      </trkpt>
      <trkpt lat="45.09965" lon="6.03703">
        <ele>1566.278</ele>
        <time>2009-07-12T09:47:10Z</time>
      </trkpt>
      <trkpt lat="45.09962" lon="6.03676">
        <ele>1562.205</ele>
        <time>2009-07-12T09:47:13Z</time>
      </trkpt>
      <trkpt lat="45.09953" lon="6.03638">
        <ele>1554.2</ele>
        <time>2009-07-12T09:47:18Z</time>
      </trkpt>
      <trkpt lat="45.09943" lon="6.03622">
        <ele>1548.754</ele>
        <time>2009-07-12T09:47:21Z</time>
      </trkpt>
      <trkpt lat="45.09925" lon="6.03579">
        <ele>1534.701</ele>
        <time>2009-07-12T09:47:28Z</time>
      </trkpt>
      <trkpt lat="45.09912" lon="6.03558">
        <ele>1530.149</ele>
        <time>2009-07-12T09:47:31Z</time>
      </trkpt>
      <trkpt lat="45.09873" lon="6.03513">
        <ele>1521.395</ele>
        <time>2009-07-12T09:47:39Z</time>
      </trkpt>
      <trkpt lat="45.0984" lon="6.03482">
        <ele>1515.878</ele>
        <time>2009-07-12T09:47:45Z</time>
      </trkpt>
      <trkpt lat="45.0983" lon="6.03475">
        <ele>1514.505</ele>
        <time>2009-07-12T09:47:47Z</time>
      </trkpt>
      <trkpt lat="45.09814" lon="6.03457">
        <ele>1511.131</ele>
        <time>2009-07-12T09:47:52Z</time>
      </trkpt>
      <trkpt lat="45.09803" lon="6.03439">
        <ele>1509.76</ele>
        <time>2009-07-12T09:47:56Z</time>
      </trkpt>
      <trkpt lat="45.09794" lon="6.03427">
        <ele>1509.217</ele>
        <time>2009-07-12T09:47:59Z</time>
      </trkpt>
      <trkpt lat="45.09785" lon="6.03421">
        <ele>1507.916</ele>
        <time>2009-07-12T09:48:01Z</time>
      </trkpt>
      <trkpt lat="45.09743" lon="6.034">
        <ele>1503.086</ele>
        <time>2009-07-12T09:48:11Z</time>
      </trkpt>
      <trkpt lat="45.0972" lon="6.03377">
        <ele>1501.25</ele>
        <time>2009-07-12T09:48:19Z</time>
      </trkpt>
      <trkpt lat="45.09708" lon="6.03359">
        <ele>1500.634</ele>
        <time>2009-07-12T09:48:24Z</time>
      </trkpt>
      <trkpt lat="45.09691" lon="6.03336">
        <ele>1499.183</ele>
        <time>2009-07-12T09:48:30Z</time>
      </trkpt>
      <trkpt lat="45.09668" lon="6.03303">
        <ele>1496.781</ele>
        <time>2009-07-12T09:48:37Z</time>
      </trkpt>
      <trkpt lat="45.09647" lon="6.03277">
        <ele>1494.022</ele>
        <time>2009-07-12T09:48:42Z</time>
      </trkpt>
      <trkpt lat="45.09627" lon="6.03256">
        <ele>1491.372</ele>
        <time>2009-07-12T09:48:46Z</time>
      </trkpt>
      <trkpt lat="45.09616" lon="6.0324">
        <ele>1490.159</ele>
        <time>2009-07-12T09:48:50Z</time>
      </trkpt>
      <trkpt lat="45.09627" lon="6.03244">
        <ele>1489.155</ele>
        <time>2009-07-12T09:48:54Z</time>
      </trkpt>
      <trkpt lat="45.0965" lon="6.03265">
        <ele>1489.006</ele>
        <time>2009-07-12T09:49:01Z</time>
      </trkpt>
      <trkpt lat="45.09666" lon="6.03284">
        <ele>1488.619</ele>
        <time>2009-07-12T09:49:07Z</time>
      </trkpt>
      <trkpt lat="45.09675" lon="6.03293">
        <ele>1488.02</ele>
        <time>2009-07-12T09:49:09Z</time>
      </trkpt>
      <trkpt lat="45.09705" lon="6.03328">
        <ele>1484.806</ele>
        <time>2009-07-12T09:49:14Z</time>
      </trkpt>
      <trkpt lat="45.09718" lon="6.03348">
        <ele>1483.187</ele>
        <time>2009-07-12T09:49:17Z</time>
      </trkpt>
      <trkpt lat="45.09737" lon="6.03373">
        <ele>1481.189</ele>
        <time>2009-07-12T09:49:22Z</time>
      </trkpt>
      <trkpt lat="45.09755" lon="6.03376">
        <ele>1479.768</ele>
        <time>2009-07-12T09:49:26Z</time>
      </trkpt>
      <trkpt lat="45.09773" lon="6.03391">
        <ele>1478.578</ele>
        <time>2009-07-12T09:49:30Z</time>
      </trkpt>
      <trkpt lat="45.09797" lon="6.03403">
        <ele>1477.433</ele>
        <time>2009-07-12T09:49:35Z</time>
      </trkpt>
      <trkpt lat="45.09832" lon="6.03428">
        <ele>1476.254</ele>
        <time>2009-07-12T09:49:42Z</time>
      </trkpt>
      <trkpt lat="45.09841" lon="6.03435">
        <ele>1475.926</ele>
        <time>2009-07-12T09:49:44Z</time>
      </trkpt>
      <trkpt lat="45.09872" lon="6.03463">
        <ele>1474.228</ele>
        <time>2009-07-12T09:49:50Z</time>
      </trkpt>
      <trkpt lat="45.09901" lon="6.0349">
        <ele>1472.54</ele>
        <time>2009-07-12T09:49:55Z</time>
      </trkpt>
      <trkpt lat="45.09911" lon="6.03504">
        <ele>1471.79</ele>
        <time>2009-07-12T09:49:57Z</time>
      </trkpt>
      <trkpt lat="45.09935" lon="6.03526">
        <ele>1470.318</ele>
        <time>2009-07-12T09:50:02Z</time>
      </trkpt>
      <trkpt lat="45.09958" lon="6.03542">
        <ele>1468.406</ele>
        <time>2009-07-12T09:50:05Z</time>
      </trkpt>
      <trkpt lat="45.0997" lon="6.03555">
        <ele>1467.14</ele>
        <time>2009-07-12T09:50:07Z</time>
      </trkpt>
      <trkpt lat="45.09994" lon="6.03586">
        <ele>1464.952</ele>
        <time>2009-07-12T09:50:11Z</time>
      </trkpt>
      <trkpt lat="45.1" lon="6.03605">
        <ele>1463.78</ele>
        <time>2009-07-12T09:50:13Z</time>
      </trkpt>
      <trkpt lat="45.10022" lon="6.03621">
        <ele>1461.132</ele>
        <time>2009-07-12T09:50:17Z</time>
      </trkpt>
      <trkpt lat="45.10035" lon="6.03635">
        <ele>1459.806</ele>
        <time>2009-07-12T09:50:19Z</time>
      </trkpt>
      <trkpt lat="45.10054" lon="6.03648">
        <ele>1457.716</ele>
        <time>2009-07-12T09:50:25Z</time>
      </trkpt>
      <trkpt lat="45.1006" lon="6.0365">
        <ele>1457.577</ele>
        <time>2009-07-12T09:50:26Z</time>
      </trkpt>
      <trkpt lat="45.10112" lon="6.03669">
        <ele>1455.889</ele>
        <time>2009-07-12T09:50:33Z</time>
      </trkpt>
      <trkpt lat="45.10176" lon="6.03719">
        <ele>1454.439</ele>
        <time>2009-07-12T09:50:40Z</time>
      </trkpt>
      <trkpt lat="45.10212" lon="6.03746">
        <ele>1451.57</ele>
        <time>2009-07-12T09:50:45Z</time>
      </trkpt>
      <trkpt lat="45.10229" lon="6.03773">
        <ele>1450.08</ele>
        <time>2009-07-12T09:50:49Z</time>
      </trkpt>
      <trkpt lat="45.10249" lon="6.03812">
        <ele>1448.843</ele>
        <time>2009-07-12T09:50:54Z</time>
      </trkpt>
      <trkpt lat="45.10261" lon="6.03829">
        <ele>1448.956</ele>
        <time>2009-07-12T09:50:58Z</time>
      </trkpt>
      <trkpt lat="45.10275" lon="6.03835">
        <ele>1448.42</ele>
        <time>2009-07-12T09:51:02Z</time>
      </trkpt>
      <trkpt lat="45.10284" lon="6.03844">
        <ele>1448.119</ele>
        <time>2009-07-12T09:51:04Z</time>
      </trkpt>
      <trkpt lat="45.10292" lon="6.03867">
        <ele>1447.421</ele>
        <time>2009-07-12T09:51:08Z</time>
      </trkpt>
      <trkpt lat="45.10295" lon="6.03884">
        <ele>1447.111</ele>
        <time>2009-07-12T09:51:12Z</time>
      </trkpt>
      <trkpt lat="45.10287" lon="6.03911">
        <ele>1449.089</ele>
        <time>2009-07-12T09:51:21Z</time>
      </trkpt>
      <trkpt lat="45.10292" lon="6.03932">
        <ele>1449.453</ele>
        <time>2009-07-12T09:51:25Z</time>
      </trkpt>
      <trkpt lat="45.10292" lon="6.03945">
        <ele>1449.487</ele>
        <time>2009-07-12T09:51:27Z</time>
      </trkpt>
      <trkpt lat="45.10307" lon="6.03991">
        <ele>1447.937</ele>
        <time>2009-07-12T09:51:32Z</time>
      </trkpt>
      <trkpt lat="45.10316" lon="6.03982">
        <ele>1447.481</ele>
        <time>2009-07-12T09:51:35Z</time>
      </trkpt>
      <trkpt lat="45.10332" lon="6.03949">
        <ele>1447.044</ele>
        <time>2009-07-12T09:51:41Z</time>
      </trkpt>
      <trkpt lat="45.10333" lon="6.03948">
        <ele>1446.725</ele>
        <time>2009-07-12T09:51:43Z</time>
      </trkpt>
      <trkpt lat="45.10348" lon="6.03949">
        <ele>1446.605</ele>
        <time>2009-07-12T09:51:47Z</time>
      </trkpt>
      <trkpt lat="45.10389" lon="6.03925">
        <ele>1445.605</ele>
        <time>2009-07-12T09:51:52Z</time>
      </trkpt>
      <trkpt lat="45.10398" lon="6.03921">
        <ele>1445.467</ele>
        <time>2009-07-12T09:51:53Z</time>
      </trkpt>
      <trkpt lat="45.10436" lon="6.03922">
        <ele>1443.882</ele>
        <time>2009-07-12T09:51:58Z</time>
      </trkpt>
      <trkpt lat="45.10448" lon="6.03928">
        <ele>1443.342</ele>
        <time>2009-07-12T09:51:59Z</time>
      </trkpt>
      <trkpt lat="45.10481" lon="6.03943">
        <ele>1440.887</ele>
        <time>2009-07-12T09:52:04Z</time>
      </trkpt>
      <trkpt lat="45.10497" lon="6.03965">
        <ele>1438.683</ele>
        <time>2009-07-12T09:52:08Z</time>
      </trkpt>
      <trkpt lat="45.10511" lon="6.03968">
        <ele>1437.146</ele>
        <time>2009-07-12T09:52:11Z</time>
      </trkpt>
      <trkpt lat="45.1051" lon="6.03976">
        <ele>1434.748</ele>
        <time>2009-07-12T09:52:18Z</time>
      </trkpt>
      <trkpt lat="45.10514" lon="6.03979">
        <ele>1433.506</ele>
        <time>2009-07-12T09:52:38Z</time>
      </trkpt>
      <trkpt lat="45.10537" lon="6.03956">
        <ele>1433.402</ele>
        <time>2009-07-12T09:52:44Z</time>
      </trkpt>
      <trkpt lat="45.1054" lon="6.03948">
        <ele>1433.213</ele>
        <time>2009-07-12T09:52:49Z</time>
      </trkpt>
      <trkpt lat="45.10552" lon="6.03937">
        <ele>1433.364</ele>
        <time>2009-07-12T09:52:53Z</time>
      </trkpt>
      <trkpt lat="45.10571" lon="6.03927">
        <ele>1433.441</ele>
        <time>2009-07-12T09:52:58Z</time>
      </trkpt>
      <trkpt lat="45.10606" lon="6.0392">
        <ele>1432.926</ele>
        <time>2009-07-12T09:53:05Z</time>
      </trkpt>
      <trkpt lat="45.10614" lon="6.03912">
        <ele>1432.715</ele>
        <time>2009-07-12T09:53:08Z</time>
      </trkpt>
      <trkpt lat="45.10637" lon="6.03872">
        <ele>1430.968</ele>
        <time>2009-07-12T09:53:13Z</time>
      </trkpt>
      <trkpt lat="45.10651" lon="6.03852">
        <ele>1427.851</ele>
        <time>2009-07-12T09:53:35Z</time>
      </trkpt>
      <trkpt lat="45.10654" lon="6.03852">
        <ele>1427.792</ele>
        <time>2009-07-12T09:53:37Z</time>
      </trkpt>
      <trkpt lat="45.10682" lon="6.03838">
        <ele>1427.516</ele>
        <time>2009-07-12T09:53:46Z</time>
      </trkpt>
      <trkpt lat="45.10705" lon="6.0384">
        <ele>1424.68</ele>
        <time>2009-07-12T09:53:52Z</time>
      </trkpt>
      <trkpt lat="45.10726" lon="6.03846">
        <ele>1419.75</ele>
        <time>2009-07-12T09:53:58Z</time>
      </trkpt>
      <trkpt lat="45.10732" lon="6.03849">
        <ele>1419.293</ele>
        <time>2009-07-12T09:53:59Z</time>
      </trkpt>
      <trkpt lat="45.10746" lon="6.0386">
        <ele>1417.284</ele>
        <time>2009-07-12T09:54:02Z</time>
      </trkpt>
      <trkpt lat="45.10759" lon="6.03881">
        <ele>1416.325</ele>
        <time>2009-07-12T09:54:09Z</time>
      </trkpt>
      <trkpt lat="45.10763" lon="6.03884">
        <ele>1415.772</ele>
        <time>2009-07-12T09:54:16Z</time>
      </trkpt>
      <trkpt lat="45.10782" lon="6.03897">
        <ele>1415.846</ele>
        <time>2009-07-12T09:54:45Z</time>
      </trkpt>
      <trkpt lat="45.10791" lon="6.03899">
        <ele>1416.223</ele>
        <time>2009-07-12T09:54:52Z</time>
      </trkpt>
      <trkpt lat="45.10806" lon="6.03905">
        <ele>1416.239</ele>
        <time>2009-07-12T09:55:06Z</time>
      </trkpt>
      <trkpt lat="45.10816" lon="6.03915">
        <ele>1416.762</ele>
        <time>2009-07-12T09:55:17Z</time>
      </trkpt>
      <trkpt lat="45.10822" lon="6.03926">
        <ele>1416.296</ele>
        <time>2009-07-12T09:55:41Z</time>
      </trkpt>
      <trkpt lat="45.10831" lon="6.03922">
        <ele>1416.168</ele>
        <time>2009-07-12T09:55:54Z</time>
      </trkpt>
      <trkpt lat="45.10843" lon="6.03907">
        <ele>1417.738</ele>
        <time>2009-07-12T09:56:12Z</time>
      </trkpt>
      <trkpt lat="45.10865" lon="6.03907">
        <ele>1418.518</ele>
        <time>2009-07-12T09:56:21Z</time>
      </trkpt>
      <trkpt lat="45.10877" lon="6.03904">
        <ele>1417.995</ele>
        <time>2009-07-12T09:56:30Z</time>
      </trkpt>
      <trkpt lat="45.10889" lon="6.03899">
        <ele>1417.838</ele>
        <time>2009-07-12T09:56:34Z</time>
      </trkpt>
      <trkpt lat="45.10897" lon="6.03899">
        <ele>1418.675</ele>
        <time>2009-07-12T09:56:39Z</time>
      </trkpt>
      <trkpt lat="45.10906" lon="6.03902">
        <ele>1419.036</ele>
        <time>2009-07-12T09:56:46Z</time>
      </trkpt>
      <trkpt lat="45.10915" lon="6.0391">
        <ele>1419.646</ele>
        <time>2009-07-12T09:56:57Z</time>
      </trkpt>
      <trkpt lat="45.10925" lon="6.03908">
        <ele>1420.416</ele>
        <time>2009-07-12T09:57:10Z</time>
      </trkpt>
      <trkpt lat="45.10928" lon="6.03905">
        <ele>1421.089</ele>
        <time>2009-07-12T09:57:23Z</time>
      </trkpt>
      <trkpt lat="45.10941" lon="6.03886">
        <ele>1421.104</ele>
        <time>2009-07-12T09:57:41Z</time>
      </trkpt>
      <trkpt lat="45.10942" lon="6.03885">
        <ele>1421.542</ele>
        <time>2009-07-12T09:57:53Z</time>
      </trkpt>
      <trkpt lat="45.10962" lon="6.03879">
        <ele>1421.722</ele>
        <time>2009-07-12T09:58:03Z</time>
      </trkpt>
      <trkpt lat="45.10966" lon="6.03871">
        <ele>1421.671</ele>
        <time>2009-07-12T09:58:10Z</time>
      </trkpt>
      <trkpt lat="45.10978" lon="6.0387">
        <ele>1422.072</ele>
        <time>2009-07-12T09:58:17Z</time>
      </trkpt>
      <trkpt lat="45.1098" lon="6.03869">
        <ele>1422.469</ele>
        <time>2009-07-12T09:58:26Z</time>
      </trkpt>
      <trkpt lat="45.10999" lon="6.03869">
        <ele>1423.087</ele>
        <time>2009-07-12T09:58:33Z</time>
      </trkpt>
      <trkpt lat="45.1101" lon="6.03871">
        <ele>1424.226</ele>
        <time>2009-07-12T09:58:40Z</time>
      </trkpt>
      <trkpt lat="45.11016" lon="6.03871">
        <ele>1424.911</ele>
        <time>2009-07-12T09:58:45Z</time>
      </trkpt>
      <trkpt lat="45.11025" lon="6.03864">
        <ele>1424.367</ele>
        <time>2009-07-12T09:58:50Z</time>
      </trkpt>
      <trkpt lat="45.11035" lon="6.03857">
        <ele>1424.441</ele>
        <time>2009-07-12T09:58:59Z</time>
      </trkpt>
      <trkpt lat="45.11049" lon="6.03845">
        <ele>1424.866</ele>
        <time>2009-07-12T09:59:06Z</time>
      </trkpt>
      <trkpt lat="45.11059" lon="6.03836">
        <ele>1425.606</ele>
        <time>2009-07-12T09:59:15Z</time>
      </trkpt>
      <trkpt lat="45.11063" lon="6.03831">
        <ele>1425.809</ele>
        <time>2009-07-12T09:59:24Z</time>
      </trkpt>
      <trkpt lat="45.1108" lon="6.03827">
        <ele>1426.209</ele>
        <time>2009-07-12T09:59:36Z</time>
      </trkpt>
      <trkpt lat="45.11091" lon="6.03828">
        <ele>1427.079</ele>
        <time>2009-07-12T09:59:46Z</time>
      </trkpt>
      <trkpt lat="45.11095" lon="6.03829">
        <ele>1428.949</ele>
        <time>2009-07-12T09:59:57Z</time>
      </trkpt>
      <trkpt lat="45.11098" lon="6.03833">
        <ele>1429.642</ele>
        <time>2009-07-12T10:00:00Z</time>
      </trkpt>
      <trkpt lat="45.11105" lon="6.03848">
        <ele>1430.605</ele>
        <time>2009-07-12T10:00:08Z</time>
      </trkpt>
      <trkpt lat="45.11108" lon="6.03875">
        <ele>1431.282</ele>
        <time>2009-07-12T10:00:15Z</time>
      </trkpt>
      <trkpt lat="45.11105" lon="6.03899">
        <ele>1431.832</ele>
        <time>2009-07-12T10:00:20Z</time>
      </trkpt>
      <trkpt lat="45.11104" lon="6.03904">
        <ele>1431.953</ele>
        <time>2009-07-12T10:00:21Z</time>
      </trkpt>
      <trkpt lat="45.11102" lon="6.03949">
        <ele>1430.597</ele>
        <time>2009-07-12T10:00:27Z</time>
      </trkpt>
      <trkpt lat="45.11114" lon="6.03979">
        <ele>1429.852</ele>
        <time>2009-07-12T10:00:31Z</time>
      </trkpt>
      <trkpt lat="45.11116" lon="6.04027">
        <ele>1427.297</ele>
        <time>2009-07-12T10:00:37Z</time>
      </trkpt>
      <trkpt lat="45.11106" lon="6.04075">
        <ele>1422.62</ele>
        <time>2009-07-12T10:00:44Z</time>
      </trkpt>
      <trkpt lat="45.11106" lon="6.04083">
        <ele>1421.675</ele>
        <time>2009-07-12T10:00:45Z</time>
      </trkpt>
      <trkpt lat="45.11102" lon="6.0411">
        <ele>1417.303</ele>
        <time>2009-07-12T10:00:49Z</time>
      </trkpt>
      <trkpt lat="45.11098" lon="6.04149">
        <ele>1412.198</ele>
        <time>2009-07-12T10:00:56Z</time>
      </trkpt>
      <trkpt lat="45.11097" lon="6.04153">
        <ele>1410.973</ele>
        <time>2009-07-12T10:00:57Z</time>
      </trkpt>
      <trkpt lat="45.11097" lon="6.04174">
        <ele>1407.068</ele>
        <time>2009-07-12T10:01:01Z</time>
      </trkpt>
      <trkpt lat="45.11094" lon="6.04198">
        <ele>1403.442</ele>
        <time>2009-07-12T10:01:04Z</time>
      </trkpt>
      <trkpt lat="45.11084" lon="6.04229">
        <ele>1399.003</ele>
        <time>2009-07-12T10:01:09Z</time>
      </trkpt>
      <trkpt lat="45.11083" lon="6.04234">
        <ele>1397.044</ele>
        <time>2009-07-12T10:01:10Z</time>
      </trkpt>
      <trkpt lat="45.11077" lon="6.04251">
        <ele>1393.768</ele>
        <time>2009-07-12T10:01:13Z</time>
      </trkpt>
      <trkpt lat="45.11077" lon="6.04277">
        <ele>1388.487</ele>
        <time>2009-07-12T10:01:17Z</time>
      </trkpt>
      <trkpt lat="45.11078" lon="6.04287">
        <ele>1386.004</ele>
        <time>2009-07-12T10:01:19Z</time>
      </trkpt>
      <trkpt lat="45.11078" lon="6.043">
        <ele>1383.833</ele>
        <time>2009-07-12T10:01:21Z</time>
      </trkpt>
      <trkpt lat="45.11075" lon="6.04324">
        <ele>1380.674</ele>
        <time>2009-07-12T10:01:24Z</time>
      </trkpt>
      <trkpt lat="45.11066" lon="6.04352">
        <ele>1377.183</ele>
        <time>2009-07-12T10:01:28Z</time>
      </trkpt>
      <trkpt lat="45.11058" lon="6.0438">
        <ele>1370.876</ele>
        <time>2009-07-12T10:01:34Z</time>
      </trkpt>
      <trkpt lat="45.1105" lon="6.04395">
        <ele>1366.4</ele>
        <time>2009-07-12T10:01:38Z</time>
      </trkpt>
      <trkpt lat="45.11043" lon="6.04402">
        <ele>1365.369</ele>
        <time>2009-07-12T10:01:40Z</time>
      </trkpt>
      <trkpt lat="45.11024" lon="6.04423">
        <ele>1360.152</ele>
        <time>2009-07-12T10:01:46Z</time>
      </trkpt>
      <trkpt lat="45.11007" lon="6.04438">
        <ele>1355.836</ele>
        <time>2009-07-12T10:01:53Z</time>
      </trkpt>
      <trkpt lat="45.11005" lon="6.04439">
        <ele>1355.563</ele>
        <time>2009-07-12T10:01:54Z</time>
      </trkpt>
      <trkpt lat="45.11002" lon="6.04437">
        <ele>1354.664</ele>
        <time>2009-07-12T10:02:01Z</time>
      </trkpt>
      <trkpt lat="45.11" lon="6.0444">
        <ele>1354.332</ele>
        <time>2009-07-12T10:02:35Z</time>
      </trkpt>
      <trkpt lat="45.11032" lon="6.04461">
        <ele>1354.069</ele>
        <time>2009-07-12T10:02:41Z</time>
      </trkpt>
      <trkpt lat="45.11042" lon="6.04463">
        <ele>1353.745</ele>
        <time>2009-07-12T10:02:43Z</time>
      </trkpt>
      <trkpt lat="45.11072" lon="6.04487">
        <ele>1353.482</ele>
        <time>2009-07-12T10:02:48Z</time>
      </trkpt>
      <trkpt lat="45.1108" lon="6.04499">
        <ele>1351.988</ele>
        <time>2009-07-12T10:02:50Z</time>
      </trkpt>
      <trkpt lat="45.11095" lon="6.04515">
        <ele>1351.315</ele>
        <time>2009-07-12T10:02:55Z</time>
      </trkpt>
      <trkpt lat="45.11099" lon="6.04503">
        <ele>1349.381</ele>
        <time>2009-07-12T10:02:59Z</time>
      </trkpt>
      <trkpt lat="45.11103" lon="6.04499">
        <ele>1346.551</ele>
        <time>2009-07-12T10:03:02Z</time>
      </trkpt>
      <trkpt lat="45.1111" lon="6.04499">
        <ele>1345.481</ele>
        <time>2009-07-12T10:03:05Z</time>
      </trkpt>
      <trkpt lat="45.11116" lon="6.04516">
        <ele>1343.378</ele>
        <time>2009-07-12T10:03:10Z</time>
      </trkpt>
      <trkpt lat="45.11107" lon="6.04551">
        <ele>1334.244</ele>
        <time>2009-07-12T10:03:16Z</time>
      </trkpt>
      <trkpt lat="45.11107" lon="6.04557">
        <ele>1330.661</ele>
        <time>2009-07-12T10:03:20Z</time>
      </trkpt>
      <trkpt lat="45.11108" lon="6.04557">
        <ele>1330.093</ele>
        <time>2009-07-12T10:03:21Z</time>
      </trkpt>
      <trkpt lat="45.11126" lon="6.04549">
        <ele>1324.957</ele>
        <time>2009-07-12T10:03:27Z</time>
      </trkpt>
      <trkpt lat="45.11141" lon="6.04544">
        <ele>1322.794</ele>
        <time>2009-07-12T10:03:32Z</time>
      </trkpt>
      <trkpt lat="45.11143" lon="6.04543">
        <ele>1322.533</ele>
        <time>2009-07-12T10:03:33Z</time>
      </trkpt>
      <trkpt lat="45.11146" lon="6.04523">
        <ele>1322.056</ele>
        <time>2009-07-12T10:03:38Z</time>
      </trkpt>
      <trkpt lat="45.11137" lon="6.04494">
        <ele>1323.042</ele>
        <time>2009-07-12T10:03:44Z</time>
      </trkpt>
      <trkpt lat="45.11139" lon="6.04489">
        <ele>1323.416</ele>
        <time>2009-07-12T10:03:56Z</time>
      </trkpt>
      <trkpt lat="45.11155" lon="6.04484">
        <ele>1320.85</ele>
        <time>2009-07-12T10:04:01Z</time>
      </trkpt>
      <trkpt lat="45.11167" lon="6.04489">
        <ele>1319.976</ele>
        <time>2009-07-12T10:04:05Z</time>
      </trkpt>
      <trkpt lat="45.11174" lon="6.04491">
        <ele>1320.085</ele>
        <time>2009-07-12T10:04:08Z</time>
      </trkpt>
      <trkpt lat="45.11172" lon="6.04481">
        <ele>1312.595</ele>
        <time>2009-07-12T10:04:14Z</time>
      </trkpt>
      <trkpt lat="45.11174" lon="6.04481">
        <ele>1310.56</ele>
        <time>2009-07-12T10:04:15Z</time>
      </trkpt>
      <trkpt lat="45.11185" lon="6.04482">
        <ele>1307.323</ele>
        <time>2009-07-12T10:04:19Z</time>
      </trkpt>
      <trkpt lat="45.11205" lon="6.04476">
        <ele>1300.11</ele>
        <time>2009-07-12T10:04:24Z</time>
      </trkpt>
      <trkpt lat="45.11216" lon="6.04471">
        <ele>1298.705</ele>
        <time>2009-07-12T10:04:28Z</time>
      </trkpt>
      <trkpt lat="45.1122" lon="6.04473">
        <ele>1295.282</ele>
        <time>2009-07-12T10:04:34Z</time>
      </trkpt>
      <trkpt lat="45.11221" lon="6.04474">
        <ele>1293.851</ele>
        <time>2009-07-12T10:04:40Z</time>
      </trkpt>
      <trkpt lat="45.11239" lon="6.04486">
        <ele>1289.423</ele>
        <time>2009-07-12T10:04:44Z</time>
      </trkpt>
      <trkpt lat="45.11256" lon="6.04482">
        <ele>1284.223</ele>
        <time>2009-07-12T10:04:50Z</time>
      </trkpt>
      <trkpt lat="45.11259" lon="6.04481">
        <ele>1281.93</ele>
        <time>2009-07-12T10:04:52Z</time>
      </trkpt>
      <trkpt lat="45.11263" lon="6.04479">
        <ele>1281.063</ele>
        <time>2009-07-12T10:04:55Z</time>
      </trkpt>
      <trkpt lat="45.11272" lon="6.04477">
        <ele>1279.651</ele>
        <time>2009-07-12T10:05:01Z</time>
      </trkpt>
      <trkpt lat="45.11279" lon="6.04477">
        <ele>1275.359</ele>
        <time>2009-07-12T10:05:21Z</time>
      </trkpt>
      <trkpt lat="45.11281" lon="6.04476">
        <ele>1274.089</ele>
        <time>2009-07-12T10:05:22Z</time>
      </trkpt>
      <trkpt lat="45.11284" lon="6.04475">
        <ele>1269.648</ele>
        <time>2009-07-12T10:05:27Z</time>
      </trkpt>
      <trkpt lat="45.11288" lon="6.04476">
        <ele>1268.378</ele>
        <time>2009-07-12T10:05:33Z</time>
      </trkpt>
      <trkpt lat="45.11298" lon="6.04484">
        <ele>1265.073</ele>
        <time>2009-07-12T10:05:38Z</time>
      </trkpt>
      <trkpt lat="45.11298" lon="6.04487">
        <ele>1263.422</ele>
        <time>2009-07-12T10:05:43Z</time>
      </trkpt>
      <trkpt lat="45.11305" lon="6.04491">
        <ele>1261.611</ele>
        <time>2009-07-12T10:05:48Z</time>
      </trkpt>
      <trkpt lat="45.1131" lon="6.04481">
        <ele>1259.739</ele>
        <time>2009-07-12T10:05:57Z</time>
      </trkpt>
      <trkpt lat="45.11324" lon="6.04483">
        <ele>1258.981</ele>
        <time>2009-07-12T10:06:02Z</time>
      </trkpt>
      <trkpt lat="45.11343" lon="6.04478">
        <ele>1258.154</ele>
        <time>2009-07-12T10:06:08Z</time>
      </trkpt>
      <trkpt lat="45.11353" lon="6.0447">
        <ele>1253.515</ele>
        <time>2009-07-12T10:06:15Z</time>
      </trkpt>
      <trkpt lat="45.11364" lon="6.04467">
        <ele>1250.756</ele>
        <time>2009-07-12T10:06:26Z</time>
      </trkpt>
      <trkpt lat="45.11366" lon="6.04469">
        <ele>1249.25</ele>
        <time>2009-07-12T10:06:36Z</time>
      </trkpt>
      <trkpt lat="45.11367" lon="6.04468">
        <ele>1249.116</ele>
        <time>2009-07-12T10:06:37Z</time>
      </trkpt>
      <trkpt lat="45.11374" lon="6.04467">
        <ele>1248.21</ele>
        <time>2009-07-12T10:06:43Z</time>
      </trkpt>
      <trkpt lat="45.1138" lon="6.04461">
        <ele>1247.085</ele>
        <time>2009-07-12T10:06:51Z</time>
      </trkpt>
      <trkpt lat="45.11386" lon="6.04456">
        <ele>1245.457</ele>
        <time>2009-07-12T10:06:59Z</time>
      </trkpt>
      <trkpt lat="45.11388" lon="6.04458">
        <ele>1244.497</ele>
        <time>2009-07-12T10:07:03Z</time>
      </trkpt>
      <trkpt lat="45.11395" lon="6.04457">
        <ele>1243.813</ele>
        <time>2009-07-12T10:07:12Z</time>
      </trkpt>
      <trkpt lat="45.11399" lon="6.04451">
        <ele>1243.141</ele>
        <time>2009-07-12T10:07:22Z</time>
      </trkpt>
      <trkpt lat="45.11402" lon="6.04458">
        <ele>1241.096</ele>
        <time>2009-07-12T10:07:30Z</time>
      </trkpt>
      <trkpt lat="45.11404" lon="6.04456">
        <ele>1240.881</ele>
        <time>2009-07-12T10:07:32Z</time>
      </trkpt>
      <trkpt lat="45.11406" lon="6.04445">
        <ele>1240.127</ele>
        <time>2009-07-12T10:07:37Z</time>
      </trkpt>
      <trkpt lat="45.11413" lon="6.0444">
        <ele>1239.189</ele>
        <time>2009-07-12T10:07:47Z</time>
      </trkpt>
      <trkpt lat="45.11415" lon="6.04436">
        <ele>1235.986</ele>
        <time>2009-07-12T10:08:17Z</time>
      </trkpt>
      <trkpt lat="45.1142" lon="6.04438">
        <ele>1236.268</ele>
        <time>2009-07-12T10:08:36Z</time>
      </trkpt>
      <trkpt lat="45.11421" lon="6.04436">
        <ele>1234.447</ele>
        <time>2009-07-12T10:08:38Z</time>
      </trkpt>
      <trkpt lat="45.1142" lon="6.04438">
        <ele>1231.501</ele>
        <time>2009-07-12T10:08:41Z</time>
      </trkpt>
      <trkpt lat="45.11421" lon="6.04435">
        <ele>1226.087</ele>
        <time>2009-07-12T10:08:46Z</time>
      </trkpt>
      <trkpt lat="45.11424" lon="6.04427">
        <ele>1222.777</ele>
        <time>2009-07-12T10:08:50Z</time>
      </trkpt>
      <trkpt lat="45.11429" lon="6.04417">
        <ele>1219.564</ele>
        <time>2009-07-12T10:08:57Z</time>
      </trkpt>
      <trkpt lat="45.11426" lon="6.04412">
        <ele>1214.687</ele>
        <time>2009-07-12T10:09:02Z</time>
      </trkpt>
      <trkpt lat="45.11431" lon="6.04408">
        <ele>1213.322</ele>
        <time>2009-07-12T10:09:07Z</time>
      </trkpt>
      <trkpt lat="45.11442" lon="6.04423">
        <ele>1211.184</ele>
        <time>2009-07-12T10:09:14Z</time>
      </trkpt>
      <trkpt lat="45.11442" lon="6.04434">
        <ele>1211.343</ele>
        <time>2009-07-12T10:09:18Z</time>
      </trkpt>
      <trkpt lat="45.11438" lon="6.04461">
        <ele>1209.395</ele>
        <time>2009-07-12T10:09:26Z</time>
      </trkpt>
      <trkpt lat="45.11447" lon="6.04477">
        <ele>1209.168</ele>
        <time>2009-07-12T10:09:30Z</time>
      </trkpt>
      <trkpt lat="45.11452" lon="6.04496">
        <ele>1207.387</ele>
        <time>2009-07-12T10:09:38Z</time>
      </trkpt>
      <trkpt lat="45.11453" lon="6.04504">
        <ele>1205.652</ele>
        <time>2009-07-12T10:09:50Z</time>
      </trkpt>
      <trkpt lat="45.11453" lon="6.04506">
        <ele>1204.669</ele>
        <time>2009-07-12T10:09:51Z</time>
      </trkpt>
      <trkpt lat="45.11466" lon="6.04507">
        <ele>1202.434</ele>
        <time>2009-07-12T10:09:56Z</time>
      </trkpt>
      <trkpt lat="45.11476" lon="6.04498">
        <ele>1199.376</ele>
        <time>2009-07-12T10:10:02Z</time>
      </trkpt>
      <trkpt lat="45.1148" lon="6.04493">
        <ele>1195.799</ele>
        <time>2009-07-12T10:10:07Z</time>
      </trkpt>
      <trkpt lat="45.11485" lon="6.04488">
        <ele>1193.885</ele>
        <time>2009-07-12T10:10:15Z</time>
      </trkpt>
      <trkpt lat="45.1149" lon="6.04472">
        <ele>1190.311</ele>
        <time>2009-07-12T10:10:41Z</time>
      </trkpt>
      <trkpt lat="45.11496" lon="6.04467">
        <ele>1190.182</ele>
        <time>2009-07-12T10:11:08Z</time>
      </trkpt>
      <trkpt lat="45.11508" lon="6.04445">
        <ele>1190.115</ele>
        <time>2009-07-12T10:11:23Z</time>
      </trkpt>
      <trkpt lat="45.11518" lon="6.04448">
        <ele>1189.539</ele>
        <time>2009-07-12T10:11:33Z</time>
      </trkpt>
      <trkpt lat="45.11515" lon="6.04445">
        <ele>1188.919</ele>
        <time>2009-07-12T10:11:40Z</time>
      </trkpt>
      <trkpt lat="45.11524" lon="6.04437">
        <ele>1192.206</ele>
        <time>2009-07-12T10:11:44Z</time>
      </trkpt>
      <trkpt lat="45.11525" lon="6.04413">
        <ele>1195.195</ele>
        <time>2009-07-12T10:11:48Z</time>
      </trkpt>
      <trkpt lat="45.11526" lon="6.044">
        <ele>1198.429</ele>
        <time>2009-07-12T10:11:52Z</time>
      </trkpt>
      <trkpt lat="45.1153" lon="6.04385">
        <ele>1201.665</ele>
        <time>2009-07-12T10:11:56Z</time>
      </trkpt>
      <trkpt lat="45.11532" lon="6.04372">
        <ele>1203.836</ele>
        <time>2009-07-12T10:11:59Z</time>
      </trkpt>
      <trkpt lat="45.11542" lon="6.04368">
        <ele>1207.694</ele>
        <time>2009-07-12T10:12:04Z</time>
      </trkpt>
      <trkpt lat="45.11564" lon="6.04348">
        <ele>1207.65</ele>
        <time>2009-07-12T10:12:06Z</time>
      </trkpt>
      <trkpt lat="45.11561" lon="6.04351">
        <ele>1211.948</ele>
        <time>2009-07-12T10:12:14Z</time>
      </trkpt>
      <trkpt lat="45.11561" lon="6.04352">
        <ele>1214.595</ele>
        <time>2009-07-12T10:12:22Z</time>
      </trkpt>
      <trkpt lat="45.11581" lon="6.04349">
        <ele>1225.767</ele>
        <time>2009-07-12T10:13:05Z</time>
      </trkpt>
      <trkpt lat="45.11583" lon="6.04336">
        <ele>1225.998</ele>
        <time>2009-07-12T10:13:08Z</time>
      </trkpt>
      <trkpt lat="45.11595" lon="6.0432">
        <ele>1226.373</ele>
        <time>2009-07-12T10:13:13Z</time>
      </trkpt>
      <trkpt lat="45.11597" lon="6.04327">
        <ele>1225.745</ele>
        <time>2009-07-12T10:13:15Z</time>
      </trkpt>
      <trkpt lat="45.11652" lon="6.04323">
        <ele>1206.688</ele>
        <time>2009-07-12T10:13:20Z</time>
      </trkpt>
      <trkpt lat="45.11664" lon="6.04309">
        <ele>1196.264</ele>
        <time>2009-07-12T10:13:25Z</time>
      </trkpt>
      <trkpt lat="45.11695" lon="6.04298">
        <ele>1190.912</ele>
        <time>2009-07-12T10:13:31Z</time>
      </trkpt>
      <trkpt lat="45.11746" lon="6.04304">
        <ele>1184.107</ele>
        <time>2009-07-12T10:13:38Z</time>
      </trkpt>
      <trkpt lat="45.1179" lon="6.04309">
        <ele>1174.945</ele>
        <time>2009-07-12T10:13:43Z</time>
      </trkpt>
      <trkpt lat="45.11801" lon="6.04299">
        <ele>1155.347</ele>
        <time>2009-07-12T10:13:46Z</time>
      </trkpt>
      <trkpt lat="45.11827" lon="6.04343">
        <ele>1147.422</ele>
        <time>2009-07-12T10:13:51Z</time>
      </trkpt>
      <trkpt lat="45.11834" lon="6.04377">
        <ele>1136.448</ele>
        <time>2009-07-12T10:13:55Z</time>
      </trkpt>
      <trkpt lat="45.11838" lon="6.04399">
        <ele>1129.26</ele>
        <time>2009-07-12T10:13:58Z</time>
      </trkpt>
      <trkpt lat="45.11838" lon="6.04418">
        <ele>1122.393</ele>
        <time>2009-07-12T10:14:01Z</time>
      </trkpt>
      <trkpt lat="45.11842" lon="6.04428">
        <ele>1110.599</ele>
        <time>2009-07-12T10:14:05Z</time>
      </trkpt>
      <trkpt lat="45.11841" lon="6.04417">
        <ele>1106.135</ele>
        <time>2009-07-12T10:14:08Z</time>
      </trkpt>
      <trkpt lat="45.11841" lon="6.04393">
        <ele>1101.591</ele>
        <time>2009-07-12T10:14:12Z</time>
      </trkpt>
      <trkpt lat="45.11841" lon="6.0435">
        <ele>1095.585</ele>
        <time>2009-07-12T10:14:18Z</time>
      </trkpt>
      <trkpt lat="45.11836" lon="6.04322">
        <ele>1092.305</ele>
        <time>2009-07-12T10:14:21Z</time>
      </trkpt>
      <trkpt lat="45.1183" lon="6.04293">
        <ele>1089.164</ele>
        <time>2009-07-12T10:14:24Z</time>
      </trkpt>
      <trkpt lat="45.11828" lon="6.04267">
        <ele>1086.31</ele>
        <time>2009-07-12T10:14:27Z</time>
      </trkpt>
      <trkpt lat="45.11822" lon="6.04219">
        <ele>1080.931</ele>
        <time>2009-07-12T10:14:33Z</time>
      </trkpt>
      <trkpt lat="45.11825" lon="6.04195">
        <ele>1076.393</ele>
        <time>2009-07-12T10:14:38Z</time>
      </trkpt>
      <trkpt lat="45.1182" lon="6.04172">
        <ele>1070.763</ele>
        <time>2009-07-12T10:14:43Z</time>
      </trkpt>
      <trkpt lat="45.1182" lon="6.04154">
        <ele>1066.726</ele>
        <time>2009-07-12T10:14:48Z</time>
      </trkpt>
      <trkpt lat="45.11817" lon="6.04152">
        <ele>1066.084</ele>
        <time>2009-07-12T10:14:49Z</time>
      </trkpt>
      <trkpt lat="45.1181" lon="6.04136">
        <ele>1063.25</ele>
        <time>2009-07-12T10:14:54Z</time>
      </trkpt>
      <trkpt lat="45.118" lon="6.04121">
        <ele>1059.801</ele>
        <time>2009-07-12T10:14:59Z</time>
      </trkpt>
      <trkpt lat="45.11759" lon="6.04107">
        <ele>1060.303</ele>
        <time>2009-07-12T10:15:05Z</time>
      </trkpt>
      <trkpt lat="45.11765" lon="6.04097">
        <ele>1054.028</ele>
        <time>2009-07-12T10:15:12Z</time>
      </trkpt>
      <trkpt lat="45.11762" lon="6.04073">
        <ele>1047.479</ele>
        <time>2009-07-12T10:15:17Z</time>
      </trkpt>
      <trkpt lat="45.11761" lon="6.04067">
        <ele>1047.508</ele>
        <time>2009-07-12T10:15:18Z</time>
      </trkpt>
      <trkpt lat="45.1176" lon="6.04059">
        <ele>1046.157</ele>
        <time>2009-07-12T10:15:20Z</time>
      </trkpt>
      <trkpt lat="45.11764" lon="6.0403">
        <ele>1044.656</ele>
        <time>2009-07-12T10:15:24Z</time>
      </trkpt>
      <trkpt lat="45.11766" lon="6.04014">
        <ele>1042.678</ele>
        <time>2009-07-12T10:15:27Z</time>
      </trkpt>
      <trkpt lat="45.11764" lon="6.03995">
        <ele>1041.016</ele>
        <time>2009-07-12T10:15:32Z</time>
      </trkpt>
      <trkpt lat="45.11767" lon="6.03985">
        <ele>1039.377</ele>
        <time>2009-07-12T10:15:34Z</time>
      </trkpt>
      <trkpt lat="45.11766" lon="6.0396">
        <ele>1037.021</ele>
        <time>2009-07-12T10:15:40Z</time>
      </trkpt>
      <trkpt lat="45.1177" lon="6.03931">
        <ele>1036.136</ele>
        <time>2009-07-12T10:15:46Z</time>
      </trkpt>
      <trkpt lat="45.1177" lon="6.03908">
        <ele>1032.736</ele>
        <time>2009-07-12T10:15:52Z</time>
      </trkpt>
      <trkpt lat="45.11772" lon="6.03904">
        <ele>1032.031</ele>
        <time>2009-07-12T10:15:58Z</time>
      </trkpt>
      <trkpt lat="45.11787" lon="6.03876">
        <ele>1024.704</ele>
        <time>2009-07-12T10:16:01Z</time>
      </trkpt>
      <trkpt lat="45.11794" lon="6.03861">
        <ele>1020.076</ele>
        <time>2009-07-12T10:16:06Z</time>
      </trkpt>
      <trkpt lat="45.11806" lon="6.03834">
        <ele>1017.399</ele>
        <time>2009-07-12T10:16:13Z</time>
      </trkpt>
      <trkpt lat="45.11815" lon="6.03819">
        <ele>1011.943</ele>
        <time>2009-07-12T10:16:17Z</time>
      </trkpt>
      <trkpt lat="45.11815" lon="6.03803">
        <ele>1009.866</ele>
        <time>2009-07-12T10:16:22Z</time>
      </trkpt>
      <trkpt lat="45.11815" lon="6.03798">
        <ele>1009.159</ele>
        <time>2009-07-12T10:16:23Z</time>
      </trkpt>
      <trkpt lat="45.11817" lon="6.03775">
        <ele>1006.191</ele>
        <time>2009-07-12T10:16:29Z</time>
      </trkpt>
      <trkpt lat="45.11828" lon="6.03762">
        <ele>1004.455</ele>
        <time>2009-07-12T10:16:34Z</time>
      </trkpt>
      <trkpt lat="45.11828" lon="6.03756">
        <ele>1004.059</ele>
        <time>2009-07-12T10:16:37Z</time>
      </trkpt>
      <trkpt lat="45.11829" lon="6.03749">
        <ele>1003.936</ele>
        <time>2009-07-12T10:16:39Z</time>
      </trkpt>
      <trkpt lat="45.11831" lon="6.03731">
        <ele>1004.417</ele>
        <time>2009-07-12T10:16:45Z</time>
      </trkpt>
      <trkpt lat="45.11845" lon="6.03678">
        <ele>1000.451</ele>
        <time>2009-07-12T10:16:49Z</time>
      </trkpt>
      <trkpt lat="45.11846" lon="6.03661">
        <ele>999.845</ele>
        <time>2009-07-12T10:16:51Z</time>
      </trkpt>
      <trkpt lat="45.11846" lon="6.03609">
        <ele>996.812</ele>
        <time>2009-07-12T10:16:57Z</time>
      </trkpt>
      <trkpt lat="45.11843" lon="6.03595">
        <ele>995.429</ele>
        <time>2009-07-12T10:17:00Z</time>
      </trkpt>
      <trkpt lat="45.11835" lon="6.03569">
        <ele>994.449</ele>
        <time>2009-07-12T10:17:04Z</time>
      </trkpt>
      <trkpt lat="45.11823" lon="6.03532">
        <ele>993.312</ele>
        <time>2009-07-12T10:17:11Z</time>
      </trkpt>
      <trkpt lat="45.11814" lon="6.03516">
        <ele>994.85</ele>
        <time>2009-07-12T10:17:17Z</time>
      </trkpt>
      <trkpt lat="45.11812" lon="6.03513">
        <ele>994.437</ele>
        <time>2009-07-12T10:17:18Z</time>
      </trkpt>
      <trkpt lat="45.11805" lon="6.03497">
        <ele>995.963</ele>
        <time>2009-07-12T10:17:24Z</time>
      </trkpt>
      <trkpt lat="45.11797" lon="6.03466">
        <ele>994.498</ele>
        <time>2009-07-12T10:17:30Z</time>
      </trkpt>
      <trkpt lat="45.11798" lon="6.03463">
        <ele>994.935</ele>
        <time>2009-07-12T10:17:40Z</time>
      </trkpt>
      <trkpt lat="45.11788" lon="6.03449">
        <ele>994.372</ele>
        <time>2009-07-12T10:17:47Z</time>
      </trkpt>
      <trkpt lat="45.11787" lon="6.03447">
        <ele>994.419</ele>
        <time>2009-07-12T10:17:48Z</time>
      </trkpt>
      <trkpt lat="45.11777" lon="6.03418">
        <ele>998.707</ele>
        <time>2009-07-12T10:17:57Z</time>
      </trkpt>
      <trkpt lat="45.11783" lon="6.03398">
        <ele>1002.386</ele>
        <time>2009-07-12T10:18:02Z</time>
      </trkpt>
      <trkpt lat="45.11776" lon="6.03384">
        <ele>1005.698</ele>
        <time>2009-07-12T10:18:07Z</time>
      </trkpt>
      <trkpt lat="45.11769" lon="6.03379">
        <ele>1006.379</ele>
        <time>2009-07-12T10:18:08Z</time>
      </trkpt>
      <trkpt lat="45.11743" lon="6.03357">
        <ele>1009.985</ele>
        <time>2009-07-12T10:18:13Z</time>
      </trkpt>
      <trkpt lat="45.11743" lon="6.03352">
        <ele>1010.535</ele>
        <time>2009-07-12T10:18:14Z</time>
      </trkpt>
      <trkpt lat="45.11746" lon="6.03343">
        <ele>1012.346</ele>
        <time>2009-07-12T10:18:17Z</time>
      </trkpt>
      <trkpt lat="45.11746" lon="6.03318">
        <ele>1014.303</ele>
        <time>2009-07-12T10:18:21Z</time>
      </trkpt>
      <trkpt lat="45.11749" lon="6.033">
        <ele>1016.061</ele>
        <time>2009-07-12T10:18:24Z</time>
      </trkpt>
      <trkpt lat="45.11745" lon="6.0329">
        <ele>1016.949</ele>
        <time>2009-07-12T10:18:26Z</time>
      </trkpt>
      <trkpt lat="45.11735" lon="6.03252">
        <ele>1019.23</ele>
        <time>2009-07-12T10:18:32Z</time>
      </trkpt>
      <trkpt lat="45.11728" lon="6.03239">
        <ele>1019.833</ele>
        <time>2009-07-12T10:18:37Z</time>
      </trkpt>
      <trkpt lat="45.11728" lon="6.03232">
        <ele>1020.063</ele>
        <time>2009-07-12T10:18:39Z</time>
      </trkpt>
      <trkpt lat="45.11717" lon="6.03179">
        <ele>1022.759</ele>
        <time>2009-07-12T10:18:46Z</time>
      </trkpt>
      <trkpt lat="45.11716" lon="6.03174">
        <ele>1023.17</ele>
        <time>2009-07-12T10:18:48Z</time>
      </trkpt>
      <trkpt lat="45.11708" lon="6.03147">
        <ele>1024.694</ele>
        <time>2009-07-12T10:18:52Z</time>
      </trkpt>
      <trkpt lat="45.11705" lon="6.03123">
        <ele>1025.968</ele>
        <time>2009-07-12T10:18:58Z</time>
      </trkpt>
      <trkpt lat="45.11706" lon="6.03119">
        <ele>1026.289</ele>
        <time>2009-07-12T10:19:00Z</time>
      </trkpt>
      <trkpt lat="45.11698" lon="6.03097">
        <ele>1026.834</ele>
        <time>2009-07-12T10:19:07Z</time>
      </trkpt>
      <trkpt lat="45.11581" lon="6.03035">
        <ele>1029.281</ele>
        <time>2009-07-12T10:19:12Z</time>
      </trkpt>
      <trkpt lat="45.11573" lon="6.03024">
        <ele>1030.049</ele>
        <time>2009-07-12T10:19:19Z</time>
      </trkpt>
      <trkpt lat="45.11572" lon="6.03025">
        <ele>1030.286</ele>
        <time>2009-07-12T10:19:34Z</time>
      </trkpt>
      <trkpt lat="45.11593" lon="6.03025">
        <ele>1030.359</ele>
        <time>2009-07-12T10:19:40Z</time>
      </trkpt>
      <trkpt lat="45.11609" lon="6.03028">
        <ele>1030.67</ele>
        <time>2009-07-12T10:19:44Z</time>
      </trkpt>
      <trkpt lat="45.11635" lon="6.03031">
        <ele>1026.326</ele>
        <time>2009-07-12T10:19:51Z</time>
      </trkpt>
      <trkpt lat="45.11637" lon="6.03033">
        <ele>1026.31</ele>
        <time>2009-07-12T10:19:53Z</time>
      </trkpt>
      <trkpt lat="45.11747" lon="6.02869">
        <ele>1031.682</ele>
        <time>2009-07-12T10:19:57Z</time>
      </trkpt>
      <trkpt lat="45.11782" lon="6.02902">
        <ele>1034.298</ele>
        <time>2009-07-12T10:20:04Z</time>
      </trkpt>
      <trkpt lat="45.11805" lon="6.02925">
        <ele>1038.574</ele>
        <time>2009-07-12T10:20:11Z</time>
      </trkpt>
      <trkpt lat="45.11833" lon="6.02941">
        <ele>1044.285</ele>
        <time>2009-07-12T10:20:19Z</time>
      </trkpt>
      <trkpt lat="45.11849" lon="6.02953">
        <ele>1046.808</ele>
        <time>2009-07-12T10:20:23Z</time>
      </trkpt>
      <trkpt lat="45.11889" lon="6.02975">
        <ele>1049.77</ele>
        <time>2009-07-12T10:20:29Z</time>
      </trkpt>
      <trkpt lat="45.11935" lon="6.03052">
        <ele>1047.912</ele>
        <time>2009-07-12T10:20:35Z</time>
      </trkpt>
      <trkpt lat="45.11926" lon="6.03009">
        <ele>1048.723</ele>
        <time>2009-07-12T10:20:40Z</time>
      </trkpt>
      <trkpt lat="45.11943" lon="6.03005">
        <ele>1051.481</ele>
        <time>2009-07-12T10:20:46Z</time>
      </trkpt>
      <trkpt lat="45.11954" lon="6.03005">
        <ele>1055.16</ele>
        <time>2009-07-12T10:20:51Z</time>
      </trkpt>
      <trkpt lat="45.11944" lon="6.03007">
        <ele>1058.913</ele>
        <time>2009-07-12T10:20:57Z</time>
      </trkpt>
      <trkpt lat="45.11958" lon="6.03024">
        <ele>1065.259</ele>
        <time>2009-07-12T10:21:04Z</time>
      </trkpt>
      <trkpt lat="45.11963" lon="6.03028">
        <ele>1067.286</ele>
        <time>2009-07-12T10:21:06Z</time>
      </trkpt>
      <trkpt lat="45.11981" lon="6.03021">
        <ele>1065.039</ele>
        <time>2009-07-12T10:21:10Z</time>
      </trkpt>
      <trkpt lat="45.12004" lon="6.03025">
        <ele>1073.76</ele>
        <time>2009-07-12T10:21:14Z</time>
      </trkpt>
      <trkpt lat="45.12016" lon="6.0301">
        <ele>1077.165</ele>
        <time>2009-07-12T10:21:18Z</time>
      </trkpt>
      <trkpt lat="45.12026" lon="6.03002">
        <ele>1080.821</ele>
        <time>2009-07-12T10:21:22Z</time>
      </trkpt>
      <trkpt lat="45.12025" lon="6.03003">
        <ele>1081.61</ele>
        <time>2009-07-12T10:21:23Z</time>
      </trkpt>
      <trkpt lat="45.12032" lon="6.03011">
        <ele>1085.003</ele>
        <time>2009-07-12T10:21:28Z</time>
      </trkpt>
      <trkpt lat="45.12043" lon="6.03014">
        <ele>1087.658</ele>
        <time>2009-07-12T10:21:39Z</time>
      </trkpt>
      <trkpt lat="45.12047" lon="6.03024">
        <ele>1087.715</ele>
        <time>2009-07-12T10:21:43Z</time>
      </trkpt>
      <trkpt lat="45.12025" lon="6.03164">
        <ele>1087.476</ele>
        <time>2009-07-12T10:21:45Z</time>
      </trkpt>
      <trkpt lat="45.12083" lon="6.03221">
        <ele>1088.302</ele>
        <time>2009-07-12T10:21:49Z</time>
      </trkpt>
      <trkpt lat="45.12101" lon="6.03226">
        <ele>1087.902</ele>
        <time>2009-07-12T10:21:53Z</time>
      </trkpt>
      <trkpt lat="45.12103" lon="6.03245">
        <ele>1088.076</ele>
        <time>2009-07-12T10:21:56Z</time>
      </trkpt>
      <trkpt lat="45.12129" lon="6.0338">
        <ele>1031.464</ele>
        <time>2009-07-12T10:22:03Z</time>
      </trkpt>
      <trkpt lat="45.12128" lon="6.03385">
        <ele>1031.479</ele>
        <time>2009-07-12T10:22:04Z</time>
      </trkpt>
      <trkpt lat="45.12133" lon="6.034">
        <ele>1031.556</ele>
        <time>2009-07-12T10:22:08Z</time>
      </trkpt>
      <trkpt lat="45.12118" lon="6.03408">
        <ele>968.048</ele>
        <time>2009-07-12T10:22:15Z</time>
      </trkpt>
      <trkpt lat="45.12112" lon="6.03387">
        <ele>966.804</ele>
        <time>2009-07-12T10:22:23Z</time>
      </trkpt>
      <trkpt lat="45.12151" lon="6.03395">
        <ele>969.221</ele>
        <time>2009-07-12T10:22:29Z</time>
      </trkpt>
      <trkpt lat="45.12179" lon="6.03401">
        <ele>971.42</ele>
        <time>2009-07-12T10:22:36Z</time>
      </trkpt>
      <trkpt lat="45.1218" lon="6.03405">
        <ele>964.697</ele>
        <time>2009-07-12T10:22:46Z</time>
      </trkpt>
      <trkpt lat="45.12178" lon="6.03409">
        <ele>947.696</ele>
        <time>2009-07-12T10:22:54Z</time>
      </trkpt>
      <trkpt lat="45.12191" lon="6.03417">
        <ele>941.757</ele>
        <time>2009-07-12T10:23:02Z</time>
      </trkpt>
      <trkpt lat="45.12203" lon="6.03428">
        <ele>932.671</ele>
        <time>2009-07-12T10:23:07Z</time>
      </trkpt>
      <trkpt lat="45.12232" lon="6.03442">
        <ele>922.092</ele>
        <time>2009-07-12T10:23:15Z</time>
      </trkpt>
      <trkpt lat="45.12253" lon="6.03457">
        <ele>914.698</ele>
        <time>2009-07-12T10:23:21Z</time>
      </trkpt>
      <trkpt lat="45.12252" lon="6.03467">
        <ele>907.511</ele>
        <time>2009-07-12T10:23:26Z</time>
      </trkpt>
      <trkpt lat="45.12252" lon="6.03468">
        <ele>906.832</ele>
        <time>2009-07-12T10:23:30Z</time>
      </trkpt>
      <trkpt lat="45.12269" lon="6.0347">
        <ele>903.487</ele>
        <time>2009-07-12T10:23:36Z</time>
      </trkpt>
      <trkpt lat="45.12297" lon="6.03486">
        <ele>897.17</ele>
        <time>2009-07-12T10:23:40Z</time>
      </trkpt>
      <trkpt lat="45.12305" lon="6.03497">
        <ele>897.042</ele>
        <time>2009-07-12T10:23:42Z</time>
      </trkpt>
      <trkpt lat="45.1232" lon="6.03536">
        <ele>884.72</ele>
        <time>2009-07-12T10:23:44Z</time>
      </trkpt>
      <trkpt lat="45.12326" lon="6.03548">
        <ele>882.802</ele>
        <time>2009-07-12T10:23:46Z</time>
      </trkpt>
      <trkpt lat="45.12382" lon="6.03564">
        <ele>866.868</ele>
        <time>2009-07-12T10:23:49Z</time>
      </trkpt>
      <trkpt lat="45.1243" lon="6.0358">
        <ele>855.237</ele>
        <time>2009-07-12T10:23:56Z</time>
      </trkpt>
      <trkpt lat="45.12435" lon="6.0358">
        <ele>853.665</ele>
        <time>2009-07-12T10:23:57Z</time>
      </trkpt>
      <trkpt lat="45.12464" lon="6.03591">
        <ele>830.088</ele>
        <time>2009-07-12T10:24:03Z</time>
      </trkpt>
      <trkpt lat="45.12483" lon="6.036">
        <ele>825.397</ele>
        <time>2009-07-12T10:24:06Z</time>
      </trkpt>
      <trkpt lat="45.12489" lon="6.03617">
        <ele>816.983</ele>
        <time>2009-07-12T10:24:10Z</time>
      </trkpt>
      <trkpt lat="45.12504" lon="6.03637">
        <ele>799.282</ele>
        <time>2009-07-12T10:24:18Z</time>
      </trkpt>
      <trkpt lat="45.12519" lon="6.03653">
        <ele>774.882</ele>
        <time>2009-07-12T10:24:23Z</time>
      </trkpt>
      <trkpt lat="45.12527" lon="6.03654">
        <ele>769.66</ele>
        <time>2009-07-12T10:24:28Z</time>
      </trkpt>
      <trkpt lat="45.12536" lon="6.03656">
        <ele>769.514</ele>
        <time>2009-07-12T10:24:34Z</time>
      </trkpt>
      <trkpt lat="45.12536" lon="6.03658">
        <ele>767.801</ele>
        <time>2009-07-12T10:24:35Z</time>
      </trkpt>
      <trkpt lat="45.12543" lon="6.03682">
        <ele>766.908</ele>
        <time>2009-07-12T10:24:41Z</time>
      </trkpt>
      <trkpt lat="45.12548" lon="6.03698">
        <ele>765.133</ele>
        <time>2009-07-12T10:24:46Z</time>
      </trkpt>
      <trkpt lat="45.12551" lon="6.03705">
        <ele>765.703</ele>
        <time>2009-07-12T10:24:48Z</time>
      </trkpt>
      <trkpt lat="45.12552" lon="6.03729">
        <ele>767.578</ele>
        <time>2009-07-12T10:24:55Z</time>
      </trkpt>
      <trkpt lat="45.12554" lon="6.03732">
        <ele>768.228</ele>
        <time>2009-07-12T10:24:56Z</time>
      </trkpt>
      <trkpt lat="45.12564" lon="6.03767">
        <ele>774.228</ele>
        <time>2009-07-12T10:25:04Z</time>
      </trkpt>
      <trkpt lat="45.1257" lon="6.03784">
        <ele>775.535</ele>
        <time>2009-07-12T10:25:07Z</time>
      </trkpt>
      <trkpt lat="45.12583" lon="6.0382">
        <ele>779.185</ele>
        <time>2009-07-12T10:25:14Z</time>
      </trkpt>
      <trkpt lat="45.1259" lon="6.0384">
        <ele>782.131</ele>
        <time>2009-07-12T10:25:19Z</time>
      </trkpt>
      <trkpt lat="45.12604" lon="6.03864">
        <ele>782.988</ele>
        <time>2009-07-12T10:25:25Z</time>
      </trkpt>
      <trkpt lat="45.1263" lon="6.03879">
        <ele>782.011</ele>
        <time>2009-07-12T10:25:30Z</time>
      </trkpt>
      <trkpt lat="45.12653" lon="6.03875">
        <ele>782.845</ele>
        <time>2009-07-12T10:25:36Z</time>
      </trkpt>
      <trkpt lat="45.12649" lon="6.0385">
        <ele>782.948</ele>
        <time>2009-07-12T10:25:40Z</time>
      </trkpt>
      <trkpt lat="45.12643" lon="6.03839">
        <ele>779.221</ele>
        <time>2009-07-12T10:25:45Z</time>
      </trkpt>
      <trkpt lat="45.12643" lon="6.03838">
        <ele>778.51</ele>
        <time>2009-07-12T10:25:46Z</time>
      </trkpt>
      <trkpt lat="45.12642" lon="6.03831">
        <ele>778.806</ele>
        <time>2009-07-12T10:25:50Z</time>
      </trkpt>
      <trkpt lat="45.12646" lon="6.03825">
        <ele>776.861</ele>
        <time>2009-07-12T10:25:52Z</time>
      </trkpt>
      <trkpt lat="45.12655" lon="6.03827">
        <ele>777.763</ele>
        <time>2009-07-12T10:25:59Z</time>
      </trkpt>
      <trkpt lat="45.12657" lon="6.03828">
        <ele>777.631</ele>
        <time>2009-07-12T10:27:15Z</time>
      </trkpt>
      <trkpt lat="45.12656" lon="6.0383">
        <ele>777.244</ele>
        <time>2009-07-12T10:27:19Z</time>
      </trkpt>
      <trkpt lat="45.12659" lon="6.03833">
        <ele>777.01</ele>
        <time>2009-07-12T10:27:26Z</time>
      </trkpt>
      <trkpt lat="45.12655" lon="6.03847">
        <ele>776.139</ele>
        <time>2009-07-12T10:27:33Z</time>
      </trkpt>
      <trkpt lat="45.12661" lon="6.03846">
        <ele>775.909</ele>
        <time>2009-07-12T10:27:40Z</time>
      </trkpt>
      <trkpt lat="45.12665" lon="6.03841">
        <ele>775.721</ele>
        <time>2009-07-12T10:27:45Z</time>
      </trkpt>
      <trkpt lat="45.12668" lon="6.03839">
        <ele>776.198</ele>
        <time>2009-07-12T10:27:48Z</time>
      </trkpt>
      <trkpt lat="45.12679" lon="6.03843">
        <ele>777.946</ele>
        <time>2009-07-12T10:27:57Z</time>
      </trkpt>
      <trkpt lat="45.12682" lon="6.03844">
        <ele>778.03</ele>
        <time>2009-07-12T10:28:07Z</time>
      </trkpt>
      <trkpt lat="45.12699" lon="6.03838">
        <ele>770.492</ele>
        <time>2009-07-12T10:41:47Z</time>
      </trkpt>
    </trkseg>
  </trk>
</gpx>